Provisional Data: Sangerfield River near Poolville, NY


Please select a monitoring station.
Please select start date.
Please select start date.

Toggle Unit: C/F Toggle Unit: C/F
Sample Time Temperature (C) Temperature (F) Specific Conductivity (mS/cm) pH   Turbidity (NTU+) DO (mg/L)
3/23/2021 12:00:00 AM 4.84 40.712 0.235 8.02 10.76 12.22
3/23/2021 12:15:00 AM 4.76 40.568 0.234 8.02 10.84 12.24
3/23/2021 12:30:00 AM 4.67 40.406 0.234 8.02 10.47 12.26
3/23/2021 12:45:00 AM 4.59 40.262 0.234 8.01 10.04 12.29
3/23/2021 1:00:00 AM 4.5 40.1 0.234 8.01 10.3 12.31
3/23/2021 1:15:00 AM 4.42 39.956 0.234 8.01 10.55 12.34
3/23/2021 1:30:00 AM 4.34 39.812 0.234 8.01 10.19 12.36
3/23/2021 1:45:00 AM 4.27 39.686 0.233 8.01 10.69 12.38
3/23/2021 2:00:00 AM 4.21 39.578 0.233 8.01 9.97 12.4
3/23/2021 2:15:00 AM 4.14 39.452 0.233 8.01 10.67 12.43
3/23/2021 2:30:00 AM 4.09 39.362 0.233 8.01 10.15 12.44
3/23/2021 2:45:00 AM 4.03 39.254 0.233 8 9.99 12.46
3/23/2021 3:00:00 AM 3.98 39.164 0.233 8 11.47 12.48
3/23/2021 3:15:00 AM 3.92 39.056 0.233 8 10.47 12.49
3/23/2021 3:30:00 AM 3.87 38.966 0.233 8 10.13 12.51
3/23/2021 3:45:00 AM 3.83 38.894 0.233 8 15.88 12.54
3/23/2021 4:00:00 AM 3.78 38.804 0.233 8 11.74 12.55
3/23/2021 4:15:00 AM 3.74 38.732 0.233 8 9.72 12.56
3/23/2021 4:30:00 AM 3.7 38.66 0.233 8 10.24 12.58
3/23/2021 4:45:00 AM 3.66 38.588 0.232 8 11.35 12.58
3/23/2021 5:00:00 AM 3.63 38.534 0.233 8 10.11 12.6
3/23/2021 5:15:00 AM 3.6 38.48 0.232 7.99 10.09 12.61
3/23/2021 5:30:00 AM 3.58 38.444 0.232 8 9.73 12.62
3/23/2021 5:45:00 AM 3.56 38.408 0.232 8 11.68 12.63
3/23/2021 6:00:00 AM 3.54 38.372 0.232 8 9.87 12.64
3/23/2021 6:15:00 AM 3.52 38.336 0.232 8 10.21 12.64
3/23/2021 6:30:00 AM 3.49 38.282 0.232 8 10.29 12.65
3/23/2021 6:45:00 AM 3.47 38.246 0.232 8 10.19 12.66
3/23/2021 7:00:00 AM 3.45 38.21 0.232 8 10.35 12.67
3/23/2021 7:15:00 AM 3.43 38.174 0.232 8 9.57 12.68
3/23/2021 7:30:00 AM 3.41 38.138 0.233 8 10.04 12.7
3/23/2021 7:45:00 AM 3.4 38.12 0.233 8 10.05 12.72
3/23/2021 8:00:00 AM 3.4 38.12 0.232 8.01 10.57 12.75
3/23/2021 8:15:00 AM 3.4 38.12 0.232 8.02 9.42 12.78
3/23/2021 8:30:00 AM 3.41 38.138 0.232 8.02 9.27 12.81
3/23/2021 8:45:00 AM 3.43 38.174 0.232 8.02 8.87 12.83
3/23/2021 9:00:00 AM 3.46 38.228 0.232 8.03 8.99 12.85
3/23/2021 9:15:00 AM 3.51 38.318 0.232 8.04 8.87 12.88
3/23/2021 9:30:00 AM 3.58 38.444 0.232 8.04 8.69 12.9
3/23/2021 9:45:00 AM 3.66 38.588 0.232 8.05 8.67 12.92
3/23/2021 10:00:00 AM 3.76 38.768 0.232 8.05 8.8 12.93
3/23/2021 10:15:00 AM 3.88 38.984 0.231 8.06 9.69 12.94
3/23/2021 10:30:00 AM 4.01 39.218 0.231 8.06 8.34 12.94
3/23/2021 10:45:00 AM 4.17 39.506 0.231 8.07 8.5 12.95
3/23/2021 11:00:00 AM 4.34 39.812 0.231 8.08 8 12.94
3/23/2021 11:15:00 AM 4.51 40.118 0.231 8.09 8.54 12.93
3/23/2021 11:30:00 AM 4.7 40.46 0.231 8.09 8.8 12.91
3/23/2021 11:45:00 AM 4.9 40.82 0.23 8.1 8.56 12.89
3/23/2021 12:00:00 PM 5.12 41.216 0.23 8.1 8.84 12.86
3/23/2021 12:15:00 PM 5.34 41.612 0.23 8.11 7.95 12.84
3/23/2021 12:30:00 PM 5.55 41.99 0.23 8.11 7.69 12.81
3/23/2021 12:45:00 PM 5.76 42.368 0.231 8.12 7.71 12.77
3/23/2021 1:00:00 PM 5.95 42.71 0.231 8.12 7.48 12.74
3/23/2021 1:15:00 PM 6.17 43.106 0.23 8.13 7.7 12.7
3/23/2021 1:30:00 PM 6.37 43.466 0.23 8.13 7.67 12.67
3/23/2021 1:45:00 PM 6.59 43.862 0.231 8.14 8.08 12.63
3/23/2021 2:00:00 PM 6.76 44.168 0.23 8.14 8.27 12.59
3/23/2021 2:15:00 PM 6.9 44.42 0.231 8.15 8.26 12.54
3/23/2021 2:30:00 PM 7.03 44.654 0.231 8.15 7.94 12.51
3/23/2021 2:45:00 PM 7.2 44.96 0.231 8.16 9.03 12.48
3/23/2021 3:00:00 PM 7.35 45.23 0.231 8.16 8.24 12.44
3/23/2021 3:15:00 PM 7.49 45.482 0.231 8.17 9.08 12.41
3/23/2021 3:30:00 PM 7.65 45.77 0.231 8.17 7.96 12.36
3/23/2021 3:45:00 PM 7.77 45.986 0.231 8.18 8.44 12.31
3/23/2021 4:00:00 PM 7.87 46.166 0.231 8.18 8.72 12.27
3/23/2021 4:15:00 PM 7.9 46.22 0.231 8.18 8.99 12.22
3/23/2021 4:30:00 PM 7.95 46.31 0.231 8.18 10.06 12.18
3/23/2021 4:45:00 PM 7.93 46.274 0.231 8.18 9.95 12.15
3/23/2021 5:00:00 PM 7.93 46.274 0.231 8.17 8.82 12.11
3/23/2021 5:15:00 PM 7.93 46.274 0.231 8.18 9.1 12.08
3/23/2021 5:30:00 PM 7.91 46.238 0.231 8.18 9.34 12.06
3/23/2021 5:45:00 PM 7.89 46.202 0.231 8.17 9.31 12.03
3/23/2021 6:00:00 PM 7.84 46.112 0.231 8.17 8.67 11.99
3/23/2021 6:15:00 PM 7.78 46.004 0.231 8.16 10.49 11.95
3/23/2021 6:30:00 PM 7.71 45.878 0.231 8.15 10.42 11.92
3/23/2021 6:45:00 PM 7.64 45.752 0.231 8.14 9.45 11.88
3/23/2021 7:00:00 PM 7.56 45.608 0.231 8.13 10.5 11.83
3/23/2021 7:15:00 PM 7.48 45.464 0.231 8.11 10.51 11.81
3/23/2021 7:30:00 PM 7.4 45.32 0.231 8.1 12.13 11.77
3/23/2021 7:45:00 PM 7.31 45.158 0.231 8.09 9.86 11.75
3/23/2021 8:00:00 PM 7.21 44.978 0.231 8.08 10.03 11.74
3/23/2021 8:15:00 PM 7.12 44.816 0.231 8.08 11.68 11.73
3/23/2021 8:30:00 PM 7.03 44.654 0.231 8.07 10.97 11.72
3/23/2021 8:45:00 PM 6.94 44.492 0.23 8.06 11.16 11.72
3/23/2021 9:00:00 PM 6.85 44.33 0.23 8.05 11.12 11.72
3/23/2021 9:15:00 PM 6.76 44.168 0.23 8.05 11.1 11.73
3/23/2021 9:30:00 PM 6.66 43.988 0.23 8.05 13.26 11.73
3/23/2021 9:45:00 PM 6.57 43.826 0.23 8.04 11.64 11.74
3/23/2021 10:00:00 PM 6.48 43.664 0.23 8.04 11.14 11.75
3/23/2021 10:15:00 PM 6.39 43.502 0.23 8.03 13.62 11.76
3/23/2021 10:30:00 PM 6.3 43.34 0.23 8.03 10.81 11.79
3/23/2021 10:45:00 PM 6.22 43.196 0.23 8.03 10.33 11.8
3/23/2021 11:00:00 PM 6.13 43.034 0.23 8.02 10.13 11.81
3/23/2021 11:15:00 PM 6.05 42.89 0.23 8.02 11.71 11.83
3/23/2021 11:30:00 PM 5.97 42.746 0.23 8.02 11.84 11.85
3/23/2021 11:45:00 PM 5.89 42.602 0.23 8.01 11.24 11.87
3/24/2021 12:00:00 AM 5.82 42.476 0.23 8.01 10.49 11.88
3/24/2021 12:15:00 AM 5.74 42.332 0.23 8 31.29 11.9
3/24/2021 12:30:00 AM 5.68 42.224 0.23 8.01 10.41 11.91
3/24/2021 12:45:00 AM 5.62 42.116 0.23 8.01 11.66 11.93
3/24/2021 1:00:00 AM 5.56 42.008 0.229 8 12.06 11.94
3/24/2021 1:15:00 AM 5.51 41.918 0.229 8 11.06 11.95
3/24/2021 1:30:00 AM 5.47 41.846 0.229 8 10.7 11.97
3/24/2021 1:45:00 AM 5.42 41.756 0.229 8 11.69 11.98
3/24/2021 2:00:00 AM 5.38 41.684 0.229 8 11.15 12
3/24/2021 2:15:00 AM 5.35 41.63 0.229 8 11.59 12.01
3/24/2021 2:30:00 AM 5.32 41.576 0.229 8 10.98 12.02
3/24/2021 2:45:00 AM 5.29 41.522 0.229 8 11.99 12.03
3/24/2021 3:00:00 AM 5.28 41.504 0.229 8 11.4 12.04
3/24/2021 3:15:00 AM 5.26 41.468 0.229 8 11.86 12.04
3/24/2021 3:30:00 AM 5.25 41.45 0.229 8 12.3 12.05
3/24/2021 3:45:00 AM 5.25 41.45 0.229 8 11.25 12.05
3/24/2021 4:00:00 AM 5.25 41.45 0.229 8 10.65 12.05
3/24/2021 4:15:00 AM 5.25 41.45 0.229 8 10.79 12.06
3/24/2021 4:30:00 AM 5.26 41.468 0.229 8 10.9 12.06
3/24/2021 4:45:00 AM 5.26 41.468 0.229 8 10.8 12.05
3/24/2021 5:00:00 AM 5.28 41.504 0.228 8 11.05 12.05
3/24/2021 5:15:00 AM 5.3 41.54 0.228 8 10.82 12.05
3/24/2021 5:30:00 AM 5.32 41.576 0.228 8 13.17 12.04
3/24/2021 5:45:00 AM 5.35 41.63 0.228 8 10.99 12.04
3/24/2021 6:00:00 AM 5.37 41.666 0.228 8 12.43 12.03
3/24/2021 6:15:00 AM 5.4 41.72 0.228 8 11.05 12.02
3/24/2021 6:30:00 AM 5.42 41.756 0.228 8 11.32 12.02
3/24/2021 6:45:00 AM 5.45 41.81 0.228 8 11.37 12.01
3/24/2021 7:00:00 AM 5.47 41.846 0.228 8 11.03 12
3/24/2021 7:15:00 AM 5.49 41.882 0.228 8.01 10.61 12
3/24/2021 7:30:00 AM 5.52 41.936 0.228 8.01 10.39 12
3/24/2021 7:45:00 AM 5.55 41.99 0.228 8.01 10.59 12
3/24/2021 8:00:00 AM 5.58 42.044 0.227 8.02 10.56 12.03
3/24/2021 8:15:00 AM 5.63 42.134 0.227 8.02 10.15 12.06
3/24/2021 8:30:00 AM 5.67 42.206 0.227 8.03 10.3 12.08
3/24/2021 8:45:00 AM 5.71 42.278 0.227 8.03 9.76 12.09
3/24/2021 9:00:00 AM 5.75 42.35 0.227 8.04 10.37 12.1
3/24/2021 9:15:00 AM 5.79 42.422 0.227 8.05 10.4 12.12
3/24/2021 9:30:00 AM 5.84 42.512 0.227 8.05 10.31 12.14
3/24/2021 9:45:00 AM 5.88 42.584 0.227 8.06 9.7 12.15
3/24/2021 10:00:00 AM 5.91 42.638 0.227 8.06 9.54 12.16
3/24/2021 10:15:00 AM 5.94 42.692 0.226 8.07 9.26 12.17
3/24/2021 10:30:00 AM 5.98 42.764 0.226 8.07 9.55 12.19
3/24/2021 10:45:00 AM 6.01 42.818 0.226 8.07 9.38 12.2
3/24/2021 11:00:00 AM 6.04 42.872 0.226 8.08 11.25 12.21
3/24/2021 11:15:00 AM 6.08 42.944 0.225 8.09 9.8 12.22
3/24/2021 11:30:00 AM 6.11 42.998 0.225 8.09 9.67 12.24
3/24/2021 11:45:00 AM 6.14 43.052 0.225 8.09 9.97 12.23
3/24/2021 12:00:00 PM 6.17 43.106 0.225 8.09 9.31 12.23
3/24/2021 12:15:00 PM 6.2 43.16 0.225 8.1 10.03 12.23
3/24/2021 12:30:00 PM 6.22 43.196 0.225 8.1 9.75 12.22
3/24/2021 12:45:00 PM 6.24 43.232 0.224 8.09 9.33 12.2
3/24/2021 1:00:00 PM 6.26 43.268 0.224 8.1 10.36 12.2
3/24/2021 1:15:00 PM 6.3 43.34 0.224 8.1 10.04 12.22
3/24/2021 1:30:00 PM 6.34 43.412 0.224 8.1 9.94 12.22
3/24/2021 1:45:00 PM 6.38 43.484 0.224 8.11 9.86 12.23
3/24/2021 2:00:00 PM 6.42 43.556 0.224 8.12 10.47 12.23
3/24/2021 2:15:00 PM 6.49 43.682 0.224 8.12 10.11 12.25
3/24/2021 2:30:00 PM 6.55 43.79 0.224 8.12 10.01 12.24
3/24/2021 2:45:00 PM 6.62 43.916 0.224 8.12 10.24 12.24
3/24/2021 3:00:00 PM 6.68 44.024 0.224 8.13 9.89 12.23
3/24/2021 3:15:00 PM 6.72 44.096 0.224 8.13 10.4 12.21
3/24/2021 3:30:00 PM 6.76 44.168 0.224 8.13 10.39 12.18
3/24/2021 3:45:00 PM 6.79 44.222 0.224 8.13 10.02 12.16
3/24/2021 4:00:00 PM 6.82 44.276 0.224 8.12 10.93 12.12
3/24/2021 4:15:00 PM 6.84 44.312 0.224 8.12 10.5 12.1
3/24/2021 4:30:00 PM 6.86 44.348 0.224 8.12 10 12.07
3/24/2021 4:45:00 PM 6.86 44.348 0.224 8.11 10.27 12.05
3/24/2021 5:00:00 PM 6.86 44.348 0.224 8.11 11.22 12.02
3/24/2021 5:15:00 PM 6.86 44.348 0.224 8.1 10.7 12
3/24/2021 5:30:00 PM 6.85 44.33 0.223 8.1 10.48 11.97
3/24/2021 5:45:00 PM 6.85 44.33 0.223 8.09 11.13 11.94
3/24/2021 6:00:00 PM 6.84 44.312 0.223 8.09 11.26 11.91
3/24/2021 6:15:00 PM 6.83 44.294 0.223 8.08 11.16 11.9
3/24/2021 6:30:00 PM 6.82 44.276 0.222 8.08 11.47 11.88
3/24/2021 6:45:00 PM 6.81 44.258 0.222 8.07 11.06 11.86
3/24/2021 7:00:00 PM 6.79 44.222 0.222 8.07 12.16 11.83
3/24/2021 7:15:00 PM 6.77 44.186 0.222 8.06 11.29 11.81
3/24/2021 7:30:00 PM 6.75 44.15 0.221 8.05 11.14 11.78
3/24/2021 7:45:00 PM 6.72 44.096 0.221 8.04 13.67 11.75
3/24/2021 8:00:00 PM 6.7 44.06 0.221 8.04 11.12 11.73
3/24/2021 8:15:00 PM 6.69 44.042 0.221 8.03 13.69 11.72
3/24/2021 8:30:00 PM 6.68 44.024 0.22 8.03 11.42 11.7
3/24/2021 8:45:00 PM 6.66 43.988 0.22 8.02 11.85 11.69
3/24/2021 9:00:00 PM 6.65 43.97 0.22 8.01 10.89 11.68
3/24/2021 9:15:00 PM 6.64 43.952 0.22 8.02 11.73 11.67
3/24/2021 9:30:00 PM 6.63 43.934 0.22 8 12.5 11.66
3/24/2021 9:45:00 PM 6.61 43.898 0.219 8 11.49 11.66
3/24/2021 10:00:00 PM 6.59 43.862 0.219 8 11.41 11.65
3/24/2021 10:15:00 PM 6.58 43.844 0.219 8 11.41 11.64
3/24/2021 10:30:00 PM 6.57 43.826 0.219 7.99 12.31 11.64
3/24/2021 10:45:00 PM 6.56 43.808 0.219 7.99 9.66 11.64
3/24/2021 11:00:00 PM 6.55 43.79 0.219 7.99 11.51 11.63
3/24/2021 11:15:00 PM 6.55 43.79 0.219 7.99 11.39 11.63
3/24/2021 11:30:00 PM 6.54 43.772 0.219 7.98 11.36 11.63
3/24/2021 11:45:00 PM 6.54 43.772 0.219 7.99 12.11 11.62
3/25/2021 12:00:00 AM 6.54 43.772 0.219 7.99 11.37 11.62
3/25/2021 12:15:00 AM 6.53 43.754 0.219 7.99 13.06 11.62
3/25/2021 12:30:00 AM 6.52 43.736 0.219 7.98 11.76 11.62
3/25/2021 12:45:00 AM 6.52 43.736 0.219 7.98 13.2 11.62
3/25/2021 1:00:00 AM 6.52 43.736 0.219 7.98 11.81 11.62
3/25/2021 1:15:00 AM 6.53 43.754 0.219 7.98 12.9 11.61
3/25/2021 1:30:00 AM 6.53 43.754 0.219 7.98 13.4 11.61
3/25/2021 1:45:00 AM 6.54 43.772 0.219 7.98 11.85 11.61
3/25/2021 2:00:00 AM 6.54 43.772 0.219 7.98 11.86 11.6
3/25/2021 2:15:00 AM 6.55 43.79 0.219 7.98 11.81 11.6
3/25/2021 2:30:00 AM 6.57 43.826 0.219 7.98 11.35 11.6
3/25/2021 2:45:00 AM 6.58 43.844 0.219 7.98 12.89 11.59
3/25/2021 3:00:00 AM 6.59 43.862 0.219 7.97 12.75 11.59
3/25/2021 3:15:00 AM 6.6 43.88 0.219 7.98 11.8 11.59
3/25/2021 3:30:00 AM 6.61 43.898 0.219 7.98 12.48 11.59
3/25/2021 3:45:00 AM 6.62 43.916 0.219 7.97 11.41 11.59
3/25/2021 4:00:00 AM 6.63 43.934 0.219 7.98 11.13 11.58
3/25/2021 4:15:00 AM 6.64 43.952 0.219 7.98 12.95 11.57
3/25/2021 4:30:00 AM 6.66 43.988 0.218 7.98 12.64 11.57
3/25/2021 4:45:00 AM 6.67 44.006 0.218 7.98 12.44 11.56
3/25/2021 5:00:00 AM 6.69 44.042 0.218 7.97 11.74 11.56
3/25/2021 5:15:00 AM 6.71 44.078 0.218 7.98 12.62 11.55
3/25/2021 5:30:00 AM 6.73 44.114 0.218 7.97 11.52 11.55
3/25/2021 5:45:00 AM 6.74 44.132 0.218 7.98 12.76 11.54
3/25/2021 6:00:00 AM 6.76 44.168 0.218 7.98 12.28 11.54
3/25/2021 6:15:00 AM 6.77 44.186 0.218 7.98 13.43 11.54
3/25/2021 6:30:00 AM 6.78 44.204 0.218 7.97 12.85 11.53
3/25/2021 6:45:00 AM 6.78 44.204 0.218 7.97 11.64 11.53
3/25/2021 7:00:00 AM 6.8 44.24 0.218 7.98 11.48 11.53
3/25/2021 7:15:00 AM 6.82 44.276 0.218 7.98 13.85 11.53
3/25/2021 7:30:00 AM 6.83 44.294 0.217 7.98 10.69 11.53
3/25/2021 7:45:00 AM 6.85 44.33 0.217 7.98 11.76 11.55
3/25/2021 8:00:00 AM 6.87 44.366 0.217 7.99 12.99 11.56
3/25/2021 8:15:00 AM 6.89 44.402 0.217 7.99 12.23 11.58
3/25/2021 8:30:00 AM 6.94 44.492 0.217 7.99 12.42 11.6
3/25/2021 8:45:00 AM 6.98 44.564 0.217 8 12.22 11.63
3/25/2021 9:00:00 AM 7.02 44.636 0.217 8 10.78 11.66
3/25/2021 9:15:00 AM 7.09 44.762 0.217 8.02 11.31 11.69
3/25/2021 9:30:00 AM 7.15 44.87 0.217 8.03 11.33 11.72
3/25/2021 9:45:00 AM 7.27 45.086 0.216 8.04 12.9 11.76
3/25/2021 10:00:00 AM 7.34 45.212 0.216 8.05 10.18 11.79
3/25/2021 10:15:00 AM 7.45 45.41 0.216 8.06 11.26 11.8
3/25/2021 10:30:00 AM 7.55 45.59 0.216 8.06 10.71 11.81
3/25/2021 10:45:00 AM 7.68 45.824 0.216 8.07 10.29 11.82
3/25/2021 11:00:00 AM 7.82 46.076 0.216 8.08 11.75 11.82
3/25/2021 11:15:00 AM 7.97 46.346 0.216 8.08 11.36 11.82
3/25/2021 11:30:00 AM 8.15 46.67 0.216 8.08 10.68 11.81
3/25/2021 11:45:00 AM 8.33 46.994 0.216 8.1 11.74 11.81
3/25/2021 12:00:00 PM 8.52 47.336 0.216 8.1 11.36 11.8
3/25/2021 12:15:00 PM 8.71 47.678 0.216 8.11 11.95 11.78
3/25/2021 12:30:00 PM 8.91 48.038 0.216 8.12 12.22 11.76
3/25/2021 12:45:00 PM 9.09 48.362 0.216 8.12 10.47 11.75
3/25/2021 1:00:00 PM 9.28 48.704 0.216 8.13 12.06 11.74
3/25/2021 1:15:00 PM 9.47 49.046 0.215 8.13 11.26 11.71
3/25/2021 1:30:00 PM 9.67 49.406 0.215 8.14 12.02 11.7
3/25/2021 1:45:00 PM 9.87 49.766 0.215 8.15 11.47 11.66
3/25/2021 2:00:00 PM 10 50 0.215 8.15 12.5 11.62
3/25/2021 2:15:00 PM 10.13 50.234 0.215 8.14 11.2 11.57
3/25/2021 2:30:00 PM 10.28 50.504 0.215 8.15 11.38 11.53
3/25/2021 2:45:00 PM 10.47 50.846 0.215 8.15 13.09 11.51
3/25/2021 3:00:00 PM 10.62 51.116 0.215 8.16 11.06 11.48
3/25/2021 3:15:00 PM 10.77 51.386 0.215 8.17 13.16 11.46
3/25/2021 3:30:00 PM 10.89 51.602 0.215 8.16 11.46 11.42
3/25/2021 3:45:00 PM 10.96 51.728 0.215 8.17 13.3 11.39
3/25/2021 4:00:00 PM 11.05 51.89 0.215 8.17 14.82 11.35
3/25/2021 4:15:00 PM 11.13 52.034 0.215 8.17 13.21 11.32
3/25/2021 4:30:00 PM 11.19 52.142 0.215 8.17 13.38 11.27
3/25/2021 4:45:00 PM 11.23 52.214 0.215 8.16 13.18 11.23
3/25/2021 5:00:00 PM 11.23 52.214 0.215 8.16 12.64 11.19
3/25/2021 5:15:00 PM 11.22 52.196 0.215 8.16 13.43 11.14
3/25/2021 5:30:00 PM 11.21 52.178 0.215 8.14 11.34 11.1
3/25/2021 5:45:00 PM 11.19 52.142 0.215 8.13 12.05 11.06
3/25/2021 6:00:00 PM 11.16 52.088 0.215 8.13 12.53 11.01
3/25/2021 6:15:00 PM 11.1 51.98 0.215 8.11 49.75 10.95
3/25/2021 6:30:00 PM 11.05 51.89 0.215 8.1 17.94 10.9
3/25/2021 6:45:00 PM 10.99 51.782 0.215 8.09 10.77 10.84
3/25/2021 7:00:00 PM 10.93 51.674 0.215 8.07 11.93 10.79
3/25/2021 7:15:00 PM 10.87 51.566 0.215 8.05 12.08 10.74
3/25/2021 7:30:00 PM 10.82 51.476 0.215 8.04 12.62 10.69
3/25/2021 7:45:00 PM 10.76 51.368 0.215 8.03 10.88 10.65
3/25/2021 8:00:00 PM 10.7 51.26 0.216 8.02 13.61 10.62
3/25/2021 8:15:00 PM 10.64 51.152 0.216 8.01 10.99 10.59
3/25/2021 8:30:00 PM 10.58 51.044 0.216 8 13.52 10.57
3/25/2021 8:45:00 PM 10.53 50.954 0.216 8 12.78 10.55
3/25/2021 9:00:00 PM 10.48 50.864 0.216 7.99 13.14 10.54
3/25/2021 9:15:00 PM 10.43 50.774 0.216 7.98 13 10.53
3/25/2021 9:30:00 PM 10.38 50.684 0.216 7.97 12.73 10.52
3/25/2021 9:45:00 PM 10.34 50.612 0.216 7.97 13.2 10.51
3/25/2021 10:00:00 PM 10.3 50.54 0.216 7.96 13.15 10.5
3/25/2021 10:15:00 PM 10.26 50.468 0.216 7.96 12.94 10.5
3/25/2021 10:30:00 PM 10.22 50.396 0.216 7.96 13.16 10.49
3/25/2021 10:45:00 PM 10.2 50.36 0.217 7.95 12.57 10.5
3/25/2021 11:00:00 PM 10.18 50.324 0.217 7.95 12.88 10.48
3/25/2021 11:15:00 PM 10.17 50.306 0.217 7.95 12.53 10.48
3/25/2021 11:30:00 PM 10.17 50.306 0.217 7.95 12.21 10.48
3/25/2021 11:45:00 PM 10.16 50.288 0.217 7.95 11.25 10.47
3/26/2021 12:00:00 AM 10.17 50.306 0.217 7.96 14.12 10.46
3/26/2021 12:15:00 AM 10.19 50.342 0.217 7.95 13.31 10.45
3/26/2021 12:30:00 AM 10.21 50.378 0.217 7.95 12.82 10.44
3/26/2021 12:45:00 AM 10.23 50.414 0.217 7.95 10.48 10.43
3/26/2021 1:00:00 AM 10.24 50.432 0.217 7.95 13.1 10.42
3/26/2021 1:15:00 AM 10.27 50.486 0.217 7.95 13.27 10.42
3/26/2021 1:30:00 AM 10.3 50.54 0.217 7.95 14.21 10.41
3/26/2021 1:45:00 AM 10.32 50.576 0.217 7.95 15.71 10.39
3/26/2021 2:00:00 AM 10.35 50.63 0.217 7.95 12.27 10.39
3/26/2021 2:15:00 AM 10.38 50.684 0.217 7.94 13.51 10.38
3/26/2021 2:30:00 AM 10.41 50.738 0.216 7.95 12.69 10.37
3/26/2021 2:45:00 AM 10.44 50.792 0.217 7.95 14.11 10.36
3/26/2021 3:00:00 AM 10.47 50.846 0.216 7.95 10.99 10.35
3/26/2021 3:15:00 AM 10.51 50.918 0.216 7.95 15.23 10.34
3/26/2021 3:30:00 AM 10.55 50.99 0.216 7.95 13.69 10.32
3/26/2021 3:45:00 AM 10.58 51.044 0.216 7.95 11.41 10.31
3/26/2021 4:00:00 AM 10.63 51.134 0.216 7.95 13.07 10.29
3/26/2021 4:15:00 AM 10.66 51.188 0.216 7.95 13.28 10.29
3/26/2021 4:30:00 AM 10.7 51.26 0.216 7.95 14.05 10.27
3/26/2021 4:45:00 AM 10.74 51.332 0.216 7.95 13.04 10.26
3/26/2021 5:00:00 AM 10.77 51.386 0.216 7.95 12.73 10.25
3/26/2021 5:15:00 AM 10.8 51.44 0.216 7.95 13.25 10.23
3/26/2021 5:30:00 AM 10.83 51.494 0.216 7.95 13.88 10.22
3/26/2021 5:45:00 AM 10.85 51.53 0.216 7.95 14 10.21
3/26/2021 6:00:00 AM 10.87 51.566 0.216 7.95 13.71 10.2
3/26/2021 6:15:00 AM 10.89 51.602 0.216 7.95 16.3 10.19
3/26/2021 6:30:00 AM 10.9 51.62 0.216 7.95 13.65 10.18
3/26/2021 6:45:00 AM 10.92 51.656 0.216 7.95 14.03 10.17
3/26/2021 7:00:00 AM 10.92 51.656 0.216 7.94 12.46 10.16
3/26/2021 7:15:00 AM 10.93 51.674 0.216 7.95 14.09 10.16
3/26/2021 7:30:00 AM 10.95 51.71 0.216 7.95 13.91 10.17
3/26/2021 7:45:00 AM 10.97 51.746 0.216 7.95 11.9 10.17
3/26/2021 8:00:00 AM 10.99 51.782 0.216 7.96 13.47 10.19
3/26/2021 8:15:00 AM 11.01 51.818 0.216 7.96 18.78 10.18
3/26/2021 8:30:00 AM 11.01 51.818 0.216 7.96 13.69 10.18
3/26/2021 8:45:00 AM 11.03 51.854 0.216 7.96 13.16 10.21
3/26/2021 9:00:00 AM 11.05 51.89 0.216 7.97 12.48 10.26
3/26/2021 9:15:00 AM 11.08 51.944 0.216 7.98 11.74 10.29
3/26/2021 9:30:00 AM 11.14 52.052 0.216 7.99 16.64 10.35
3/26/2021 9:45:00 AM 11.24 52.232 0.216 8.01 11.83 10.4
3/26/2021 10:00:00 AM 11.31 52.358 0.216 8.02 11.78 10.44
3/26/2021 10:15:00 AM 11.4 52.52 0.216 8.03 11.78 10.48
3/26/2021 10:30:00 AM 11.45 52.61 0.216 8.04 36.64 10.48
3/26/2021 10:45:00 AM 11.51 52.718 0.216 8.05 12.51 10.49
3/26/2021 11:00:00 AM 11.64 52.952 0.216 8.05 11.82 10.53
3/26/2021 11:15:00 AM 11.69 53.042 0.216 8.06 12.59 10.52
3/26/2021 11:30:00 AM 11.69 53.042 0.216 8.05 11.78 10.47
3/26/2021 11:45:00 AM 11.72 53.096 0.216 8.06 12.68 10.46
3/26/2021 12:00:00 PM 11.72 53.096 0.216 8.05 12.37 10.42
3/26/2021 12:15:00 PM 11.7 53.06 0.216 8.05 12.42 10.41
3/26/2021 12:30:00 PM 11.79 53.222 0.216 8.06 10.14 10.47
3/26/2021 12:45:00 PM 11.77 53.186 0.216 8.06 12.17 10.44
3/26/2021 1:00:00 PM 11.75 53.15 0.216 8.06 12.81 10.42
3/26/2021 1:15:00 PM 11.72 53.096 0.216 8.05 12.13 10.4
3/26/2021 1:30:00 PM 11.74 53.132 0.216 8.06 11.36 10.41
3/26/2021 1:45:00 PM 11.76 53.168 0.216 8.05 11.01 10.41
3/26/2021 2:00:00 PM 11.87 53.366 0.216 8.07 12.85 10.48
3/26/2021 2:15:00 PM 11.86 53.348 0.216 8.08 13.51 10.48
3/26/2021 2:30:00 PM 11.83 53.294 0.216 8.08 12.99 10.46
3/26/2021 2:45:00 PM 11.81 53.258 0.216 8.07 12.33 10.45
3/26/2021 3:00:00 PM 11.81 53.258 0.216 8.07 10.95 10.44
3/26/2021 3:15:00 PM 11.77 53.186 0.216 8.07 12.37 10.42
3/26/2021 3:30:00 PM 11.73 53.114 0.216 8.07 12.37 10.4
3/26/2021 3:45:00 PM 11.67 53.006 0.216 8.05 11.88 10.35
3/26/2021 4:00:00 PM 11.62 52.916 0.216 8.05 12.96 10.33
3/26/2021 4:15:00 PM 11.57 52.826 0.216 8.04 14.56 10.32
3/26/2021 4:30:00 PM 11.5 52.7 0.216 8.04 9.23 10.32
3/26/2021 4:45:00 PM 11.44 52.592 0.216 8.04 13.29 10.32
3/26/2021 5:00:00 PM 11.36 52.448 0.216 8.04 11.61 10.31
3/26/2021 5:15:00 PM 11.27 52.286 0.216 8.02 11.43 10.29
3/26/2021 5:30:00 PM 11.19 52.142 0.216 8.02 11.88 10.29
3/26/2021 5:45:00 PM 11.1 51.98 0.216 8.02 11.12 10.28
3/26/2021 6:00:00 PM 11.03 51.854 0.216 8.02 12.01 10.29
3/26/2021 6:15:00 PM 10.95 51.71 0.216 8.01 10.87 10.29
3/26/2021 6:30:00 PM 10.86 51.548 0.216 8 12.92 10.29
3/26/2021 6:45:00 PM 10.78 51.404 0.216 8 10.89 10.28
3/26/2021 7:00:00 PM 10.72 51.296 0.216 7.99 11.09 10.28
3/26/2021 7:15:00 PM 10.64 51.152 0.216 7.99 11.72 10.27
3/26/2021 7:30:00 PM 10.57 51.026 0.216 7.99 11.91 10.28
3/26/2021 7:45:00 PM 10.5 50.9 0.216 7.98 11.94 10.28
3/26/2021 8:00:00 PM 10.42 50.756 0.216 7.98 10.54 10.28
3/26/2021 8:15:00 PM 10.36 50.648 0.217 7.98 13.28 10.29
3/26/2021 8:30:00 PM 10.3 50.54 0.217 7.97 12.52 10.3
3/26/2021 8:45:00 PM 10.24 50.432 0.217 7.98 13.79 10.31
3/26/2021 9:00:00 PM 10.19 50.342 0.217 7.97 13.33 10.32
3/26/2021 9:15:00 PM 10.13 50.234 0.217 7.97 14.84 10.34
3/26/2021 9:30:00 PM 10.09 50.162 0.217 7.97 12.31 10.35
3/26/2021 9:45:00 PM 10.04 50.072 0.217 7.97 12.93 10.36
3/26/2021 10:00:00 PM 9.99 49.982 0.217 7.97 12.26 10.38
3/26/2021 10:15:00 PM 9.94 49.892 0.217 7.97 11.89 10.38
3/26/2021 10:30:00 PM 9.9 49.82 0.217 7.97 12.15 10.39
3/26/2021 10:45:00 PM 9.86 49.748 0.217 7.97 12.98 10.41
3/26/2021 11:00:00 PM 9.82 49.676 0.217 7.96 12.32 10.42
3/26/2021 11:15:00 PM 9.78 49.604 0.217 7.97 12.29 10.43
3/26/2021 11:30:00 PM 9.75 49.55 0.217 7.96 12.18 10.45
3/26/2021 11:45:00 PM 9.72 49.496 0.218 7.96 11.91 10.46
3/27/2021 12:00:00 AM 9.68 49.424 0.218 7.96 11.94 10.47
3/27/2021 12:15:00 AM 9.65 49.37 0.218 7.97 12.99 10.48
3/27/2021 12:30:00 AM 9.61 49.298 0.218 7.97 16.68 10.49
3/27/2021 12:45:00 AM 9.59 49.262 0.218 7.96 12.29 10.51
3/27/2021 1:00:00 AM 9.56 49.208 0.218 7.96 11.49 10.51
3/27/2021 1:15:00 AM 9.52 49.136 0.218 7.97 12.16 10.52
3/27/2021 1:30:00 AM 9.48 49.064 0.218 7.96 11.75 10.53
3/27/2021 1:45:00 AM 9.45 49.01 0.218 7.96 12.46 10.54
3/27/2021 2:00:00 AM 9.41 48.938 0.218 7.96 12.51 10.55
3/27/2021 2:15:00 AM 9.38 48.884 0.218 7.96 12.21 10.56
3/27/2021 2:30:00 AM 9.35 48.83 0.218 7.96 12.54 10.57
3/27/2021 2:45:00 AM 9.32 48.776 0.218 7.97 13.09 10.59
3/27/2021 3:00:00 AM 9.29 48.722 0.218 7.96 12 10.6
3/27/2021 3:15:00 AM 9.26 48.668 0.218 7.97 12.79 10.61
3/27/2021 3:30:00 AM 9.22 48.596 0.218 7.97 12.79 10.62
3/27/2021 3:45:00 AM 9.19 48.542 0.218 7.97 11.59 10.62
3/27/2021 4:00:00 AM 9.16 48.488 0.218 7.97 12.18 10.64
3/27/2021 4:15:00 AM 9.14 48.452 0.219 7.96 11.87 10.64
3/27/2021 4:30:00 AM 9.11 48.398 0.219 7.97 12.83 10.65
3/27/2021 4:45:00 AM 9.08 48.344 0.219 7.97 12.36 10.66
3/27/2021 5:00:00 AM 9.04 48.272 0.219 7.96 12.56 10.67
3/27/2021 5:15:00 AM 9 48.2 0.219 7.96 11.52 10.69
3/27/2021 5:30:00 AM 8.96 48.128 0.219 7.96 11.89 10.7
3/27/2021 5:45:00 AM 8.93 48.074 0.219 7.97 12.92 10.71
3/27/2021 6:00:00 AM 8.89 48.002 0.219 7.96 12.41 10.72
3/27/2021 6:15:00 AM 8.85 47.93 0.219 7.97 11.94 10.74
3/27/2021 6:30:00 AM 8.8 47.84 0.22 7.96 12.23 10.74
3/27/2021 6:45:00 AM 8.75 47.75 0.22 7.97 12.59 10.76
3/27/2021 7:00:00 AM 8.71 47.678 0.22 7.97 13.09 10.78
3/27/2021 7:15:00 AM 8.67 47.606 0.22 7.97 12.61 10.79
3/27/2021 7:30:00 AM 8.62 47.516 0.22 7.97 12.11 10.81
3/27/2021 7:45:00 AM 8.58 47.444 0.22 7.97 13.28 10.84
3/27/2021 8:00:00 AM 8.53 47.354 0.22 7.97 11.97 10.87
3/27/2021 8:15:00 AM 8.49 47.282 0.22 7.98 12.29 10.9
3/27/2021 8:30:00 AM 8.46 47.228 0.22 7.98 11.43 10.94
3/27/2021 8:45:00 AM 8.42 47.156 0.221 7.99 12.76 10.97
3/27/2021 9:00:00 AM 8.39 47.102 0.221 7.99 12.72 11.01
3/27/2021 9:15:00 AM 8.35 47.03 0.221 7.99 11.95 11.05
3/27/2021 9:30:00 AM 8.32 46.976 0.221 8 11.21 11.1
3/27/2021 9:45:00 AM 8.29 46.922 0.221 8.01 10.87 11.14
3/27/2021 10:00:00 AM 8.26 46.868 0.221 8.01 12.02 11.17
3/27/2021 10:15:00 AM 8.23 46.814 0.221 8.01 11.92 11.2
3/27/2021 10:30:00 AM 8.2 46.76 0.221 8.02 11.55 11.24
3/27/2021 10:45:00 AM 8.18 46.724 0.221 8.03 10.78 11.28
3/27/2021 11:00:00 AM 8.17 46.706 0.221 8.04 12.43 11.33
3/27/2021 11:15:00 AM 8.17 46.706 0.221 8.05 11.37 11.38
3/27/2021 11:30:00 AM 8.19 46.742 0.221 8.06 11.15 11.44
3/27/2021 11:45:00 AM 8.2 46.76 0.221 8.07 11.18 11.48
3/27/2021 12:00:00 PM 8.24 46.832 0.221 8.08 10.97 11.54
3/27/2021 12:15:00 PM 8.3 46.94 0.221 8.09 11.79 11.58
3/27/2021 12:30:00 PM 8.38 47.084 0.221 8.1 11.67 11.62
3/27/2021 12:45:00 PM 8.43 47.174 0.222 8.11 10.86 11.64
3/27/2021 1:00:00 PM 8.52 47.336 0.222 8.12 11.61 11.67
3/27/2021 1:15:00 PM 8.62 47.516 0.222 8.13 10.79 11.69
3/27/2021 1:30:00 PM 8.73 47.714 0.222 8.14 11 11.71
3/27/2021 1:45:00 PM 8.75 47.75 0.222 8.14 11.22 11.71
3/27/2021 2:00:00 PM 8.74 47.732 0.222 8.15 10.41 11.69
3/27/2021 2:15:00 PM 8.73 47.714 0.222 8.15 11.42 11.69
3/27/2021 2:30:00 PM 8.73 47.714 0.222 8.14 10.59 11.69
3/27/2021 2:45:00 PM 8.79 47.822 0.222 8.16 12.11 11.7
3/27/2021 3:00:00 PM 8.84 47.912 0.222 8.15 10.58 11.71
3/27/2021 3:15:00 PM 8.91 48.038 0.222 8.16 10.24 11.7
3/27/2021 3:30:00 PM 8.94 48.092 0.223 8.16 11.04 11.7
3/27/2021 3:45:00 PM 8.97 48.146 0.223 8.17 10.67 11.69
3/27/2021 4:00:00 PM 8.98 48.164 0.223 8.17 11.28 11.68
3/27/2021 4:15:00 PM 9.01 48.218 0.223 8.17 10.45 11.67
3/27/2021 4:30:00 PM 9.07 48.326 0.223 8.17 10.93 11.67
3/27/2021 4:45:00 PM 9.12 48.416 0.223 8.17 11.17 11.67
3/27/2021 5:00:00 PM 9.16 48.488 0.223 8.17 10.83 11.67
3/27/2021 5:15:00 PM 9.14 48.452 0.223 8.17 11.46 11.65
3/27/2021 5:30:00 PM 9.12 48.416 0.223 8.17 11.38 11.64
3/27/2021 5:45:00 PM 9.07 48.326 0.224 8.17 11.81 11.61
3/27/2021 6:00:00 PM 9.03 48.254 0.224 8.16 12.01 11.58
3/27/2021 6:15:00 PM 8.99 48.182 0.224 8.15 10.69 11.54
3/27/2021 6:30:00 PM 8.96 48.128 0.224 8.14 10.67 11.5
3/27/2021 6:45:00 PM 8.92 48.056 0.224 8.12 10.45 11.43
3/27/2021 7:00:00 PM 8.87 47.966 0.224 8.11 10.79 11.38
3/27/2021 7:15:00 PM 8.81 47.858 0.224 8.1 11.58 11.33
3/27/2021 7:30:00 PM 8.75 47.75 0.225 8.08 10.2 11.28
3/27/2021 7:45:00 PM 8.7 47.66 0.225 8.07 10.83 11.23
3/27/2021 8:00:00 PM 8.64 47.552 0.225 8.06 10.72 11.2
3/27/2021 8:15:00 PM 8.58 47.444 0.225 8.05 11.53 11.17
3/27/2021 8:30:00 PM 8.52 47.336 0.225 8.04 10.87 11.15
3/27/2021 8:45:00 PM 8.44 47.192 0.225 8.04 12.21 11.13
3/27/2021 9:00:00 PM 8.36 47.048 0.226 8.03 12.34 11.12
3/27/2021 9:15:00 PM 8.28 46.904 0.226 8.02 10.96 11.12
3/27/2021 9:30:00 PM 8.2 46.76 0.226 8.02 11.66 11.12
3/27/2021 9:45:00 PM 8.12 46.616 0.226 8.02 11.4 11.12
3/27/2021 10:00:00 PM 8.04 46.472 0.226 8.01 13.12 11.12
3/27/2021 10:15:00 PM 7.96 46.328 0.226 8.01 11.91 11.13
3/27/2021 10:30:00 PM 7.89 46.202 0.226 8 11.66 11.14
3/27/2021 10:45:00 PM 7.81 46.058 0.226 8 11.6 11.14
3/27/2021 11:00:00 PM 7.73 45.914 0.226 8 10.92 11.16
3/27/2021 11:15:00 PM 7.66 45.788 0.227 7.99 11.49 11.17
3/27/2021 11:30:00 PM 7.6 45.68 0.227 7.99 10.67 11.19
3/27/2021 11:45:00 PM 7.54 45.572 0.227 7.99 11.58 11.19
3/28/2021 12:00:00 AM 7.48 45.464 0.227 7.99 12.02 11.2
3/28/2021 12:15:00 AM 7.41 45.338 0.227 7.98 10.67 11.22
3/28/2021 12:30:00 AM 7.35 45.23 0.227 7.98 10.32 11.22
3/28/2021 12:45:00 AM 7.29 45.122 0.227 7.98 11.13 11.23
3/28/2021 1:00:00 AM 7.24 45.032 0.227 7.98 11 11.24
3/28/2021 1:15:00 AM 7.19 44.942 0.228 7.98 11.18 11.26
3/28/2021 1:30:00 AM 7.14 44.852 0.227 7.98 11.01 11.26
3/28/2021 1:45:00 AM 7.09 44.762 0.228 7.98 10.48 11.28
3/28/2021 2:00:00 AM 7.04 44.672 0.228 7.98 11.04 11.29
3/28/2021 2:15:00 AM 6.99 44.582 0.228 7.98 11.39 11.3
3/28/2021 2:30:00 AM 6.94 44.492 0.228 7.98 11.86 11.31
3/28/2021 2:45:00 AM 6.9 44.42 0.228 7.97 12.09 11.32
3/28/2021 3:00:00 AM 6.86 44.348 0.228 7.98 11.32 11.34
3/28/2021 3:15:00 AM 6.82 44.276 0.228 7.97 10.54 11.35
3/28/2021 3:30:00 AM 6.78 44.204 0.228 7.98 10.38 11.36
3/28/2021 3:45:00 AM 6.74 44.132 0.228 7.98 10.28 11.37
3/28/2021 4:00:00 AM 6.7 44.06 0.228 7.97 11.24 11.38
3/28/2021 4:15:00 AM 6.67 44.006 0.228 7.98 11.08 11.39
3/28/2021 4:30:00 AM 6.64 43.952 0.229 7.98 11.3 11.4
3/28/2021 4:45:00 AM 6.61 43.898 0.229 7.98 11.66 11.41
3/28/2021 5:00:00 AM 6.59 43.862 0.229 7.98 11.18 11.42
3/28/2021 5:15:00 AM 6.57 43.826 0.229 7.98 11.75 11.43
3/28/2021 5:30:00 AM 6.56 43.808 0.229 7.98 11.01 11.43
3/28/2021 5:45:00 AM 6.55 43.79 0.229 7.98 11.48 11.43
3/28/2021 6:00:00 AM 6.54 43.772 0.229 7.99 10.66 11.44
3/28/2021 6:15:00 AM 6.54 43.772 0.229 7.99 10.86 11.44
3/28/2021 6:30:00 AM 6.55 43.79 0.229 7.99 11.51 11.45
3/28/2021 6:45:00 AM 6.57 43.826 0.229 7.98 11.06 11.45
3/28/2021 7:00:00 AM 6.59 43.862 0.229 7.99 10.9 11.45
3/28/2021 7:15:00 AM 6.62 43.916 0.229 8 10.24 11.45
3/28/2021 7:30:00 AM 6.66 43.988 0.229 8 11.05 11.45
3/28/2021 7:45:00 AM 6.7 44.06 0.229 8 11.33 11.45
3/28/2021 8:00:00 AM 6.75 44.15 0.229 8.01 10.21 11.45
3/28/2021 8:15:00 AM 6.81 44.258 0.23 8.01 10.5 11.46
3/28/2021 8:30:00 AM 6.86 44.348 0.23 8.01 10.15 11.46
3/28/2021 8:45:00 AM 6.9 44.42 0.23 8.02 10.1 11.47
3/28/2021 9:00:00 AM 6.94 44.492 0.23 8.02 10.74 11.48
3/28/2021 9:15:00 AM 6.99 44.582 0.23 8.04 10.23 11.5
3/28/2021 9:30:00 AM 7.02 44.636 0.23 8.04 10.14 11.51
3/28/2021 9:45:00 AM 7.06 44.708 0.23 8.04 10.14 11.52
3/28/2021 10:00:00 AM 7.1 44.78 0.23 8.05 9.81 11.53
3/28/2021 10:15:00 AM 7.13 44.834 0.23 8.06 9.66 11.53
3/28/2021 10:30:00 AM 7.17 44.906 0.23 8.06 9.34 11.54
3/28/2021 10:45:00 AM 7.2 44.96 0.23 8.07 9.12 11.56
3/28/2021 11:00:00 AM 7.24 45.032 0.23 8.07 10.13 11.57
3/28/2021 11:15:00 AM 7.27 45.086 0.23 8.08 9.33 11.59
3/28/2021 11:30:00 AM 7.31 45.158 0.23 8.09 9.53 11.61
3/28/2021 11:45:00 AM 7.35 45.23 0.23 8.1 9 11.63
3/28/2021 12:00:00 PM 7.37 45.266 0.23 8.1 9.65 11.62
3/28/2021 12:15:00 PM 7.43 45.374 0.23 8.11 9.62 11.65
3/28/2021 12:30:00 PM 7.46 45.428 0.231 8.11 8.59 11.65
3/28/2021 12:45:00 PM 7.5 45.5 0.231 8.12 9.41 11.67
3/28/2021 1:00:00 PM 7.56 45.608 0.231 8.13 9.32 11.68
3/28/2021 1:15:00 PM 7.59 45.662 0.231 8.13 9.48 11.68
3/28/2021 1:30:00 PM 7.61 45.698 0.231 8.14 9.47 11.65
3/28/2021 1:45:00 PM 7.65 45.77 0.231 8.14 9.12 11.64
3/28/2021 2:00:00 PM 7.68 45.824 0.231 8.14 9.45 11.62
3/28/2021 2:15:00 PM 7.72 45.896 0.232 8.15 9.11 11.62
3/28/2021 2:30:00 PM 7.78 46.004 0.232 8.15 9.59 11.66
3/28/2021 2:45:00 PM 7.83 46.094 0.232 8.16 8.91 11.66
3/28/2021 3:00:00 PM 7.9 46.22 0.232 8.17 9.61 11.69
3/28/2021 3:15:00 PM 7.96 46.328 0.232 8.18 9.44 11.7
3/28/2021 3:30:00 PM 8.03 46.454 0.232 8.19 8.86 11.71
3/28/2021 3:45:00 PM 8.06 46.508 0.232 8.19 8.64 11.68
3/28/2021 4:00:00 PM 8.09 46.562 0.232 8.19 8.61 11.64
3/28/2021 4:15:00 PM 8.11 46.598 0.232 8.18 8.52 11.58
3/28/2021 4:30:00 PM 8.12 46.616 0.232 8.17 8.69 11.53
3/28/2021 4:45:00 PM 8.15 46.67 0.231 8.16 9.55 11.48
3/28/2021 5:00:00 PM 8.15 46.67 0.231 8.16 10.12 11.47
3/28/2021 5:15:00 PM 8.15 46.67 0.231 8.16 10.33 11.44
3/28/2021 5:30:00 PM 8.14 46.652 0.231 8.15 9.76 11.41
3/28/2021 5:45:00 PM 8.11 46.598 0.231 8.14 9.63 11.36
3/28/2021 6:00:00 PM 8.08 46.544 0.231 8.13 9.77 11.32
3/28/2021 6:15:00 PM 8.06 46.508 0.231 8.12 9.8 11.3
3/28/2021 6:30:00 PM 8.03 46.454 0.231 8.12 10.09 11.27
3/28/2021 6:45:00 PM 8 46.4 0.232 8.11 10.73 11.25
3/28/2021 7:00:00 PM 7.96 46.328 0.233 8.1 10.17 11.23
3/28/2021 7:15:00 PM 7.93 46.274 0.234 8.09 10.42 11.22
3/28/2021 7:30:00 PM 7.89 46.202 0.235 8.09 10.29 11.2
3/28/2021 7:45:00 PM 7.85 46.13 0.236 8.08 10.37 11.19
3/28/2021 8:00:00 PM 7.8 46.04 0.237 8.08 11.2 11.17
3/28/2021 8:15:00 PM 7.75 45.95 0.236 8.07 11.25 11.15
3/28/2021 8:30:00 PM 7.7 45.86 0.236 8.06 11.55 11.15
3/28/2021 8:45:00 PM 7.65 45.77 0.236 8.06 11.14 11.15
3/28/2021 9:00:00 PM 7.6 45.68 0.235 8.06 10.97 11.15
3/28/2021 9:15:00 PM 7.55 45.59 0.235 8.05 11.15 11.15
3/28/2021 9:30:00 PM 7.51 45.518 0.235 8.05 12.14 11.15
3/28/2021 9:45:00 PM 7.48 45.464 0.235 8.05 12.43 11.15
3/28/2021 10:00:00 PM 7.43 45.374 0.235 8.05 12.37 11.16
3/28/2021 10:15:00 PM 7.39 45.302 0.234 8.04 11.53 11.16
3/28/2021 10:30:00 PM 7.32 45.176 0.234 8.04 11.57 11.17
3/28/2021 10:45:00 PM 7.26 45.068 0.233 8.04 10.58 11.18
3/28/2021 11:00:00 PM 7.19 44.942 0.233 8.04 11.77 11.19
3/28/2021 11:15:00 PM 7.14 44.852 0.233 8.04 11.96 11.2
3/28/2021 11:30:00 PM 7.09 44.762 0.233 8.03 13.08 11.21
3/28/2021 11:45:00 PM 7.03 44.654 0.233 8.03 12.2 11.22
3/29/2021 12:00:00 AM 6.96 44.528 0.233 8.03 12.57 11.23
3/29/2021 12:15:00 AM 6.89 44.402 0.232 8.03 11.12 11.25
3/29/2021 12:30:00 AM 6.83 44.294 0.232 8.03 12.21 11.27
3/29/2021 12:45:00 AM 6.76 44.168 0.232 8.03 11.34 11.28
3/29/2021 1:00:00 AM 6.7 44.06 0.232 8.03 12.69 11.3
3/29/2021 1:15:00 AM 6.63 43.934 0.232 8.03 11.48 11.32
3/29/2021 1:30:00 AM 6.57 43.826 0.232 8.03 12.23 11.33
3/29/2021 1:45:00 AM 6.51 43.718 0.232 8.02 10.96 11.35
3/29/2021 2:00:00 AM 6.45 43.61 0.232 8.03 11.37 11.36
3/29/2021 2:15:00 AM 6.4 43.52 0.232 8.03 10.68 11.38
3/29/2021 2:30:00 AM 6.35 43.43 0.231 8.03 11.03 11.39
3/29/2021 2:45:00 AM 6.3 43.34 0.231 8.03 11.07 11.42
3/29/2021 3:00:00 AM 6.24 43.232 0.231 8.03 11.58 11.42
3/29/2021 3:15:00 AM 6.16 43.088 0.231 8.03 11.49 11.44
3/29/2021 3:30:00 AM 6.11 42.998 0.231 8.03 12.07 11.46
3/29/2021 3:45:00 AM 6.05 42.89 0.231 8.03 11.64 11.48
3/29/2021 4:00:00 AM 5.99 42.782 0.231 8.03 10.74 11.5
3/29/2021 4:15:00 AM 5.93 42.674 0.231 8.03 10.98 11.52
3/29/2021 4:30:00 AM 5.87 42.566 0.232 8.03 10.93 11.54
3/29/2021 4:45:00 AM 5.81 42.458 0.232 8.03 11.16 11.56
3/29/2021 5:00:00 AM 5.76 42.368 0.232 8.03 11.14 11.58
3/29/2021 5:15:00 AM 5.7 42.26 0.232 8.03 11.32 11.6
3/29/2021 5:30:00 AM 5.64 42.152 0.232 8.03 10.77 11.62
3/29/2021 5:45:00 AM 5.58 42.044 0.232 8.03 11.22 11.63
3/29/2021 6:00:00 AM 5.51 41.918 0.232 8.03 10.43 11.66
3/29/2021 6:15:00 AM 5.45 41.81 0.232 8.04 10.81 11.68
3/29/2021 6:30:00 AM 5.41 41.738 0.232 8.04 10.83 11.71
3/29/2021 6:45:00 AM 5.36 41.648 0.232 8.03 10.33 11.73
3/29/2021 7:00:00 AM 5.31 41.558 0.233 8.04 10.02 11.75
3/29/2021 7:15:00 AM 5.27 41.486 0.233 8.03 10.86 11.78
3/29/2021 7:30:00 AM 5.22 41.396 0.232 8.04 10.06 11.81
3/29/2021 7:45:00 AM 5.19 41.342 0.233 8.04 10.12 11.85
3/29/2021 8:00:00 AM 5.16 41.288 0.233 8.05 9.67 11.88
3/29/2021 8:15:00 AM 5.14 41.252 0.233 8.05 9.76 11.92
3/29/2021 8:30:00 AM 5.1 41.18 0.232 8.05 10.28 11.95
3/29/2021 8:45:00 AM 5.09 41.162 0.232 8.06 11.06 11.99
3/29/2021 9:00:00 AM 5.07 41.126 0.232 8.07 9.54 12.04
3/29/2021 9:15:00 AM 5.05 41.09 0.232 8.07 9.49 12.08
3/29/2021 9:30:00 AM 5.04 41.072 0.232 8.08 9.28 12.13
3/29/2021 9:45:00 AM 5.03 41.054 0.232 8.09 9.38 12.17
3/29/2021 10:00:00 AM 5.02 41.036 0.232 8.1 8.62 12.23
3/29/2021 10:15:00 AM 5.03 41.054 0.232 8.11 9.58 12.29
3/29/2021 10:30:00 AM 5.03 41.054 0.232 8.12 9.02 12.32
3/29/2021 10:45:00 AM 5.02 41.036 0.232 8.12 8.76 12.36
3/29/2021 11:00:00 AM 5.06 41.108 0.232 8.13 8.56 12.4
3/29/2021 11:15:00 AM 5.13 41.234 0.232 8.14 8.19 12.45
3/29/2021 11:30:00 AM 5.24 41.432 0.232 8.15 8.42 12.49
3/29/2021 11:45:00 AM 5.36 41.648 0.232 8.16 8.76 12.53
3/29/2021 12:00:00 PM 5.51 41.918 0.231 8.17 8.37 12.55
3/29/2021 12:15:00 PM 5.64 42.152 0.231 8.18 8.56 12.57
3/29/2021 12:30:00 PM 5.75 42.35 0.231 8.19 8.11 12.58
3/29/2021 12:45:00 PM 5.81 42.458 0.231 8.2 8.32 12.59
3/29/2021 1:00:00 PM 5.86 42.548 0.231 8.2 9.18 12.59
3/29/2021 1:15:00 PM 6.05 42.89 0.231 8.21 8.58 12.6
3/29/2021 1:30:00 PM 6.18 43.124 0.231 8.21 8.12 12.58
3/29/2021 1:45:00 PM 6.29 43.322 0.231 8.22 8.21 12.58
3/29/2021 2:00:00 PM 6.48 43.664 0.231 8.22 9.74 12.57
3/29/2021 2:15:00 PM 6.58 43.844 0.231 8.23 8.61 12.54
3/29/2021 2:30:00 PM 6.77 44.186 0.231 8.23 8.33 12.52
3/29/2021 2:45:00 PM 6.96 44.528 0.231 8.23 8.4 12.5
3/29/2021 3:00:00 PM 7.15 44.87 0.231 8.24 8.4 12.47
3/29/2021 3:15:00 PM 7.3 45.14 0.231 8.24 8.71 12.44
3/29/2021 3:30:00 PM 7.41 45.338 0.232 8.25 8.68 12.42
3/29/2021 3:45:00 PM 7.49 45.482 0.232 8.25 9.68 12.39
3/29/2021 4:00:00 PM 7.56 45.608 0.232 8.25 8.45 12.37
3/29/2021 4:15:00 PM 7.62 45.716 0.232 8.26 8.87 12.34
3/29/2021 4:30:00 PM 7.66 45.788 0.232 8.26 8.74 12.32
3/29/2021 4:45:00 PM 7.68 45.824 0.232 8.26 9.67 12.28
3/29/2021 5:00:00 PM 7.67 45.806 0.233 8.25 9.5 12.27
3/29/2021 5:15:00 PM 7.63 45.734 0.233 8.25 9.26 12.24
3/29/2021 5:30:00 PM 7.57 45.626 0.233 8.24 8.83 12.23
3/29/2021 5:45:00 PM 7.5 45.5 0.233 8.24 8.63 12.19
3/29/2021 6:00:00 PM 7.41 45.338 0.233 8.23 8.74 12.16
3/29/2021 6:15:00 PM 7.31 45.158 0.233 8.22 8.98 12.11
3/29/2021 6:30:00 PM 7.2 44.96 0.233 8.2 9.64 12.06
3/29/2021 6:45:00 PM 7.1 44.78 0.233 8.19 9.15 12
3/29/2021 7:00:00 PM 7.03 44.654 0.234 8.18 8.2 11.96
3/29/2021 7:15:00 PM 6.96 44.528 0.234 8.17 9.95 11.93
3/29/2021 7:30:00 PM 6.89 44.402 0.234 8.15 10.35 11.89
3/29/2021 7:45:00 PM 6.83 44.294 0.234 8.14 9.8 11.86
3/29/2021 8:00:00 PM 6.75 44.15 0.234 8.13 11.04 11.83
3/29/2021 8:15:00 PM 6.68 44.024 0.234 8.12 11.09 11.81
3/29/2021 8:30:00 PM 6.6 43.88 0.234 8.11 9.99 11.79
3/29/2021 8:45:00 PM 6.52 43.736 0.234 8.11 10.61 11.79
3/29/2021 9:00:00 PM 6.43 43.574 0.234 8.1 11.71 11.78
3/29/2021 9:15:00 PM 6.33 43.394 0.234 8.09 11.26 11.8
3/29/2021 9:30:00 PM 6.23 43.214 0.234 8.09 11.87 11.8
3/29/2021 9:45:00 PM 6.12 43.016 0.235 8.08 10.47 11.82
3/29/2021 10:00:00 PM 6 42.8 0.235 8.07 10.59 11.84
3/29/2021 10:15:00 PM 5.89 42.602 0.235 8.07 10.54 11.87
3/29/2021 10:30:00 PM 5.78 42.404 0.235 8.07 11.24 11.89
3/29/2021 10:45:00 PM 5.67 42.206 0.235 8.06 10.45 11.91
3/29/2021 11:00:00 PM 5.57 42.026 0.235 8.06 10.56 11.93
3/29/2021 11:15:00 PM 5.47 41.846 0.236 8.06 9.95 11.96
3/29/2021 11:30:00 PM 5.37 41.666 0.236 8.05 10.29 11.98
3/29/2021 11:45:00 PM 5.28 41.504 0.236 8.06 11.26 12.01
3/30/2021 12:00:00 AM 5.19 41.342 0.236 8.06 10.67 12.03
3/30/2021 12:15:00 AM 5.11 41.198 0.236 8.05 11.5 12.05
3/30/2021 12:30:00 AM 5.03 41.054 0.237 8.05 10.81 12.07
3/30/2021 12:45:00 AM 4.95 40.91 0.237 8.05 9.85 12.1
3/30/2021 1:00:00 AM 4.86 40.748 0.237 8.05 10.28 12.12
3/30/2021 1:15:00 AM 4.79 40.622 0.237 8.05 10.43 12.14
3/30/2021 1:30:00 AM 4.71 40.478 0.238 8.04 10.5 12.16
3/30/2021 1:45:00 AM 4.64 40.352 0.238 8.04 10.22 12.19
3/30/2021 2:00:00 AM 4.58 40.244 0.238 8.04 9.92 12.2
3/30/2021 2:15:00 AM 4.51 40.118 0.238 8.04 10.6 12.22
3/30/2021 2:30:00 AM 4.45 40.01 0.239 8.04 9.89 12.24
3/30/2021 2:45:00 AM 4.4 39.92 0.239 8.04 10.38 12.27
3/30/2021 3:00:00 AM 4.34 39.812 0.239 8.04 9.78 12.28
3/30/2021 3:15:00 AM 4.29 39.722 0.24 8.04 10.18 12.3
3/30/2021 3:30:00 AM 4.24 39.632 0.24 8.04 10.02 12.32
3/30/2021 3:45:00 AM 4.19 39.542 0.24 8.04 9.58 12.34
3/30/2021 4:00:00 AM 4.14 39.452 0.241 8.04 10.06 12.36
3/30/2021 4:15:00 AM 4.09 39.362 0.241 8.04 9.62 12.37
3/30/2021 4:30:00 AM 4.05 39.29 0.241 8.04 9.56 12.39
3/30/2021 4:45:00 AM 4.01 39.218 0.242 8.04 9.88 12.41
3/30/2021 5:00:00 AM 3.96 39.128 0.242 8.04 13.05 12.42
3/30/2021 5:15:00 AM 3.92 39.056 0.242 8.04 8.24 12.43
3/30/2021 5:30:00 AM 3.88 38.984 0.243 8.04 10.25 12.45
3/30/2021 5:45:00 AM 3.84 38.912 0.243 8.04 9.72 12.47
3/30/2021 6:00:00 AM 3.8 38.84 0.243 8.04 9.95 12.47
3/30/2021 6:15:00 AM 3.77 38.786 0.243 8.04 9.57 12.49
3/30/2021 6:30:00 AM 3.73 38.714 0.244 8.04 9.24 12.5
3/30/2021 6:45:00 AM 3.69 38.642 0.244 8.04 10.51 12.52
3/30/2021 7:00:00 AM 3.67 38.606 0.244 8.04 9.97 12.53
3/30/2021 7:15:00 AM 3.64 38.552 0.244 8.04 9.32 12.54
3/30/2021 7:30:00 AM 3.63 38.534 0.244 8.05 9.26 12.58
3/30/2021 7:45:00 AM 3.62 38.516 0.244 8.05 9.34 12.61
3/30/2021 8:00:00 AM 3.62 38.516 0.244 8.06 9.61 12.64
3/30/2021 8:15:00 AM 3.63 38.534 0.244 8.06 8.9 12.68
3/30/2021 8:30:00 AM 3.65 38.57 0.244 8.07 8.58 12.71
3/30/2021 8:45:00 AM 3.68 38.624 0.244 8.07 8.58 12.75
3/30/2021 9:00:00 AM 3.73 38.714 0.244 8.08 8.07 12.78
3/30/2021 9:15:00 AM 3.8 38.84 0.244 8.09 7.99 12.82
3/30/2021 9:30:00 AM 3.89 39.002 0.244 8.1 8.12 12.85
3/30/2021 9:45:00 AM 4 39.2 0.244 8.11 7.72 12.88
3/30/2021 10:00:00 AM 4.12 39.416 0.244 8.13 8.03 12.91
3/30/2021 10:15:00 AM 4.26 39.668 0.244 8.13 8.45 12.92
3/30/2021 10:30:00 AM 4.42 39.956 0.244 8.14 7.63 12.93
3/30/2021 10:45:00 AM 4.59 40.262 0.244 8.15 8.26 12.94
3/30/2021 11:00:00 AM 4.78 40.604 0.244 8.16 7.82 12.94
3/30/2021 11:15:00 AM 4.98 40.964 0.244 8.17 7.77 12.93
3/30/2021 11:30:00 AM 5.2 41.36 0.244 8.18 7.53 12.92
3/30/2021 11:45:00 AM 5.43 41.774 0.244 8.19 8.12 12.91
3/30/2021 12:00:00 PM 5.66 42.188 0.244 8.19 8.14 12.89
3/30/2021 12:15:00 PM 5.9 42.62 0.244 8.2 8.34 12.86
3/30/2021 12:30:00 PM 6.14 43.052 0.244 8.21 7.96 12.84
3/30/2021 12:45:00 PM 6.38 43.484 0.244 8.21 7.95 12.81
3/30/2021 1:00:00 PM 6.63 43.934 0.244 8.22 8.66 12.77
3/30/2021 1:15:00 PM 6.88 44.384 0.244 8.23 8.35 12.74
3/30/2021 1:30:00 PM 7.12 44.816 0.244 8.23 8.11 12.7
3/30/2021 1:45:00 PM 7.35 45.23 0.244 8.24 7.99 12.66
3/30/2021 2:00:00 PM 7.57 45.626 0.244 8.25 8.1 12.61
3/30/2021 2:15:00 PM 7.79 46.022 0.244 8.25 7.66 12.57
3/30/2021 2:30:00 PM 7.99 46.382 0.244 8.26 8.69 12.53
3/30/2021 2:45:00 PM 8.18 46.724 0.244 8.26 8.09 12.48
3/30/2021 3:00:00 PM 8.35 47.03 0.244 8.27 7.78 12.43
3/30/2021 3:15:00 PM 8.5 47.3 0.244 8.27 8.38 12.39
3/30/2021 3:30:00 PM 8.64 47.552 0.244 8.27 7.67 12.35
3/30/2021 3:45:00 PM 8.76 47.768 0.244 8.28 7.95 12.31
3/30/2021 4:00:00 PM 8.87 47.966 0.244 8.28 8.37 12.26
3/30/2021 4:15:00 PM 8.95 48.11 0.244 8.28 8.4 12.21
3/30/2021 4:30:00 PM 9.02 48.236 0.244 8.29 9.06 12.17
3/30/2021 4:45:00 PM 9.06 48.308 0.244 8.28 9.21 12.12
3/30/2021 5:00:00 PM 9.08 48.344 0.244 8.28 11.89 12.08
3/30/2021 5:15:00 PM 9.07 48.326 0.245 8.28 9.32 12.04
3/30/2021 5:30:00 PM 9.04 48.272 0.245 8.28 9.37 12
3/30/2021 5:45:00 PM 8.99 48.182 0.245 8.27 11.02 11.94
3/30/2021 6:00:00 PM 8.94 48.092 0.245 8.26 11.14 11.9
3/30/2021 6:15:00 PM 8.85 47.93 0.245 8.25 10.11 11.84
3/30/2021 6:30:00 PM 8.77 47.786 0.246 8.24 8.31 11.77
3/30/2021 6:45:00 PM 8.68 47.624 0.246 8.22 9.26 11.7
3/30/2021 7:00:00 PM 8.6 47.48 0.246 8.21 11.07 11.64
3/30/2021 7:15:00 PM 8.52 47.336 0.246 8.19 9.39 11.6
3/30/2021 7:30:00 PM 8.44 47.192 0.246 8.18 9.4 11.55
3/30/2021 7:45:00 PM 8.36 47.048 0.247 8.17 10.03 11.51
3/30/2021 8:00:00 PM 8.27 46.886 0.247 8.15 10.31 11.47
3/30/2021 8:15:00 PM 8.18 46.724 0.247 8.14 10.73 11.44
3/30/2021 8:30:00 PM 8.09 46.562 0.247 8.13 11.88 11.42
3/30/2021 8:45:00 PM 8 46.4 0.247 8.12 9.58 11.41
3/30/2021 9:00:00 PM 7.92 46.256 0.247 8.12 10.36 11.4
3/30/2021 9:15:00 PM 7.84 46.112 0.248 8.11 9.91 11.4
3/30/2021 9:30:00 PM 7.77 45.986 0.248 8.11 10.12 11.39
3/30/2021 9:45:00 PM 7.69 45.842 0.248 8.1 10.09 11.39
3/30/2021 10:00:00 PM 7.62 45.716 0.248 8.1 9.89 11.4
3/30/2021 10:15:00 PM 7.55 45.59 0.249 8.09 11.62 11.4
3/30/2021 10:30:00 PM 7.49 45.482 0.249 8.09 10.13 11.41
3/30/2021 10:45:00 PM 7.42 45.356 0.249 8.09 10.34 11.42
3/30/2021 11:00:00 PM 7.36 45.248 0.249 8.09 10.98 11.42
3/30/2021 11:15:00 PM 7.3 45.14 0.249 8.08 11.04 11.43
3/30/2021 11:30:00 PM 7.24 45.032 0.25 8.08 10.07 11.45
3/30/2021 11:45:00 PM 7.19 44.942 0.25 8.08 8.91 11.45
3/31/2021 12:00:00 AM 7.13 44.834 0.25 8.08 9.43 11.46
3/31/2021 12:15:00 AM 7.07 44.726 0.25 8.07 8.95 11.47
3/31/2021 12:30:00 AM 7.02 44.636 0.25 8.08 15.87 11.49
3/31/2021 12:45:00 AM 6.97 44.546 0.25 8.08 9.25 11.5
3/31/2021 1:00:00 AM 6.93 44.474 0.251 8.07 10.37 11.51
3/31/2021 1:15:00 AM 6.88 44.384 0.251 8.07 11.31 11.51
3/31/2021 1:30:00 AM 6.84 44.312 0.251 8.07 8.89 11.52
3/31/2021 1:45:00 AM 6.79 44.222 0.251 8.07 8.9 11.53
3/31/2021 2:00:00 AM 6.76 44.168 0.251 8.07 9.67 11.54
3/31/2021 2:15:00 AM 6.72 44.096 0.251 8.07 8.41 11.55
3/31/2021 2:30:00 AM 6.69 44.042 0.251 8.07 8.3 11.55
3/31/2021 2:45:00 AM 6.66 43.988 0.252 8.06 9.39 11.56
3/31/2021 3:00:00 AM 6.63 43.934 0.252 8.07 8.58 11.57
3/31/2021 3:15:00 AM 6.6 43.88 0.252 8.06 8.74 11.57
3/31/2021 3:30:00 AM 6.59 43.862 0.252 8.07 9.01 11.58
3/31/2021 3:45:00 AM 6.57 43.826 0.253 8.07 12.23 11.58
3/31/2021 4:00:00 AM 6.56 43.808 0.253 8.07 11.76 11.58
3/31/2021 4:15:00 AM 6.55 43.79 0.253 8.07 11.57 11.59
3/31/2021 4:30:00 AM 6.53 43.754 0.253 8.06 8.96 11.59
3/31/2021 4:45:00 AM 6.51 43.718 0.253 8.07 9.23 11.59
3/31/2021 5:00:00 AM 6.49 43.682 0.254 8.07 9.61 11.59
3/31/2021 5:15:00 AM 6.49 43.682 0.254 8.07 8.93 11.59
3/31/2021 5:30:00 AM 6.48 43.664 0.254 8.06 8.62 11.59
3/31/2021 5:45:00 AM 6.49 43.682 0.254 8.07 8.77 11.59
3/31/2021 6:00:00 AM 6.49 43.682 0.254 8.07 9.03 11.6
3/31/2021 6:15:00 AM 6.5 43.7 0.254 8.07 9.2 11.59
3/31/2021 6:30:00 AM 6.51 43.718 0.254 8.07 8.36 11.59
3/31/2021 6:45:00 AM 6.51 43.718 0.255 8.07 8.4 11.59
3/31/2021 7:00:00 AM 6.53 43.754 0.255 8.07 8.69 11.59
3/31/2021 7:15:00 AM 6.55 43.79 0.255 8.07 8.83 11.59
3/31/2021 7:30:00 AM 6.57 43.826 0.255 8.08 8.94 11.6
3/31/2021 7:45:00 AM 6.6 43.88 0.255 8.08 8.57 11.63
3/31/2021 8:00:00 AM 6.65 43.97 0.255 8.09 8.51 11.68
3/31/2021 8:15:00 AM 6.7 44.06 0.255 8.1 8.43 11.73
3/31/2021 8:30:00 AM 6.76 44.168 0.255 8.12 9.04 11.78
3/31/2021 8:45:00 AM 6.82 44.276 0.255 8.13 8.49 11.84
3/31/2021 9:00:00 AM 6.88 44.384 0.255 8.14 7.91 11.88
3/31/2021 9:15:00 AM 6.96 44.528 0.255 8.16 7.95 11.93
3/31/2021 9:30:00 AM 7.04 44.672 0.255 8.17 7.45 11.96
3/31/2021 9:45:00 AM 7.1 44.78 0.255 8.18 7.77 11.99
3/31/2021 10:00:00 AM 7.17 44.906 0.255 8.19 8.12 12.01
3/31/2021 10:15:00 AM 7.25 45.05 0.255 8.2 7.6 12.03
3/31/2021 10:30:00 AM 7.32 45.176 0.255 8.21 7.97 12.05
3/31/2021 10:45:00 AM 7.39 45.302 0.256 8.22 7.41 12.06
3/31/2021 11:00:00 AM 7.46 45.428 0.256 8.23 7.1 12.08
3/31/2021 11:15:00 AM 7.52 45.536 0.256 8.24 7.38 12.07
3/31/2021 11:30:00 AM 7.59 45.662 0.256 8.25 8.22 12.08
3/31/2021 11:45:00 AM 7.66 45.788 0.255 8.25 7.95 12.07
3/31/2021 12:00:00 PM 7.72 45.896 0.256 8.26 15.22 12.07
3/31/2021 12:15:00 PM 7.78 46.004 0.256 8.26 7.89 12.07
3/31/2021 12:30:00 PM 7.83 46.094 0.256 8.27 7.55 12.05
3/31/2021 12:45:00 PM 7.88 46.184 0.256 8.27 7.8 12.03
3/31/2021 1:00:00 PM 7.9 46.22 0.256 8.26 7.66 11.99
3/31/2021 1:15:00 PM 7.95 46.31 0.256 8.26 8.04 11.97
3/31/2021 1:30:00 PM 7.98 46.364 0.256 8.26 7.7 11.94
3/31/2021 1:45:00 PM 8.02 46.436 0.256 8.26 7.49 11.94
3/31/2021 2:00:00 PM 8.1 46.58 0.256 8.27 8.35 11.97
3/31/2021 2:15:00 PM 8.17 46.706 0.256 8.28 7.32 11.98
3/31/2021 2:30:00 PM 8.26 46.868 0.255 8.29 7.72 12.01
3/31/2021 2:45:00 PM 8.31 46.958 0.255 8.3 7.73 12
3/31/2021 3:00:00 PM 8.35 47.03 0.255 8.3 8.05 11.98
3/31/2021 3:15:00 PM 8.37 47.066 0.255 8.29 7.56 11.91
3/31/2021 3:30:00 PM 8.37 47.066 0.256 8.28 7.63 11.82
3/31/2021 3:45:00 PM 8.38 47.084 0.256 8.26 7.49 11.74
3/31/2021 4:00:00 PM 8.39 47.102 0.256 8.24 7.76 11.68
3/31/2021 4:15:00 PM 8.4 47.12 0.256 8.24 7.53 11.62
3/31/2021 4:30:00 PM 8.4 47.12 0.256 8.23 7.88 11.57
3/31/2021 4:45:00 PM 8.4 47.12 0.256 8.21 7.4 11.52
3/31/2021 5:00:00 PM 8.4 47.12 0.256 8.2 8.03 11.47
3/31/2021 5:15:00 PM 8.4 47.12 0.256 8.19 8.45 11.42
3/31/2021 5:30:00 PM 8.36 47.048 0.256 8.19 8.16 11.39
3/31/2021 5:45:00 PM 8.33 46.994 0.256 8.18 8.44 11.37
3/31/2021 6:00:00 PM 8.29 46.922 0.256 8.17 9.38 11.34
3/31/2021 6:15:00 PM 8.24 46.832 0.255 8.17 8.24 11.32
3/31/2021 6:30:00 PM 8.19 46.742 0.256 8.16 7.96 11.31
3/31/2021 6:45:00 PM 8.16 46.688 0.256 8.15 9.19 11.3
3/31/2021 7:00:00 PM 8.12 46.616 0.256 8.15 8.16 11.28
3/31/2021 7:15:00 PM 8.09 46.562 0.256 8.14 8.35 11.26
3/31/2021 7:30:00 PM 8.05 46.49 0.256 8.14 8.06 11.26
3/31/2021 7:45:00 PM 8.01 46.418 0.256 8.13 8.74 11.24
3/31/2021 8:00:00 PM 7.97 46.346 0.256 8.12 10.68 11.22
3/31/2021 8:15:00 PM 7.91 46.238 0.256 8.12 11.28 11.22
3/31/2021 8:30:00 PM 7.87 46.166 0.256 8.12 11.2 11.22
3/31/2021 8:45:00 PM 7.82 46.076 0.256 8.11 10.01 11.21
3/31/2021 9:00:00 PM 7.78 46.004 0.256 8.11 8.31 11.22
3/31/2021 9:15:00 PM 7.75 45.95 0.256 8.11 9.94 11.22
3/31/2021 9:30:00 PM 7.71 45.878 0.256 8.1 8.64 11.22
3/31/2021 9:45:00 PM 7.67 45.806 0.256 8.1 8.31 11.21
3/31/2021 10:00:00 PM 7.63 45.734 0.256 8.1 8.53 11.22
3/31/2021 10:15:00 PM 7.6 45.68 0.256 8.1 8.19 11.22
3/31/2021 10:30:00 PM 7.56 45.608 0.256 8.09 8.75 11.23
3/31/2021 10:45:00 PM 7.53 45.554 0.256 8.09 9.46 11.23
3/31/2021 11:00:00 PM 7.49 45.482 0.256 8.09 9.11 11.23
3/31/2021 11:15:00 PM 7.46 45.428 0.256 8.08 10.06 11.24
3/31/2021 11:30:00 PM 7.43 45.374 0.256 8.09 9.15 11.24
3/31/2021 11:45:00 PM 7.39 45.302 0.256 8.09 9.03 11.25
4/1/2021 12:00:00 AM 7.36 45.248 0.256 8.09 9.05 11.26
4/1/2021 12:15:00 AM 7.32 45.176 0.256 8.09 8.67 11.27
4/1/2021 12:30:00 AM 7.28 45.104 0.256 8.09 8.67 11.27
4/1/2021 12:45:00 AM 7.24 45.032 0.256 8.09 8.64 11.29
4/1/2021 1:00:00 AM 7.2 44.96 0.256 8.08 8.99 11.29
4/1/2021 1:15:00 AM 7.16 44.888 0.256 8.08 9.72 11.3
4/1/2021 1:30:00 AM 7.12 44.816 0.256 8.08 9.46 11.31
4/1/2021 1:45:00 AM 7.08 44.744 0.256 8.08 9.64 11.32
4/1/2021 2:00:00 AM 7.04 44.672 0.256 8.08 9.86 11.34
4/1/2021 2:15:00 AM 7 44.6 0.256 8.08 12.8 11.34
4/1/2021 2:30:00 AM 6.95 44.51 0.256 8.08 11.5 11.35
4/1/2021 2:45:00 AM 6.9 44.42 0.256 8.08 11.08 11.37
4/1/2021 3:00:00 AM 6.86 44.348 0.256 8.08 8.99 11.38
4/1/2021 3:15:00 AM 6.79 44.222 0.256 8.08 8.86 11.39
4/1/2021 3:30:00 AM 6.65 43.97 0.256 8.08 9.5 11.4
4/1/2021 3:45:00 AM 6.47 43.646 0.255 8.08 8.79 11.42
4/1/2021 4:00:00 AM 6.36 43.448 0.255 8.08 8.51 11.44
4/1/2021 4:15:00 AM 6.22 43.196 0.255 8.08 8.79 11.46
4/1/2021 4:30:00 AM 6.12 43.016 0.255 8.08 8.84 11.49
4/1/2021 4:45:00 AM 6.07 42.926 0.255 8.08 8.84 11.52
4/1/2021 5:00:00 AM 6.05 42.89 0.255 8.08 8.95 11.53
4/1/2021 5:15:00 AM 6.02 42.836 0.255 8.08 9.25 11.55
4/1/2021 5:30:00 AM 6 42.8 0.255 8.08 8.54 11.57
4/1/2021 5:45:00 AM 5.95 42.71 0.255 8.08 8.4 11.58
4/1/2021 6:00:00 AM 5.85 42.53 0.255 8.08 9.04 11.6
4/1/2021 6:15:00 AM 5.78 42.404 0.255 8.08 8.2 11.61
4/1/2021 6:30:00 AM 5.71 42.278 0.255 8.09 9.35 11.64
4/1/2021 6:45:00 AM 5.67 42.206 0.255 8.08 8.89 11.66
4/1/2021 7:00:00 AM 5.63 42.134 0.255 8.09 8.74 11.68
4/1/2021 7:15:00 AM 5.59 42.062 0.255 8.08 8.24 11.7
4/1/2021 7:30:00 AM 5.58 42.044 0.255 8.09 8.97 11.73
4/1/2021 7:45:00 AM 5.56 42.008 0.255 8.09 8.48 11.77
4/1/2021 8:00:00 AM 5.54 41.972 0.255 8.1 8.26 11.83
4/1/2021 8:15:00 AM 5.52 41.936 0.255 8.11 8.22 11.89
4/1/2021 8:30:00 AM 5.53 41.954 0.255 8.12 7.92 11.97
4/1/2021 8:45:00 AM 5.55 41.99 0.255 8.14 7.74 12.06
4/1/2021 9:00:00 AM 5.57 42.026 0.256 8.15 8.1 12.14
4/1/2021 9:15:00 AM 5.6 42.08 0.255 8.17 7.76 12.22
4/1/2021 9:30:00 AM 5.61 42.098 0.255 8.19 7.47 12.29
4/1/2021 9:45:00 AM 5.65 42.17 0.255 8.2 8.16 12.35
4/1/2021 10:00:00 AM 5.68 42.224 0.255 8.22 7.3 12.4
4/1/2021 10:15:00 AM 5.78 42.404 0.255 8.23 7.51 12.44
4/1/2021 10:30:00 AM 5.79 42.422 0.255 8.24 7.13 12.46
4/1/2021 10:45:00 AM 5.84 42.512 0.255 8.24 7.19 12.49
4/1/2021 11:00:00 AM 5.92 42.656 0.255 8.26 7.05 12.52
4/1/2021 11:15:00 AM 6.02 42.836 0.255 8.27 7.04 12.54
4/1/2021 11:30:00 AM 6.12 43.016 0.255 8.27 7.26 12.56
4/1/2021 11:45:00 AM 6.22 43.196 0.254 8.29 7.5 12.58
4/1/2021 12:00:00 PM 6.29 43.322 0.254 8.29 7.41 12.58
4/1/2021 12:15:00 PM 6.34 43.412 0.254 8.3 10.41 12.57
4/1/2021 12:30:00 PM 6.36 43.448 0.254 8.3 10.21 12.57
4/1/2021 12:45:00 PM 6.34 43.412 0.254 8.31 7.99 12.55
4/1/2021 1:00:00 PM 6.33 43.394 0.254 8.31 7.29 12.55
4/1/2021 1:15:00 PM 6.33 43.394 0.254 8.31 6.82 12.53
4/1/2021 1:30:00 PM 6.33 43.394 0.254 8.32 9.21 12.52
4/1/2021 1:45:00 PM 6.32 43.376 0.254 8.32 7.84 12.53
4/1/2021 2:00:00 PM 6.3 43.34 0.254 8.32 7.43 12.51
4/1/2021 2:15:00 PM 6.36 43.448 0.253 8.32 7.09 12.52
4/1/2021 2:30:00 PM 6.39 43.502 0.253 8.32 7.28 12.53
4/1/2021 2:45:00 PM 6.43 43.574 0.253 8.33 6.95 12.53
4/1/2021 3:00:00 PM 6.45 43.61 0.253 8.33 7.33 12.51
4/1/2021 3:15:00 PM 6.49 43.682 0.253 8.33 7.64 12.52
4/1/2021 3:30:00 PM 6.58 43.844 0.253 8.34 7.13 12.52
4/1/2021 3:45:00 PM 6.7 44.06 0.253 8.34 7.42 12.52
4/1/2021 4:00:00 PM 6.79 44.222 0.253 8.35 7.28 12.52
4/1/2021 4:15:00 PM 6.84 44.312 0.253 8.35 7.26 12.51
4/1/2021 4:30:00 PM 6.85 44.33 0.253 8.35 8 12.49
4/1/2021 4:45:00 PM 6.87 44.366 0.252 8.35 7.38 12.48
4/1/2021 5:00:00 PM 6.83 44.294 0.252 8.35 7.01 12.45
4/1/2021 5:15:00 PM 6.79 44.222 0.252 8.34 7.41 12.43
4/1/2021 5:30:00 PM 6.78 44.204 0.253 8.34 7.85 12.41
4/1/2021 5:45:00 PM 6.76 44.168 0.252 8.33 7.66 12.39
4/1/2021 6:00:00 PM 6.72 44.096 0.253 8.33 7.86 12.37
4/1/2021 6:15:00 PM 6.64 43.952 0.253 8.31 8.07 12.33
4/1/2021 6:30:00 PM 6.57 43.826 0.253 8.3 7.55 12.3
4/1/2021 6:45:00 PM 6.45 43.61 0.253 8.28 7.32 12.25
4/1/2021 7:00:00 PM 6.35 43.43 0.253 8.27 8.83 12.21
4/1/2021 7:15:00 PM 6.26 43.268 0.253 8.26 8 12.16
4/1/2021 7:30:00 PM 6.19 43.142 0.253 8.24 7.88 12.12
4/1/2021 7:45:00 PM 6.11 42.998 0.253 8.22 7.7 12.07
4/1/2021 8:00:00 PM 6.02 42.836 0.253 8.21 7.98 12.04
4/1/2021 8:15:00 PM 5.94 42.692 0.253 8.19 8.21 12.01
4/1/2021 8:30:00 PM 5.84 42.512 0.253 8.18 8.3 12
4/1/2021 8:45:00 PM 5.76 42.368 0.253 8.17 8.46 11.99
4/1/2021 9:00:00 PM 5.67 42.206 0.253 8.16 8.34 11.99
4/1/2021 9:15:00 PM 5.6 42.08 0.253 8.16 9.08 11.99
4/1/2021 9:30:00 PM 5.52 41.936 0.253 8.15 10.75 11.99
4/1/2021 9:45:00 PM 5.46 41.828 0.253 8.14 9.31 11.99
4/1/2021 10:00:00 PM 5.36 41.648 0.253 8.14 8.99 11.99
4/1/2021 10:15:00 PM 5.29 41.522 0.253 8.14 8.48 12
4/1/2021 10:30:00 PM 5.21 41.378 0.253 8.13 9 12.01
4/1/2021 10:45:00 PM 5.1 41.18 0.253 8.12 9.32 12.02
4/1/2021 11:00:00 PM 4.97 40.946 0.252 8.12 9.32 12.05
4/1/2021 11:15:00 PM 4.91 40.838 0.253 8.12 8.93 12.06
4/1/2021 11:30:00 PM 4.84 40.712 0.253 8.11 8.73 12.08
4/1/2021 11:45:00 PM 4.76 40.568 0.252 8.11 9.43 12.1
4/2/2021 12:00:00 AM 4.66 40.388 0.253 8.11 8.42 12.12
4/2/2021 12:15:00 AM 4.57 40.226 0.252 8.1 9.59 12.15
4/2/2021 12:30:00 AM 4.46 40.028 0.252 8.11 8 12.17
4/2/2021 12:45:00 AM 4.35 39.83 0.252 8.11 8.82 12.2
4/2/2021 1:00:00 AM 4.24 39.632 0.252 8.1 8.17 12.23
4/2/2021 1:15:00 AM 4.14 39.452 0.252 8.1 8.32 12.25
4/2/2021 1:30:00 AM 4.04 39.272 0.252 8.1 8.26 12.28
4/2/2021 1:45:00 AM 3.96 39.128 0.252 8.1 8.14 12.32
4/2/2021 2:00:00 AM 3.88 38.984 0.252 8.1 7.45 12.34
4/2/2021 2:15:00 AM 3.8 38.84 0.252 8.09 8.15 12.36
4/2/2021 2:30:00 AM 3.73 38.714 0.252 8.09 7.6 12.38
4/2/2021 2:45:00 AM 3.65 38.57 0.252 8.09 8.33 12.41
4/2/2021 3:00:00 AM 3.58 38.444 0.252 8.09 7.64 12.43
4/2/2021 3:15:00 AM 3.51 38.318 0.252 8.09 8.88 12.45
4/2/2021 3:30:00 AM 3.45 38.21 0.252 8.09 70.01 12.47
4/2/2021 3:45:00 AM 3.39 38.102 0.252 8.09 8.59 12.5
4/2/2021 4:00:00 AM 3.33 37.994 0.251 8.09 8.75 12.52
4/2/2021 4:15:00 AM 3.28 37.904 0.251 8.09 7.79 12.54
4/2/2021 4:30:00 AM 3.23 37.814 0.251 8.09 8.26 12.56
4/2/2021 4:45:00 AM 3.19 37.742 0.251 8.09 8.41 12.58
4/2/2021 5:00:00 AM 3.14 37.652 0.25 8.08 8.45 12.6
4/2/2021 5:15:00 AM 3.09 37.562 0.25 8.09 7.77 12.63
4/2/2021 5:30:00 AM 3.04 37.472 0.25 8.09 7.76 12.64
4/2/2021 5:45:00 AM 2.99 37.382 0.25 8.08 8.19 12.66
4/2/2021 6:00:00 AM 2.94 37.292 0.25 8.08 7.88 12.68
4/2/2021 6:15:00 AM 2.9 37.22 0.25 8.08 7.65 12.7
4/2/2021 6:30:00 AM 2.84 37.112 0.251 8.08 7.49 12.72
4/2/2021 6:45:00 AM 2.78 37.004 0.251 8.09 7.27 12.73
4/2/2021 7:00:00 AM 2.74 36.932 0.251 8.09 8.15 12.76
4/2/2021 7:15:00 AM 2.69 36.842 0.251 8.09 7.42 12.8
4/2/2021 7:30:00 AM 2.67 36.806 0.251 8.1 9.3 12.84
4/2/2021 7:45:00 AM 2.63 36.734 0.252 8.1 7.32 12.9
4/2/2021 8:00:00 AM 2.6 36.68 0.252 8.11 7.21 12.96
4/2/2021 8:15:00 AM 2.6 36.68 0.252 8.12 7.23 13.02
4/2/2021 8:30:00 AM 2.61 36.698 0.252 8.14 7.1 13.09
4/2/2021 8:45:00 AM 2.64 36.752 0.252 8.15 7.66 13.15
4/2/2021 9:00:00 AM 2.64 36.752 0.252 8.16 6.91 13.22
4/2/2021 9:15:00 AM 2.67 36.806 0.252 8.18 7.56 13.27
4/2/2021 9:30:00 AM 2.72 36.896 0.253 8.18 7.2 13.3
4/2/2021 9:45:00 AM 2.72 36.896 0.253 8.19 7.05 13.34
4/2/2021 10:00:00 AM 2.75 36.95 0.253 8.2 6.95 13.37
4/2/2021 10:15:00 AM 2.85 37.13 0.254 8.21 6.9 13.42
4/2/2021 10:30:00 AM 2.97 37.346 0.255 8.22 6.29 13.45
4/2/2021 10:45:00 AM 3.11 37.598 0.256 8.23 6.31 13.47
4/2/2021 11:00:00 AM 3.17 37.706 0.255 8.24 6.35 13.48
4/2/2021 11:15:00 AM 3.25 37.85 0.255 8.25 6.51 13.5
4/2/2021 11:30:00 AM 3.42 38.156 0.254 8.25 6.44 13.51
4/2/2021 11:45:00 AM 3.44 38.192 0.253 8.26 6.65 13.51
4/2/2021 12:00:00 PM 3.62 38.516 0.252 8.26 6.37 13.5
4/2/2021 12:15:00 PM 3.74 38.732 0.252 8.26 6.27 13.48
4/2/2021 12:30:00 PM 3.96 39.128 0.252 8.27 6.35 13.46
4/2/2021 12:45:00 PM 4.17 39.506 0.252 8.27 6.13 13.44
4/2/2021 1:00:00 PM 4.39 39.902 0.252 8.28 6.01 13.4
4/2/2021 1:15:00 PM 4.61 40.298 0.252 8.28 6.22 13.37
4/2/2021 1:30:00 PM 4.82 40.676 0.252 8.28 6.34 13.33
4/2/2021 1:45:00 PM 5.02 41.036 0.252 8.29 6.14 13.29
4/2/2021 2:00:00 PM 5.22 41.396 0.252 8.29 6.2 13.26
4/2/2021 2:15:00 PM 5.39 41.702 0.252 8.3 6.17 13.21
4/2/2021 2:30:00 PM 5.55 41.99 0.252 8.3 6.48 13.18
4/2/2021 2:45:00 PM 5.69 42.242 0.252 8.31 6.78 13.14
4/2/2021 3:00:00 PM 5.83 42.494 0.252 8.31 6.55 13.11
4/2/2021 3:15:00 PM 5.92 42.656 0.252 8.31 6.46 13.08
4/2/2021 3:30:00 PM 6 42.8 0.252 8.32 6.64 13.05
4/2/2021 3:45:00 PM 6.08 42.944 0.253 8.32 6.27 13.01
4/2/2021 4:00:00 PM 6.13 43.034 0.253 8.32 6.31 12.99
4/2/2021 4:15:00 PM 6.17 43.106 0.253 8.33 6.36 12.96
4/2/2021 4:30:00 PM 6.18 43.124 0.253 8.33 8.24 12.93
4/2/2021 4:45:00 PM 6.2 43.16 0.253 8.33 6.83 12.9
4/2/2021 5:00:00 PM 6.2 43.16 0.253 8.33 6.58 12.88
4/2/2021 5:15:00 PM 6.15 43.07 0.253 8.32 6.71 12.85
4/2/2021 5:30:00 PM 6.08 42.944 0.254 8.33 7.23 12.81
4/2/2021 5:45:00 PM 6 42.8 0.254 8.32 6.75 12.78
4/2/2021 6:00:00 PM 5.91 42.638 0.254 8.32 6.64 12.76
4/2/2021 6:15:00 PM 5.79 42.422 0.254 8.31 6.89 12.72
4/2/2021 6:30:00 PM 5.66 42.188 0.255 8.29 6.7 12.67
4/2/2021 6:45:00 PM 5.52 41.936 0.255 8.28 6.64 12.61
4/2/2021 7:00:00 PM 5.4 41.72 0.255 8.26 6.88 12.57
4/2/2021 7:15:00 PM 5.28 41.504 0.255 8.25 6.98 12.55
4/2/2021 7:30:00 PM 5.17 41.306 0.255 8.24 6.52 12.52
4/2/2021 7:45:00 PM 5.05 41.09 0.256 8.23 6.61 12.5
4/2/2021 8:00:00 PM 4.94 40.892 0.256 8.22 6.58 12.48
4/2/2021 8:15:00 PM 4.82 40.676 0.256 8.2 8.55 12.48
4/2/2021 8:30:00 PM 4.71 40.478 0.256 8.2 8.21 12.47
4/2/2021 8:45:00 PM 4.61 40.298 0.256 8.19 7.64 12.46
4/2/2021 9:00:00 PM 4.5 40.1 0.257 8.17 7.05 12.47
4/2/2021 9:15:00 PM 4.39 39.902 0.257 8.17 6.66 12.47
4/2/2021 9:30:00 PM 4.29 39.722 0.257 8.16 7.78 12.48
4/2/2021 9:45:00 PM 4.18 39.524 0.257 8.15 7.6 12.5
4/2/2021 10:00:00 PM 4.08 39.344 0.257 8.15 6.98 12.51
4/2/2021 10:15:00 PM 3.97 39.146 0.257 8.15 6.9 12.53
4/2/2021 10:30:00 PM 3.87 38.966 0.258 8.14 6.63 12.55
4/2/2021 10:45:00 PM 3.77 38.786 0.258 8.14 6.71 12.57
4/2/2021 11:00:00 PM 3.67 38.606 0.258 8.13 6.95 12.6
4/2/2021 11:15:00 PM 3.57 38.426 0.258 8.13 7.81 12.62
4/2/2021 11:30:00 PM 3.48 38.264 0.259 8.13 8.07 12.64
4/2/2021 11:45:00 PM 3.38 38.084 0.259 8.13 7.03 12.66
4/3/2021 12:00:00 AM 3.29 37.922 0.259 8.12 6.97 12.69
4/3/2021 12:15:00 AM 3.2 37.76 0.259 8.12 6.92 12.72
4/3/2021 12:30:00 AM 3.11 37.598 0.26 8.12 7.11 12.74
4/3/2021 12:45:00 AM 3.02 37.436 0.26 8.12 7.2 12.76
4/3/2021 1:00:00 AM 2.94 37.292 0.26 8.12 7.09 12.79
4/3/2021 1:15:00 AM 2.85 37.13 0.26 8.12 6.94 12.81
4/3/2021 1:30:00 AM 2.77 36.986 0.26 8.11 8.64 12.84
4/3/2021 1:45:00 AM 2.69 36.842 0.261 8.11 7.36 12.87
4/3/2021 2:00:00 AM 2.61 36.698 0.261 8.11 7.06 12.89
4/3/2021 2:15:00 AM 2.53 36.554 0.261 8.11 6.69 12.92
4/3/2021 2:30:00 AM 2.46 36.428 0.261 8.11 6.81 12.93
4/3/2021 2:45:00 AM 2.38 36.284 0.261 8.11 7.51 12.97
4/3/2021 3:00:00 AM 2.32 36.176 0.261 8.1 7.13 12.99
4/3/2021 3:15:00 AM 2.25 36.05 0.261 8.1 7.09 13.01
4/3/2021 3:30:00 AM 2.18 35.924 0.262 8.1 7.06 13.03
4/3/2021 3:45:00 AM 2.11 35.798 0.262 8.1 6.96 13.06
4/3/2021 4:00:00 AM 2.04 35.672 0.262 8.1 6.63 13.08
4/3/2021 4:15:00 AM 1.98 35.564 0.262 8.1 6.92 13.1
4/3/2021 4:30:00 AM 1.92 35.456 0.262 8.1 7.43 13.12
4/3/2021 4:45:00 AM 1.86 35.348 0.262 8.1 6.7 13.14
4/3/2021 5:00:00 AM 1.81 35.258 0.262 8.1 7.23 13.16
4/3/2021 5:15:00 AM 1.75 35.15 0.263 8.1 6.3 13.18
4/3/2021 5:30:00 AM 1.7 35.06 0.263 8.1 6.6 13.2
4/3/2021 5:45:00 AM 1.64 34.952 0.263 8.1 6.7 13.22
4/3/2021 6:00:00 AM 1.59 34.862 0.263 8.1 7.43 13.24
4/3/2021 6:15:00 AM 1.54 34.772 0.264 8.1 7.19 13.26
4/3/2021 6:30:00 AM 1.49 34.682 0.264 8.1 6.46 13.28
4/3/2021 6:45:00 AM 1.45 34.61 0.264 8.1 6.95 13.31
4/3/2021 7:00:00 AM 1.4 34.52 0.264 8.1 6.81 13.33
4/3/2021 7:15:00 AM 1.36 34.448 0.264 8.1 6.83 13.37
4/3/2021 7:30:00 AM 1.33 34.394 0.264 8.11 7.8 13.41
4/3/2021 7:45:00 AM 1.31 34.358 0.265 8.11 6.7 13.46
4/3/2021 8:00:00 AM 1.31 34.358 0.265 8.12 6.62 13.52
4/3/2021 8:15:00 AM 1.31 34.358 0.265 8.12 6.61 13.56
4/3/2021 8:30:00 AM 1.33 34.394 0.265 8.13 6.49 13.61
4/3/2021 8:45:00 AM 1.36 34.448 0.266 8.14 6.89 13.65
4/3/2021 9:00:00 AM 1.41 34.538 0.266 8.15 6.43 13.69
4/3/2021 9:15:00 AM 1.49 34.682 0.266 8.16 6.34 13.72
4/3/2021 9:30:00 AM 1.6 34.88 0.266 8.17 6.39 13.76
4/3/2021 9:45:00 AM 1.71 35.078 0.266 8.18 6.37 13.78
4/3/2021 10:00:00 AM 1.84 35.312 0.266 8.19 6.33 13.81
4/3/2021 10:15:00 AM 1.98 35.564 0.267 8.2 6.87 13.82
4/3/2021 10:30:00 AM 2.15 35.87 0.267 8.21 6 13.83
4/3/2021 10:45:00 AM 2.33 36.194 0.267 8.21 6.01 13.83
4/3/2021 11:00:00 AM 2.53 36.554 0.267 8.22 6.62 13.82
4/3/2021 11:15:00 AM 2.75 36.95 0.267 8.23 6.02 13.81
4/3/2021 11:30:00 AM 2.99 37.382 0.268 8.24 6.01 13.78
4/3/2021 11:45:00 AM 3.25 37.85 0.268 8.25 6.05 13.76
4/3/2021 12:00:00 PM 3.52 38.336 0.268 8.25 5.64 13.73
4/3/2021 12:15:00 PM 3.79 38.822 0.268 8.26 5.72 13.69
4/3/2021 12:30:00 PM 4.07 39.326 0.268 8.27 6.07 13.64
4/3/2021 12:45:00 PM 4.34 39.812 0.268 8.28 6.37 13.59
4/3/2021 1:00:00 PM 4.62 40.316 0.268 8.29 6.01 13.54
4/3/2021 1:15:00 PM 4.9 40.82 0.269 8.29 6.65 13.48
4/3/2021 1:30:00 PM 5.17 41.306 0.269 8.3 6.07 13.43
4/3/2021 1:45:00 PM 5.43 41.774 0.269 8.3 6.03 13.37
4/3/2021 2:00:00 PM 5.69 42.242 0.269 8.31 5.89 13.31
4/3/2021 2:15:00 PM 5.93 42.674 0.269 8.32 5.81 13.26
4/3/2021 2:30:00 PM 6.16 43.088 0.269 8.32 6.34 13.2
4/3/2021 2:45:00 PM 6.37 43.466 0.27 8.33 6.12 13.14
4/3/2021 3:00:00 PM 6.56 43.808 0.27 8.33 6.06 13.09
4/3/2021 3:15:00 PM 6.73 44.114 0.27 8.34 6 13.03
4/3/2021 3:30:00 PM 6.87 44.366 0.27 8.35 6.17 12.99
4/3/2021 3:45:00 PM 7.01 44.618 0.27 8.35 6.23 12.93
4/3/2021 4:00:00 PM 7.11 44.798 0.27 8.36 6.61 12.89
4/3/2021 4:15:00 PM 7.2 44.96 0.27 8.36 5.96 12.84
4/3/2021 4:30:00 PM 7.25 45.05 0.27 8.36 6.45 12.8
4/3/2021 4:45:00 PM 7.29 45.122 0.27 8.36 6.33 12.76
4/3/2021 5:00:00 PM 7.3 45.14 0.27 8.36 6.46 12.71
4/3/2021 5:15:00 PM 7.28 45.104 0.27 8.36 6.24 12.67
4/3/2021 5:30:00 PM 7.2 44.96 0.271 8.35 6.2 12.62
4/3/2021 5:45:00 PM 7.2 44.96 0.271 8.35 6.76 12.6
4/3/2021 6:00:00 PM 7.15 44.87 0.271 8.35 6.61 12.57
4/3/2021 6:15:00 PM 7.04 44.672 0.271 8.35 6.88 12.51
4/3/2021 6:30:00 PM 6.96 44.528 0.271 8.33 6.33 12.46
4/3/2021 6:45:00 PM 6.89 44.402 0.272 8.32 6.57 12.39
4/3/2021 7:00:00 PM 6.79 44.222 0.272 8.3 6.44 12.3
4/3/2021 7:15:00 PM 6.7 44.06 0.272 8.29 6.4 12.24
4/3/2021 7:30:00 PM 6.62 43.916 0.272 8.27 6.57 12.19
4/3/2021 7:45:00 PM 6.51 43.718 0.273 8.26 6.42 12.14
4/3/2021 8:00:00 PM 6.4 43.52 0.273 8.24 6.4 12.11
4/3/2021 8:15:00 PM 6.29 43.322 0.273 8.23 6.85 12.07
4/3/2021 8:30:00 PM 6.18 43.124 0.273 8.22 11.35 12.05
4/3/2021 8:45:00 PM 6.07 42.926 0.274 8.21 9.81 12.05
4/3/2021 9:00:00 PM 5.96 42.728 0.274 8.2 6.41 12.04
4/3/2021 9:15:00 PM 5.85 42.53 0.274 8.19 6.63 12.04
4/3/2021 9:30:00 PM 5.74 42.332 0.274 8.18 7.1 12.04
4/3/2021 9:45:00 PM 5.64 42.152 0.275 8.18 6.39 12.04
4/3/2021 10:00:00 PM 5.53 41.954 0.275 8.17 8 12.05
4/3/2021 10:15:00 PM 5.42 41.756 0.275 8.16 8.05 12.06
4/3/2021 10:30:00 PM 5.32 41.576 0.275 8.16 6.76 12.08
4/3/2021 10:45:00 PM 5.21 41.378 0.276 8.16 9.07 12.09
4/3/2021 11:00:00 PM 5.13 41.234 0.276 8.15 7.57 12.12
4/3/2021 11:15:00 PM 5.05 41.09 0.276 8.15 6.7 12.13
4/3/2021 11:30:00 PM 4.98 40.964 0.276 8.14 6.63 12.15
4/3/2021 11:45:00 PM 4.92 40.856 0.276 8.14 7.01 12.16
4/4/2021 12:00:00 AM 4.85 40.73 0.277 8.14 7.12 12.19
4/4/2021 12:15:00 AM 4.79 40.622 0.277 8.14 6.6 12.2
4/4/2021 12:30:00 AM 4.72 40.496 0.277 8.13 6.28 12.22
4/4/2021 12:45:00 AM 4.66 40.388 0.277 8.13 7.27 12.24
4/4/2021 1:00:00 AM 4.6 40.28 0.278 8.13 7.09 12.25
4/4/2021 1:15:00 AM 4.54 40.172 0.278 8.13 6.71 12.27
4/4/2021 1:30:00 AM 4.49 40.082 0.278 8.13 6.83 12.28
4/4/2021 1:45:00 AM 4.43 39.974 0.278 8.12 7.96 12.3
4/4/2021 2:00:00 AM 4.38 39.884 0.278 8.12 7.56 12.32
4/4/2021 2:15:00 AM 4.34 39.812 0.278 8.12 6.8 12.33
4/4/2021 2:30:00 AM 4.29 39.722 0.278 8.12 6.87 12.35
4/4/2021 2:45:00 AM 4.24 39.632 0.278 8.12 6.62 12.36
4/4/2021 3:00:00 AM 4.19 39.542 0.279 8.12 6.57 12.38
4/4/2021 3:15:00 AM 4.14 39.452 0.278 8.11 7.01 12.39
4/4/2021 3:30:00 AM 4.09 39.362 0.279 8.11 6.73 12.4
4/4/2021 3:45:00 AM 4.03 39.254 0.279 8.11 6.85 12.41
4/4/2021 4:00:00 AM 3.97 39.146 0.279 8.11 7.99 12.43
4/4/2021 4:15:00 AM 3.92 39.056 0.279 8.11 7.49 12.45
4/4/2021 4:30:00 AM 3.87 38.966 0.279 8.1 7.5 12.46
4/4/2021 4:45:00 AM 3.84 38.912 0.279 8.11 7.61 12.47
4/4/2021 5:00:00 AM 3.81 38.858 0.279 8.11 6.65 12.48
4/4/2021 5:15:00 AM 3.78 38.804 0.279 8.11 7.11 12.49
4/4/2021 5:30:00 AM 3.75 38.75 0.279 8.1 7 12.49
4/4/2021 5:45:00 AM 3.73 38.714 0.279 8.1 6.63 12.51
4/4/2021 6:00:00 AM 3.7 38.66 0.279 8.1 6.8 12.51
4/4/2021 6:15:00 AM 3.68 38.624 0.279 8.1 6.84 12.52
4/4/2021 6:30:00 AM 3.65 38.57 0.279 8.1 9.67 12.53
4/4/2021 6:45:00 AM 3.63 38.534 0.279 8.1 7.73 12.54
4/4/2021 7:00:00 AM 3.61 38.498 0.28 8.1 7.29 12.56
4/4/2021 7:15:00 AM 3.6 38.48 0.279 8.1 6.84 12.58
4/4/2021 7:30:00 AM 3.59 38.462 0.28 8.11 6.43 12.62
4/4/2021 7:45:00 AM 3.58 38.444 0.279 8.12 6.64 12.67
4/4/2021 8:00:00 AM 3.58 38.444 0.279 8.13 6.75 12.73
4/4/2021 8:15:00 AM 3.58 38.444 0.279 8.14 6.66 12.79
4/4/2021 8:30:00 AM 3.6 38.48 0.279 8.15 6.19 12.84
4/4/2021 8:45:00 AM 3.62 38.516 0.279 8.16 6.22 12.89
4/4/2021 9:00:00 AM 3.67 38.606 0.279 8.17 6.22 12.94
4/4/2021 9:15:00 AM 3.74 38.732 0.279 8.18 6.34 12.99
4/4/2021 9:30:00 AM 3.83 38.894 0.279 8.19 6.24 13.03
4/4/2021 9:45:00 AM 3.94 39.092 0.278 8.2 6.12 13.06
4/4/2021 10:00:00 AM 4.07 39.326 0.278 8.22 5.82 13.09
4/4/2021 10:15:00 AM 4.22 39.596 0.278 8.23 6.29 13.1
4/4/2021 10:30:00 AM 4.38 39.884 0.277 8.24 5.91 13.12
4/4/2021 10:45:00 AM 4.57 40.226 0.277 8.25 5.82 13.13
4/4/2021 11:00:00 AM 4.77 40.586 0.277 8.27 5.98 13.13
4/4/2021 11:15:00 AM 5 41 0.277 8.28 5.89 13.12
4/4/2021 11:30:00 AM 5.23 41.414 0.276 8.29 5.83 13.1
4/4/2021 11:45:00 AM 5.49 41.882 0.276 8.3 5.79 13.08
4/4/2021 12:00:00 PM 5.76 42.368 0.276 8.3 6.13 13.06
4/4/2021 12:15:00 PM 6.04 42.872 0.276 8.31 5.66 13.02
4/4/2021 12:30:00 PM 6.29 43.322 0.275 8.32 6.3 12.98
4/4/2021 12:45:00 PM 6.58 43.844 0.275 8.33 5.72 12.95
4/4/2021 1:00:00 PM 6.86 44.348 0.275 8.34 5.74 12.91
4/4/2021 1:15:00 PM 7.15 44.87 0.275 8.35 5.94 12.86
4/4/2021 1:30:00 PM 7.41 45.338 0.275 8.36 5.92 12.82
4/4/2021 1:45:00 PM 7.6 45.68 0.275 8.37 5.9 12.77
4/4/2021 2:00:00 PM 7.81 46.058 0.275 8.37 5.94 12.73
4/4/2021 2:15:00 PM 8.07 46.526 0.275 8.38 6.1 12.69
4/4/2021 2:30:00 PM 8.33 46.994 0.275 8.39 6.66 12.65
4/4/2021 2:45:00 PM 8.54 47.372 0.274 8.4 5.86 12.6
4/4/2021 3:00:00 PM 8.7 47.66 0.274 8.4 6.08 12.55
4/4/2021 3:15:00 PM 8.84 47.912 0.275 8.41 5.89 12.51
4/4/2021 3:30:00 PM 8.92 48.056 0.274 8.41 6.19 12.45
4/4/2021 3:45:00 PM 9 48.2 0.274 8.42 5.88 12.41
4/4/2021 4:00:00 PM 9.08 48.344 0.274 8.42 6.7 12.36
4/4/2021 4:15:00 PM 9.17 48.506 0.274 8.43 6.05 12.33
4/4/2021 4:30:00 PM 9.23 48.614 0.274 8.43 6.77 12.3
4/4/2021 4:45:00 PM 9.29 48.722 0.274 8.43 6.75 12.25
4/4/2021 5:00:00 PM 9.32 48.776 0.274 8.43 6.88 12.21
4/4/2021 5:15:00 PM 9.32 48.776 0.274 8.43 6.51 12.16
4/4/2021 5:30:00 PM 9.31 48.758 0.274 8.43 7.69 12.11
4/4/2021 5:45:00 PM 9.25 48.65 0.274 8.42 6.26 12.06
4/4/2021 6:00:00 PM 9.18 48.524 0.273 8.41 7.15 12.01
4/4/2021 6:15:00 PM 9.06 48.308 0.273 8.4 6.6 11.95
4/4/2021 6:30:00 PM 8.94 48.092 0.273 8.38 6.88 11.87
4/4/2021 6:45:00 PM 8.82 47.876 0.273 8.36 6.55 11.8
4/4/2021 7:00:00 PM 8.71 47.678 0.273 8.34 7.09 11.72
4/4/2021 7:15:00 PM 8.61 47.498 0.273 8.32 9.49 11.65
4/4/2021 7:30:00 PM 8.53 47.354 0.273 8.31 6.3 11.6
4/4/2021 7:45:00 PM 8.44 47.192 0.273 8.29 8.52 11.54
4/4/2021 8:00:00 PM 8.34 47.012 0.273 8.27 7.6 11.5
4/4/2021 8:15:00 PM 8.25 46.85 0.273 8.26 10.42 11.45
4/4/2021 8:30:00 PM 8.14 46.652 0.273 8.24 9.37 11.43
4/4/2021 8:45:00 PM 8.04 46.472 0.273 8.23 7.43 11.41
4/4/2021 9:00:00 PM 7.93 46.274 0.273 8.22 7.09 11.4
4/4/2021 9:15:00 PM 7.82 46.076 0.273 8.21 6.59 11.39
4/4/2021 9:30:00 PM 7.72 45.896 0.273 8.2 6.69 11.38
4/4/2021 9:45:00 PM 7.61 45.698 0.273 8.19 7.19 11.38
4/4/2021 10:00:00 PM 7.51 45.518 0.273 8.19 6.98 11.39
4/4/2021 10:15:00 PM 7.4 45.32 0.273 8.17 6.71 11.39
4/4/2021 10:30:00 PM 7.3 45.14 0.273 8.17 6.49 11.4
4/4/2021 10:45:00 PM 7.19 44.942 0.274 8.17 6.55 11.42
4/4/2021 11:00:00 PM 7.08 44.744 0.274 8.16 6.43 11.44
4/4/2021 11:15:00 PM 6.97 44.546 0.274 8.16 6.55 11.45
4/4/2021 11:30:00 PM 6.87 44.366 0.274 8.15 6.45 11.47
4/4/2021 11:45:00 PM 6.76 44.168 0.274 8.15 6.86 11.49
4/5/2021 12:00:00 AM 6.67 44.006 0.274 8.15 6.77 11.51
4/5/2021 12:15:00 AM 6.57 43.826 0.274 8.14 6.79 11.53
4/5/2021 12:30:00 AM 6.47 43.646 0.274 8.14 10.03 11.55
4/5/2021 12:45:00 AM 6.38 43.484 0.275 8.14 10.76 11.57
4/5/2021 1:00:00 AM 6.29 43.322 0.274 8.14 7.2 11.59
4/5/2021 1:15:00 AM 6.2 43.16 0.275 8.13 7.18 11.62
4/5/2021 1:30:00 AM 6.1 42.98 0.275 8.13 6.97 11.64
4/5/2021 1:45:00 AM 6.02 42.836 0.275 8.13 7.77 11.66
4/5/2021 2:00:00 AM 5.93 42.674 0.275 8.13 7.49 11.68
4/5/2021 2:15:00 AM 5.84 42.512 0.275 8.12 7.61 11.71
4/5/2021 2:30:00 AM 5.75 42.35 0.275 8.12 8 11.73
4/5/2021 2:45:00 AM 5.66 42.188 0.275 8.12 9.14 11.76
4/5/2021 3:00:00 AM 5.58 42.044 0.275 8.12 7.04 11.78
4/5/2021 3:15:00 AM 5.5 41.9 0.275 8.12 7.03 11.8
4/5/2021 3:30:00 AM 5.41 41.738 0.275 8.12 6.92 11.83
4/5/2021 3:45:00 AM 5.34 41.612 0.275 8.12 6.88 11.85
4/5/2021 4:00:00 AM 5.26 41.468 0.275 8.11 6.76 11.87
4/5/2021 4:15:00 AM 5.18 41.324 0.275 8.11 6.82 11.9
4/5/2021 4:30:00 AM 5.12 41.216 0.276 8.11 6.81 11.92
4/5/2021 4:45:00 AM 5.05 41.09 0.276 8.11 7.7 11.94
4/5/2021 5:00:00 AM 4.98 40.964 0.276 8.11 7.74 11.96
4/5/2021 5:15:00 AM 4.92 40.856 0.276 8.11 6.68 11.98
4/5/2021 5:30:00 AM 4.85 40.73 0.276 8.11 8.89 12
4/5/2021 5:45:00 AM 4.78 40.604 0.276 8.11 7.47 12.02
4/5/2021 6:00:00 AM 4.72 40.496 0.276 8.11 7.2 12.04
4/5/2021 6:15:00 AM 4.66 40.388 0.276 8.11 6.68 12.06
4/5/2021 6:30:00 AM 4.6 40.28 0.276 8.11 9.07 12.09
4/5/2021 6:45:00 AM 4.54 40.172 0.276 8.11 7.93 12.11
4/5/2021 7:00:00 AM 4.48 40.064 0.276 8.11 7.03 12.15
4/5/2021 7:15:00 AM 4.43 39.974 0.277 8.11 6.53 12.19
4/5/2021 7:30:00 AM 4.4 39.92 0.277 8.12 6.56 12.24
4/5/2021 7:45:00 AM 4.37 39.866 0.277 8.13 6.7 12.3
4/5/2021 8:00:00 AM 4.35 39.83 0.277 8.14 6.24 12.37
4/5/2021 8:15:00 AM 4.35 39.83 0.277 8.14 6.51 12.43
4/5/2021 8:30:00 AM 4.36 39.848 0.277 8.15 6.11 12.49
4/5/2021 8:45:00 AM 4.39 39.902 0.277 8.17 6.45 12.54
4/5/2021 9:00:00 AM 4.44 39.992 0.277 8.18 6.31 12.6
4/5/2021 9:15:00 AM 4.51 40.118 0.277 8.19 6.24 12.65
4/5/2021 9:30:00 AM 4.61 40.298 0.278 8.21 5.92 12.7
4/5/2021 9:45:00 AM 4.72 40.496 0.277 8.22 6.11 12.73
4/5/2021 10:00:00 AM 4.87 40.766 0.277 8.23 6.22 12.77
4/5/2021 10:15:00 AM 5.02 41.036 0.277 8.25 5.99 12.8
4/5/2021 10:30:00 AM 5.19 41.342 0.277 8.26 5.98 12.82
4/5/2021 10:45:00 AM 5.39 41.702 0.277 8.27 5.85 12.83
4/5/2021 11:00:00 AM 5.6 42.08 0.277 8.28 5.75 12.83
4/5/2021 11:15:00 AM 5.83 42.494 0.277 8.3 5.52 12.84
4/5/2021 11:30:00 AM 6.07 42.926 0.277 8.31 5.77 12.83
4/5/2021 11:45:00 AM 6.34 43.412 0.276 8.32 5.58 12.8
4/5/2021 12:00:00 PM 6.62 43.916 0.276 8.33 5.82 12.79
4/5/2021 12:15:00 PM 6.91 44.438 0.276 8.34 5.75 12.76
4/5/2021 12:30:00 PM 7.2 44.96 0.276 8.35 5.89 12.73
4/5/2021 12:45:00 PM 7.49 45.482 0.276 8.37 5.75 12.7
4/5/2021 1:00:00 PM 7.78 46.004 0.275 8.37 5.83 12.65
4/5/2021 1:15:00 PM 8.06 46.508 0.275 8.38 6.82 12.61
4/5/2021 1:30:00 PM 8.34 47.012 0.275 8.39 5.67 12.56
4/5/2021 1:45:00 PM 8.61 47.498 0.275 8.4 5.67 12.51
4/5/2021 2:00:00 PM 8.87 47.966 0.274 8.41 6.31 12.48
4/5/2021 2:15:00 PM 9.12 48.416 0.274 8.42 6.14 12.43
4/5/2021 2:30:00 PM 9.36 48.848 0.274 8.43 5.91 12.38
4/5/2021 2:45:00 PM 9.57 49.226 0.274 8.44 5.82 12.33
4/5/2021 3:00:00 PM 9.78 49.604 0.274 8.44 6.06 12.28
4/5/2021 3:15:00 PM 9.96 49.928 0.274 8.45 5.86 12.23
4/5/2021 3:30:00 PM 10.1 50.18 0.274 8.45 5.98 12.17
4/5/2021 3:45:00 PM 10.23 50.414 0.273 8.46 6.16 12.13
4/5/2021 4:00:00 PM 10.34 50.612 0.273 8.46 5.85 12.09
4/5/2021 4:15:00 PM 10.42 50.756 0.273 8.47 6.2 12.04
4/5/2021 4:30:00 PM 10.47 50.846 0.273 8.47 6.4 12
4/5/2021 4:45:00 PM 10.49 50.882 0.273 8.47 6.21 11.96
4/5/2021 5:00:00 PM 10.49 50.882 0.273 8.47 6.5 11.92
4/5/2021 5:15:00 PM 10.47 50.846 0.273 8.47 6.61 11.86
4/5/2021 5:30:00 PM 10.42 50.756 0.273 8.46 6.13 11.82
4/5/2021 5:45:00 PM 10.34 50.612 0.273 8.46 6.32 11.77
4/5/2021 6:00:00 PM 10.24 50.432 0.273 8.45 6.47 11.7
4/5/2021 6:15:00 PM 10.13 50.234 0.273 8.44 6 11.63
4/5/2021 6:30:00 PM 10 50 0.273 8.42 6.96 11.56
4/5/2021 6:45:00 PM 9.86 49.748 0.273 8.4 8.62 11.46
4/5/2021 7:00:00 PM 9.74 49.532 0.273 8.37 6.73 11.37
4/5/2021 7:15:00 PM 9.63 49.334 0.273 8.35 6.04 11.3
4/5/2021 7:30:00 PM 9.54 49.172 0.273 8.34 6.32 11.24
4/5/2021 7:45:00 PM 9.46 49.028 0.273 8.32 6.38 11.18
4/5/2021 8:00:00 PM 9.37 48.866 0.273 8.3 8.04 11.14
4/5/2021 8:15:00 PM 9.27 48.686 0.273 8.28 9.27 11.1
4/5/2021 8:30:00 PM 9.17 48.506 0.274 8.27 11.28 11.06
4/5/2021 8:45:00 PM 9.06 48.308 0.274 8.25 6.96 11.04
4/5/2021 9:00:00 PM 8.95 48.11 0.274 8.24 6.86 11.03
4/5/2021 9:15:00 PM 8.83 47.894 0.274 8.23 8.61 11.02
4/5/2021 9:30:00 PM 8.72 47.696 0.274 8.22 7.13 11.01
4/5/2021 9:45:00 PM 8.62 47.516 0.274 8.21 7.72 11.02
4/5/2021 10:00:00 PM 8.5 47.3 0.274 8.2 8.26 11.02
4/5/2021 10:15:00 PM 8.39 47.102 0.275 8.19 7.14 11.02
4/5/2021 10:30:00 PM 8.28 46.904 0.275 8.19 6.76 11.04
4/5/2021 10:45:00 PM 8.16 46.688 0.275 8.18 8.05 11.06
4/5/2021 11:00:00 PM 8.04 46.472 0.275 8.18 5.76 11.07
4/5/2021 11:15:00 PM 7.93 46.274 0.275 8.17 6.87 11.09
4/5/2021 11:30:00 PM 7.81 46.058 0.275 8.17 7.8 11.11
4/5/2021 11:45:00 PM 7.69 45.842 0.276 8.16 15.94 11.14
4/6/2021 12:00:00 AM 7.59 45.662 0.276 8.16 7.26 11.16
4/6/2021 12:15:00 AM 7.48 45.464 0.276 8.15 8.2 11.18
4/6/2021 12:30:00 AM 7.36 45.248 0.276 8.15 7.05 11.21
4/6/2021 12:45:00 AM 7.25 45.05 0.276 8.15 11.21 11.23
4/6/2021 1:00:00 AM 7.14 44.852 0.276 8.15 8.19 11.26
4/6/2021 1:15:00 AM 7.04 44.672 0.276 8.14 6.47 11.29
4/6/2021 1:30:00 AM 6.93 44.474 0.276 8.14 7.64 11.31
4/6/2021 1:45:00 AM 6.82 44.276 0.276 8.14 7.07 11.34
4/6/2021 2:00:00 AM 6.72 44.096 0.277 8.14 6.69 11.37
4/6/2021 2:15:00 AM 6.61 43.898 0.277 8.13 6.83 11.4
4/6/2021 2:30:00 AM 6.51 43.718 0.277 8.13 6.68 11.43
4/6/2021 2:45:00 AM 6.41 43.538 0.277 8.13 6.07 11.45
4/6/2021 3:00:00 AM 6.3 43.34 0.277 8.13 6.57 11.49
4/6/2021 3:15:00 AM 6.2 43.16 0.277 8.13 6.8 11.51
4/6/2021 3:30:00 AM 6.11 42.998 0.277 8.13 7.71 11.54
4/6/2021 3:45:00 AM 6.01 42.818 0.277 8.12 6.77 11.57
4/6/2021 4:00:00 AM 5.91 42.638 0.277 8.12 6.44 11.6
4/6/2021 4:15:00 AM 5.81 42.458 0.277 8.12 8.34 11.63
4/6/2021 4:30:00 AM 5.72 42.296 0.277 8.12 7.34 11.66
4/6/2021 4:45:00 AM 5.63 42.134 0.277 8.12 6.98 11.68
4/6/2021 5:00:00 AM 5.54 41.972 0.277 8.12 6.45 11.72
4/6/2021 5:15:00 AM 5.45 41.81 0.277 8.12 6.56 11.74
4/6/2021 5:30:00 AM 5.37 41.666 0.277 8.12 6.81 11.77
4/6/2021 5:45:00 AM 5.3 41.54 0.277 8.12 6.26 11.79
4/6/2021 6:00:00 AM 5.21 41.378 0.277 8.12 6.49 11.82
4/6/2021 6:15:00 AM 5.13 41.234 0.277 8.11 6.72 11.84
4/6/2021 6:30:00 AM 5.07 41.126 0.277 8.12 6.82 11.87
4/6/2021 6:45:00 AM 4.99 40.982 0.277 8.12 6.78 11.9
4/6/2021 7:00:00 AM 4.92 40.856 0.277 8.12 6.88 11.93
4/6/2021 7:15:00 AM 4.87 40.766 0.277 8.12 6.08 11.98
4/6/2021 7:30:00 AM 4.82 40.676 0.277 8.13 6.4 12.05
4/6/2021 7:45:00 AM 4.78 40.604 0.277 8.14 6.5 12.11
4/6/2021 8:00:00 AM 4.75 40.55 0.277 8.15 6.07 12.17
4/6/2021 8:15:00 AM 4.74 40.532 0.277 8.15 6.19 12.24
4/6/2021 8:30:00 AM 4.74 40.532 0.277 8.16 6.07 12.3
4/6/2021 8:45:00 AM 4.75 40.55 0.277 8.17 6.13 12.37
4/6/2021 9:00:00 AM 4.8 40.64 0.277 8.18 6.21 12.43
4/6/2021 9:15:00 AM 4.86 40.748 0.277 8.2 6.24 12.48
4/6/2021 9:30:00 AM 4.95 40.91 0.277 8.21 5.83 12.54
4/6/2021 9:45:00 AM 5.07 41.126 0.277 8.23 5.73 12.59
4/6/2021 10:00:00 AM 5.21 41.378 0.277 8.24 5.85 12.62
4/6/2021 10:15:00 AM 5.37 41.666 0.277 8.26 6.4 12.66
4/6/2021 10:30:00 AM 5.54 41.972 0.277 8.27 6.04 12.7
4/6/2021 10:45:00 AM 5.74 42.332 0.277 8.29 5.51 12.71
4/6/2021 11:00:00 AM 5.96 42.728 0.277 8.3 5.56 12.72
4/6/2021 11:15:00 AM 6.2 43.16 0.277 8.32 5.5 12.72
4/6/2021 11:30:00 AM 6.45 43.61 0.277 8.33 5.51 12.72
4/6/2021 11:45:00 AM 6.73 44.114 0.277 8.34 5.57 12.72
4/6/2021 12:00:00 PM 7.03 44.654 0.277 8.35 5.53 12.69
4/6/2021 12:15:00 PM 7.33 45.194 0.277 8.36 5.51 12.67
4/6/2021 12:30:00 PM 7.64 45.752 0.276 8.38 5.45 12.64
4/6/2021 12:45:00 PM 7.94 46.292 0.276 8.39 5.53 12.6
4/6/2021 1:00:00 PM 8.24 46.832 0.276 8.4 5.38 12.58
4/6/2021 1:15:00 PM 8.54 47.372 0.276 8.41 5.59 12.54
4/6/2021 1:30:00 PM 8.83 47.894 0.276 8.42 5.74 12.53
4/6/2021 1:45:00 PM 9.11 48.398 0.276 8.43 8.39 12.45
4/6/2021 2:00:00 PM 9.38 48.884 0.276 8.44 6.56 12.39
4/6/2021 2:15:00 PM 9.63 49.334 0.276 8.45 5.58 12.37
4/6/2021 2:30:00 PM 9.87 49.766 0.276 8.46 5.95 12.31
4/6/2021 2:45:00 PM 10.09 50.162 0.276 8.46 5.75 12.26
4/6/2021 3:00:00 PM 10.27 50.486 0.275 8.47 5.42 12.22
4/6/2021 3:15:00 PM 10.44 50.792 0.275 8.48 5.63 12.16
4/6/2021 3:30:00 PM 10.62 51.116 0.275 8.49 5.33 12.13
4/6/2021 3:45:00 PM 10.77 51.386 0.275 8.5 5.78 12.09
4/6/2021 4:00:00 PM 10.89 51.602 0.275 8.51 5.83 12.04
4/6/2021 4:15:00 PM 10.98 51.764 0.275 8.51 5.85 11.99
4/6/2021 4:30:00 PM 11.01 51.818 0.275 8.51 6.38 11.93
4/6/2021 4:45:00 PM 11.05 51.89 0.275 8.51 5.76 11.89
4/6/2021 5:00:00 PM 11.08 51.944 0.275 8.51 5.74 11.85
4/6/2021 5:15:00 PM 11.05 51.89 0.275 8.51 6.15 11.8
4/6/2021 5:30:00 PM 10.95 51.71 0.275 8.5 5.72 11.74
4/6/2021 5:45:00 PM 10.9 51.62 0.275 8.5 5.67 11.69
4/6/2021 6:00:00 PM 10.82 51.476 0.276 8.49 6.21 11.63
4/6/2021 6:15:00 PM 10.7 51.26 0.276 8.48 5.86 11.56
4/6/2021 6:30:00 PM 10.6 51.08 0.276 8.46 6.57 11.46
4/6/2021 6:45:00 PM 10.5 50.9 0.276 8.44 6.08 11.36
4/6/2021 7:00:00 PM 10.39 50.702 0.276 8.41 6.32 11.25
4/6/2021 7:15:00 PM 10.29 50.522 0.276 8.39 6.19 11.17
4/6/2021 7:30:00 PM 10.2 50.36 0.277 8.37 6 11.09
4/6/2021 7:45:00 PM 10.1 50.18 0.277 8.35 6.59 11.02
4/6/2021 8:00:00 PM 10 50 0.277 8.33 8.05 10.98
4/6/2021 8:15:00 PM 9.9 49.82 0.277 8.31 9.91 10.92
4/6/2021 8:30:00 PM 9.79 49.622 0.277 8.29 9.9 10.9
4/6/2021 8:45:00 PM 9.69 49.442 0.277 8.28 8.93 10.87
4/6/2021 9:00:00 PM 9.59 49.262 0.277 8.27 10.04 10.85
4/6/2021 9:15:00 PM 9.49 49.082 0.278 8.25 7.3 10.83
4/6/2021 9:30:00 PM 9.41 48.938 0.278 8.24 6.67 10.82
4/6/2021 9:45:00 PM 9.31 48.758 0.278 8.23 7.35 10.81
4/6/2021 10:00:00 PM 9.22 48.596 0.278 8.22 8.59 10.81
4/6/2021 10:15:00 PM 9.12 48.416 0.278 8.21 8.99 10.81
4/6/2021 10:30:00 PM 9.03 48.254 0.278 8.2 12.07 10.82
4/6/2021 10:45:00 PM 8.93 48.074 0.278 8.2 7.78 10.83
4/6/2021 11:00:00 PM 8.82 47.876 0.278 8.19 9.63 10.84
4/6/2021 11:15:00 PM 8.72 47.696 0.278 8.19 6.2 10.86
4/6/2021 11:30:00 PM 8.62 47.516 0.278 8.18 6.55 10.87
4/6/2021 11:45:00 PM 8.52 47.336 0.279 8.18 6.61 10.9
4/7/2021 12:00:00 AM 8.42 47.156 0.279 8.17 6.1 10.91
4/7/2021 12:15:00 AM 8.32 46.976 0.279 8.17 8.61 10.93
4/7/2021 12:30:00 AM 8.22 46.796 0.279 8.17 6.76 10.95
4/7/2021 12:45:00 AM 8.12 46.616 0.279 8.16 6.56 10.97
4/7/2021 1:00:00 AM 8.02 46.436 0.28 8.16 8.65 10.99
4/7/2021 1:15:00 AM 7.93 46.274 0.279 8.16 7.41 11.02
4/7/2021 1:30:00 AM 7.84 46.112 0.28 8.15 6.35 11.04
4/7/2021 1:45:00 AM 7.76 45.968 0.28 8.15 6.76 11.07
4/7/2021 2:00:00 AM 7.69 45.842 0.28 8.15 7.18 11.09
4/7/2021 2:15:00 AM 7.61 45.698 0.28 8.15 5.99 11.11
4/7/2021 2:30:00 AM 7.55 45.59 0.28 8.14 7.35 11.13
4/7/2021 2:45:00 AM 7.48 45.464 0.28 8.14 6.89 11.15
4/7/2021 3:00:00 AM 7.41 45.338 0.28 8.14 8.55 11.17
4/7/2021 3:15:00 AM 7.33 45.194 0.28 8.14 5.99 11.2
4/7/2021 3:30:00 AM 7.26 45.068 0.28 8.14 6.46 11.21
4/7/2021 3:45:00 AM 7.18 44.924 0.28 8.14 6.87 11.24
4/7/2021 4:00:00 AM 7.11 44.798 0.28 8.13 6.22 11.27
4/7/2021 4:15:00 AM 7.05 44.69 0.28 8.13 6.43 11.29
4/7/2021 4:30:00 AM 7 44.6 0.281 8.13 5.97 11.31
4/7/2021 4:45:00 AM 6.95 44.51 0.281 8.13 6.27 11.32
4/7/2021 5:00:00 AM 6.9 44.42 0.281 8.13 6.22 11.34
4/7/2021 5:15:00 AM 6.86 44.348 0.281 8.13 6.29 11.36
4/7/2021 5:30:00 AM 6.82 44.276 0.281 8.13 6.23 11.37
4/7/2021 5:45:00 AM 6.79 44.222 0.281 8.13 6.48 11.38
4/7/2021 6:00:00 AM 6.76 44.168 0.281 8.13 6.44 11.39
4/7/2021 6:15:00 AM 6.72 44.096 0.281 8.13 5.93 11.41
4/7/2021 6:30:00 AM 6.7 44.06 0.281 8.13 11.57 11.42
4/7/2021 6:45:00 AM 6.68 44.024 0.281 8.13 6.4 11.43
4/7/2021 7:00:00 AM 6.66 43.988 0.282 8.12 6.01 11.45
4/7/2021 7:15:00 AM 6.64 43.952 0.281 8.13 6.13 11.47
4/7/2021 7:30:00 AM 6.62 43.916 0.282 8.13 5.91 11.49
4/7/2021 7:45:00 AM 6.63 43.934 0.282 8.14 6.67 11.54
4/7/2021 8:00:00 AM 6.63 43.934 0.282 8.15 5.67 11.62
4/7/2021 8:15:00 AM 6.64 43.952 0.281 8.16 6.65 11.68
4/7/2021 8:30:00 AM 6.67 44.006 0.281 8.17 5.51 11.77
4/7/2021 8:45:00 AM 6.71 44.078 0.281 8.19 5.42 11.86
4/7/2021 9:00:00 AM 6.74 44.132 0.281 8.2 5.7 11.93
4/7/2021 9:15:00 AM 6.78 44.204 0.281 8.22 5.46 12
4/7/2021 9:30:00 AM 6.92 44.456 0.281 8.24 5.41 12.09
4/7/2021 9:45:00 AM 7.06 44.708 0.281 8.26 5.49 12.16
4/7/2021 10:00:00 AM 7.1 44.78 0.281 8.27 5.18 12.18
4/7/2021 10:15:00 AM 7.21 44.978 0.281 8.29 5.26 12.23
4/7/2021 10:30:00 AM 7.39 45.302 0.281 8.31 5.29 12.27
4/7/2021 10:45:00 AM 7.6 45.68 0.281 8.32 5.39 12.29
4/7/2021 11:00:00 AM 7.84 46.112 0.281 8.34 5.34 12.3
4/7/2021 11:15:00 AM 8.06 46.508 0.281 8.35 5.25 12.29
4/7/2021 11:30:00 AM 8.28 46.904 0.281 8.36 5.25 12.29
4/7/2021 11:45:00 AM 8.56 47.408 0.281 8.37 5.46 12.28
4/7/2021 12:00:00 PM 8.82 47.876 0.28 8.38 5.46 12.26
4/7/2021 12:15:00 PM 9.07 48.326 0.28 8.4 5.45 12.24
4/7/2021 12:30:00 PM 9.42 48.956 0.28 8.42 5.22 12.27
4/7/2021 12:45:00 PM 9.74 49.532 0.28 8.43 5.15 12.24
4/7/2021 1:00:00 PM 10.12 50.216 0.28 8.45 5.44 12.25
4/7/2021 1:15:00 PM 10.38 50.684 0.28 8.45 5.25 12.18
4/7/2021 1:30:00 PM 10.65 51.17 0.28 8.46 5.55 12.27
4/7/2021 1:45:00 PM 10.97 51.746 0.279 8.47 5.17 12.09
4/7/2021 2:00:00 PM 11.27 52.286 0.279 8.48 5.62 12.04
4/7/2021 2:15:00 PM 11.55 52.79 0.279 8.49 5.56 11.99
4/7/2021 2:30:00 PM 11.8 53.24 0.279 8.49 5.64 11.94
4/7/2021 2:45:00 PM 12.03 53.654 0.279 8.5 6.01 11.89
4/7/2021 3:00:00 PM 12.25 54.05 0.279 8.51 5.55 11.86
4/7/2021 3:15:00 PM 12.46 54.428 0.279 8.51 5.23 11.78
4/7/2021 3:30:00 PM 12.64 54.752 0.279 8.52 5.97 11.72
4/7/2021 3:45:00 PM 12.79 55.022 0.279 8.52 6.03 11.68
4/7/2021 4:00:00 PM 12.92 55.256 0.279 8.53 5.68 11.63
4/7/2021 4:15:00 PM 13 55.4 0.279 8.53 6.02 11.58
4/7/2021 4:30:00 PM 13.07 55.526 0.279 8.53 6.56 11.54
4/7/2021 4:45:00 PM 13.11 55.598 0.279 8.53 6.09 11.49
4/7/2021 5:00:00 PM 13.14 55.652 0.279 8.53 5.58 11.44
4/7/2021 5:15:00 PM 13.13 55.634 0.279 8.53 6.3 11.38
4/7/2021 5:30:00 PM 13.11 55.598 0.279 8.53 5.91 11.32
4/7/2021 5:45:00 PM 13.06 55.508 0.279 8.52 6.07 11.26
4/7/2021 6:00:00 PM 12.99 55.382 0.279 8.51 5.86 11.18
4/7/2021 6:15:00 PM 12.9 55.22 0.279 8.5 6.02 11.1
4/7/2021 6:30:00 PM 12.79 55.022 0.279 8.48 6.23 10.99
4/7/2021 6:45:00 PM 12.68 54.824 0.279 8.45 5.77 10.86
4/7/2021 7:00:00 PM 12.58 54.644 0.28 8.43 5.59 10.75
4/7/2021 7:15:00 PM 12.49 54.482 0.28 8.4 6.11 10.64
4/7/2021 7:30:00 PM 12.41 54.338 0.28 8.38 5.99 10.56
4/7/2021 7:45:00 PM 12.34 54.212 0.28 8.36 5.89 10.49
4/7/2021 8:00:00 PM 12.26 54.068 0.28 8.33 8.14 10.42
4/7/2021 8:15:00 PM 12.17 53.906 0.28 8.31 11.12 10.37
4/7/2021 8:30:00 PM 12.06 53.708 0.28 8.3 9.26 10.33
4/7/2021 8:45:00 PM 11.96 53.528 0.281 8.28 7.28 10.29
4/7/2021 9:00:00 PM 11.84 53.312 0.281 8.26 9.02 10.27
4/7/2021 9:15:00 PM 11.74 53.132 0.281 8.25 6.62 10.25
4/7/2021 9:30:00 PM 11.63 52.934 0.281 8.24 6.09 10.24
4/7/2021 9:45:00 PM 11.5 52.7 0.281 8.22 6.09 10.23
4/7/2021 10:00:00 PM 11.4 52.52 0.281 8.22 5.99 10.23
4/7/2021 10:15:00 PM 11.3 52.34 0.282 8.21 6.88 10.22
4/7/2021 10:30:00 PM 11.19 52.142 0.282 8.2 6.18 10.23
4/7/2021 10:45:00 PM 11.09 51.962 0.282 8.19 5.74 10.23
4/7/2021 11:00:00 PM 10.99 51.782 0.282 8.18 7.31 10.24
4/7/2021 11:15:00 PM 10.9 51.62 0.282 8.17 6.19 10.25
4/7/2021 11:30:00 PM 10.8 51.44 0.282 8.17 7.5 10.25
4/7/2021 11:45:00 PM 10.7 51.26 0.282 8.17 6.79 10.27
4/8/2021 12:00:00 AM 10.6 51.08 0.282 8.16 6.72 10.28
4/8/2021 12:15:00 AM 10.51 50.918 0.283 8.16 6.25 10.3
4/8/2021 12:30:00 AM 10.41 50.738 0.283 8.15 6.25 10.31
4/8/2021 12:45:00 AM 10.31 50.558 0.283 8.15 6.21 10.33
4/8/2021 1:00:00 AM 10.21 50.378 0.283 8.15 6.26 10.35
4/8/2021 1:15:00 AM 10.12 50.216 0.283 8.14 6.98 10.38
4/8/2021 1:30:00 AM 10.02 50.036 0.283 8.14 6.03 10.4
4/8/2021 1:45:00 AM 9.91 49.838 0.284 8.14 6.16 10.42
4/8/2021 2:00:00 AM 9.81 49.658 0.284 8.14 6.34 10.45
4/8/2021 2:15:00 AM 9.7 49.46 0.284 8.13 7.16 10.48
4/8/2021 2:30:00 AM 9.6 49.28 0.284 8.13 6.66 10.51
4/8/2021 2:45:00 AM 9.49 49.082 0.284 8.13 6.24 10.53
4/8/2021 3:00:00 AM 9.38 48.884 0.284 8.13 5.85 10.56
4/8/2021 3:15:00 AM 9.28 48.704 0.284 8.13 9.04 10.59
4/8/2021 3:30:00 AM 9.18 48.524 0.284 8.13 6.23 10.62
4/8/2021 3:45:00 AM 9.07 48.326 0.284 8.12 6.25 10.64
4/8/2021 4:00:00 AM 8.97 48.146 0.284 8.12 6.09 10.68
4/8/2021 4:15:00 AM 8.87 47.966 0.284 8.12 5.97 10.7
4/8/2021 4:30:00 AM 8.76 47.768 0.284 8.12 6.64 10.74
4/8/2021 4:45:00 AM 8.66 47.588 0.284 8.12 6.34 10.77
4/8/2021 5:00:00 AM 8.55 47.39 0.285 8.12 6.16 10.8
4/8/2021 5:15:00 AM 8.46 47.228 0.285 8.12 5.77 10.83
4/8/2021 5:30:00 AM 8.37 47.066 0.285 8.11 5.94 10.85
4/8/2021 5:45:00 AM 8.27 46.886 0.285 8.11 6.33 10.88
4/8/2021 6:00:00 AM 8.19 46.742 0.285 8.11 6.31 10.91
4/8/2021 6:15:00 AM 8.1 46.58 0.285 8.11 7.07 10.93
4/8/2021 6:30:00 AM 8.01 46.418 0.285 8.11 6.03 10.96
4/8/2021 6:45:00 AM 7.93 46.274 0.286 8.11 6.37 10.99
4/8/2021 7:00:00 AM 7.86 46.148 0.286 8.12 6.21 11.03
4/8/2021 7:15:00 AM 7.79 46.022 0.286 8.12 6.1 11.09
4/8/2021 7:30:00 AM 7.75 45.95 0.286 8.13 6.06 11.15
4/8/2021 7:45:00 AM 7.71 45.878 0.286 8.13 5.87 11.21
4/8/2021 8:00:00 AM 7.69 45.842 0.286 8.14 5.79 11.28
4/8/2021 8:15:00 AM 7.68 45.824 0.286 8.15 5.66 11.35
4/8/2021 8:30:00 AM 7.69 45.842 0.286 8.17 5.59 11.42
4/8/2021 8:45:00 AM 7.73 45.914 0.286 8.18 5.59 11.48
4/8/2021 9:00:00 AM 7.78 46.004 0.286 8.19 5.34 11.55
4/8/2021 9:15:00 AM 7.87 46.166 0.286 8.2 5.53 11.61
4/8/2021 9:30:00 AM 7.98 46.364 0.286 8.22 5.55 11.67
4/8/2021 9:45:00 AM 8.11 46.598 0.286 8.23 5.75 11.74
4/8/2021 10:00:00 AM 8.27 46.886 0.286 8.25 5.32 11.78
4/8/2021 10:15:00 AM 8.46 47.228 0.286 8.27 6.9 11.82
4/8/2021 10:30:00 AM 8.66 47.588 0.285 8.29 5.54 11.85
4/8/2021 10:45:00 AM 8.88 47.984 0.285 8.3 5.22 11.89
4/8/2021 11:00:00 AM 9.13 48.434 0.285 8.32 5.43 11.9
4/8/2021 11:15:00 AM 9.39 48.902 0.285 8.34 5.19 11.91
4/8/2021 11:30:00 AM 9.68 49.424 0.285 8.35 5.39 11.92
4/8/2021 11:45:00 AM 9.98 49.964 0.285 8.37 5.22 11.91
4/8/2021 12:00:00 PM 10.3 50.54 0.285 8.38 5.44 11.9
4/8/2021 12:15:00 PM 10.63 51.134 0.285 8.4 5.06 11.91
4/8/2021 12:30:00 PM 10.96 51.728 0.285 8.41 6.2 11.83
4/8/2021 12:45:00 PM 12.47 54.446 0.158 8.25 516.29 10.44
4/8/2021 1:00:00 PM 11.63 52.934 0.262 8.31 10.71 11.71
4/8/2021 1:15:00 PM 11.96 53.528 0.269 8.33 5.47 11.69
4/8/2021 1:30:00 PM 12.27 54.086 0.304 8.32 7.92 11.37
4/8/2021 1:45:00 PM 12.57 54.626 0.273 8.35 5.32 11.61
4/8/2021 2:00:00 PM 12.87 55.166 0.276 8.36 4.1 11.56
4/8/2021 2:15:00 PM 13.14 55.652 0.279 8.37 3.91 11.52
4/8/2021 2:30:00 PM 13.4 56.12 0.278 8.38 4.65 11.36
4/8/2021 2:45:00 PM 13.64 56.552 0.279 8.4 4.05 11.44
4/8/2021 3:00:00 PM 13.86 56.948 0.28 8.4 4.32 11.39
4/8/2021 3:15:00 PM 14.06 57.308 0.285 8.41 4.54 11.35
4/8/2021 3:30:00 PM 14.23 57.614 0.28 8.41 3.77 11.3
4/8/2021 3:45:00 PM 14.38 57.884 0.276 8.42 3.54 11.25
4/8/2021 4:00:00 PM 14.51 58.118 0.276 8.43 3.79 11.2
4/8/2021 4:15:00 PM 14.61 58.298 0.284 8.44 3.76 11.15
4/8/2021 4:30:00 PM 14.69 58.442 0.28 8.44 4.08 11.1
4/8/2021 4:45:00 PM 14.73 58.514 0.304 8.44 4.21 11.04
4/8/2021 5:00:00 PM 14.75 58.55 0.285 8.44 3.71 10.99
4/8/2021 5:15:00 PM 14.75 58.55 0.28 8.44 3.62 10.93
4/8/2021 5:30:00 PM 14.71 58.478 0.282 8.44 8.98 10.87
4/8/2021 5:45:00 PM 14.65 58.37 0.277 8.43 5.43 10.81
4/8/2021 6:00:00 PM 14.57 58.226 0.282 8.42 4.83 10.72
4/8/2021 6:15:00 PM 14.47 58.046 0.279 8.4 4.58 10.63
4/8/2021 6:30:00 PM 14.34 57.812 0.276 8.39 5.2 10.49
4/8/2021 6:45:00 PM 14.22 57.596 0.273 8.36 3.86 10.4
4/8/2021 7:00:00 PM 14.11 57.398 0.268 8.33 3.83 10.28
4/8/2021 7:15:00 PM 14.01 57.218 0.264 8.3 3.81 10.17
4/8/2021 7:30:00 PM 13.93 57.074 0.28 8.28 4.37 10.08
4/8/2021 7:45:00 PM 13.85 56.93 0.272 8.26 4.22 10.01
4/8/2021 8:00:00 PM 13.76 56.768 0.271 8.24 4.48 9.94
4/8/2021 8:15:00 PM 13.67 56.606 0.269 8.22 4.18 9.89
4/8/2021 8:30:00 PM 13.57 56.426 0.274 8.2 4.37 9.83
4/8/2021 8:45:00 PM 13.47 56.246 0.27 8.18 4.63 9.79
4/8/2021 9:00:00 PM 13.37 56.066 0.263 8.16 4.5 9.76
4/8/2021 9:15:00 PM 13.26 55.868 0.277 8.15 4.2 9.74
4/8/2021 9:30:00 PM 13.16 55.688 0.26 8.14 4.06 9.72
4/8/2021 9:45:00 PM 13.07 55.526 0.263 8.13 4.14 9.71
4/8/2021 10:00:00 PM 12.97 55.346 0.265 8.12 4.62 9.7
4/8/2021 10:15:00 PM 12.88 55.184 0.271 8.1 4.96 9.69
4/8/2021 10:30:00 PM 12.8 55.04 0.27 8.1 4.53 9.68
4/8/2021 10:45:00 PM 12.71 54.878 0.252 8.09 6.73 9.68
4/8/2021 11:00:00 PM 12.64 54.752 0.262 8.09 5.47 9.67
4/8/2021 11:15:00 PM 12.57 54.626 0.256 8.08 4.2 9.69
4/8/2021 11:30:00 PM 12.5 54.5 0.265 8.08 4.1 9.69
4/8/2021 11:45:00 PM 12.42 54.356 0.262 8.07 4.18 9.7
4/9/2021 12:00:00 AM 12.34 54.212 0.256 8.07 4.27 9.71
4/9/2021 12:15:00 AM 12.26 54.068 0.249 8.06 5.57 9.72
4/9/2021 12:30:00 AM 12.19 53.942 0.266 8.06 8.49 9.73
4/9/2021 12:45:00 AM 12.12 53.816 0.252 8.06 4.76 9.74
4/9/2021 1:00:00 AM 12.05 53.69 0.263 8.06 4.41 9.75
4/9/2021 1:15:00 AM 11.98 53.564 0.261 8.06 5.25 9.77
4/9/2021 1:30:00 AM 11.91 53.438 0.265 8.05 5.1 9.78
4/9/2021 1:45:00 AM 11.83 53.294 0.248 8.05 4.77 9.79
4/9/2021 2:00:00 AM 11.76 53.168 0.307 8.06 5.4 9.81
4/9/2021 2:15:00 AM 11.68 53.024 0.257 8.06 4.47 9.83
4/9/2021 2:30:00 AM 11.6 52.88 0.307 8.05 4.67 9.84
4/9/2021 2:45:00 AM 11.52 52.736 0.257 8.05 7.56 9.87
4/9/2021 3:00:00 AM 11.45 52.61 0.262 8.05 5.09 9.89
4/9/2021 3:15:00 AM 11.37 52.466 0.257 8.05 4.5 9.91
4/9/2021 3:30:00 AM 11.29 52.322 0.254 8.05 5.48 9.92
4/9/2021 3:45:00 AM 11.22 52.196 0.251 8.05 4.46 9.94
4/9/2021 4:00:00 AM 11.14 52.052 0.25 8.05 4.59 9.97
4/9/2021 4:15:00 AM 11.06 51.908 0.236 8.05 6.16 9.98
4/9/2021 4:30:00 AM 10.98 51.764 0.252 8.05 5.69 10
4/9/2021 4:45:00 AM 10.9 51.62 0.26 8.05 5.68 10.02
4/9/2021 5:00:00 AM 10.82 51.476 0.264 8.05 13.38 10.02
4/9/2021 5:15:00 AM 10.74 51.332 0.266 8.05 6 10.08
4/9/2021 5:30:00 AM 10.66 51.188 0.264 8.05 5.1 10.06
4/9/2021 5:45:00 AM 10.59 51.062 0.264 8.05 9.45 10.08
4/9/2021 6:00:00 AM 10.51 50.918 0.264 8.05 6.97 10.13
4/9/2021 6:15:00 AM 10.44 50.792 0.251 8.05 6.72 10.16
4/9/2021 6:30:00 AM 10.37 50.666 0.264 8.05 5.03 10.14
4/9/2021 6:45:00 AM 10.3 50.54 0.255 8.05 4.94 10.22
4/9/2021 7:00:00 AM 10.25 50.45 0.264 8.06 4.6 10.28
4/9/2021 7:15:00 AM 10.22 50.396 0.257 8.06 5.55 10.34
4/9/2021 7:30:00 AM 10.2 50.36 0.254 8.08 4.99 10.44
4/9/2021 7:45:00 AM 10.2 50.36 0.255 8.09 4.35 10.53
4/9/2021 8:00:00 AM 10.21 50.378 0.258 8.11 4.49 10.64
4/9/2021 8:15:00 AM 10.21 50.378 0.254 8.12 4.45 10.72
4/9/2021 8:30:00 AM 10.2 50.36 0.247 8.13 4.35 10.77
4/9/2021 8:45:00 AM 10.21 50.378 0.257 8.15 4.06 10.84
4/9/2021 9:00:00 AM 10.22 50.396 0.248 8.16 4 10.9
4/9/2021 9:15:00 AM 10.26 50.468 0.248 8.18 4.94 10.97
4/9/2021 9:30:00 AM 10.34 50.612 0.246 8.19 4.05 11.03
4/9/2021 9:45:00 AM 10.42 50.756 0.255 8.21 3.89 11.1
4/9/2021 10:00:00 AM 10.55 50.99 0.256 8.22 4.02 11.15
4/9/2021 10:15:00 AM 10.69 51.242 0.263 8.24 4.13 11.21
4/9/2021 10:30:00 AM 10.83 51.494 0.257 8.25 3.76 11.25
4/9/2021 10:45:00 AM 11.02 51.836 0.255 8.27 3.64 11.29
4/9/2021 11:00:00 AM 11.2 52.16 0.253 8.28 3.67 11.32
4/9/2021 11:15:00 AM 11.41 52.538 0.254 8.29 3.68 11.34
4/9/2021 11:30:00 AM 11.59 52.862 0.254 8.31 3.65 11.35
4/9/2021 11:45:00 AM 11.82 53.276 0.248 8.32 3.61 11.36
4/9/2021 12:00:00 PM 12.08 53.744 0.265 8.34 3.44 11.37
4/9/2021 12:15:00 PM 12.31 54.158 0.248 8.35 4.11 11.37
4/9/2021 12:30:00 PM 12.52 54.536 0.267 8.37 3.62 11.36
4/9/2021 12:45:00 PM 12.63 54.734 0.256 8.38 3.48 11.36
4/9/2021 1:00:00 PM 12.7 54.86 0.253 8.39 3.62 11.34
4/9/2021 1:15:00 PM 12.78 55.004 0.249 8.4 3.94 11.3
4/9/2021 1:30:00 PM 12.84 55.112 0.243 8.41 3.38 11.26
4/9/2021 1:45:00 PM 12.92 55.256 0.248 8.41 3.57 11.24
4/9/2021 2:00:00 PM 12.99 55.382 0.308 8.42 3.89 11.2
4/9/2021 2:15:00 PM 13.06 55.508 0.257 8.42 4.06 11.19
4/9/2021 2:30:00 PM 13.18 55.724 0.254 8.43 3.85 11.22
4/9/2021 2:45:00 PM 13.34 56.012 0.253 8.44 3.94 11.21
4/9/2021 3:00:00 PM 13.39 56.102 0.246 8.45 4.22 11.18
4/9/2021 3:15:00 PM 13.38 56.084 0.262 8.44 3.85 11.11
4/9/2021 3:30:00 PM 13.41 56.138 0.25 8.44 3.62 11.07
4/9/2021 3:45:00 PM 13.42 56.156 0.242 8.44 3.38 11.03
4/9/2021 4:00:00 PM 13.4 56.12 0.26 8.44 5.51 10.96
4/9/2021 4:15:00 PM 13.4 56.12 0.243 8.43 3.8 10.93
4/9/2021 4:30:00 PM 13.49 56.282 0.248 8.43 3.85 10.91
4/9/2021 4:45:00 PM 13.44 56.192 0.254 8.43 3.99 10.89
4/9/2021 5:00:00 PM 13.45 56.21 0.264 8.42 3.79 10.88
4/9/2021 5:15:00 PM 13.42 56.156 0.25 8.42 3.8 10.85
4/9/2021 5:30:00 PM 13.41 56.138 0.253 8.42 3.51 10.81
4/9/2021 5:45:00 PM 13.42 56.156 0.243 8.42 3.84 10.8
4/9/2021 6:00:00 PM 13.44 56.192 0.241 8.42 3.66 10.79
4/9/2021 6:15:00 PM 13.38 56.084 0.252 8.41 4.62 10.74
4/9/2021 6:30:00 PM 13.29 55.922 0.248 8.4 3.65 10.68
4/9/2021 6:45:00 PM 13.22 55.796 0.248 8.39 3.96 10.6
4/9/2021 7:00:00 PM 13.12 55.616 0.261 8.37 3.53 10.51
4/9/2021 7:15:00 PM 13.03 55.454 0.252 8.35 3.85 10.42
4/9/2021 7:30:00 PM 12.95 55.31 0.236 8.32 5.13 10.32
4/9/2021 7:45:00 PM 12.88 55.184 0.258 8.3 4.2 10.23
4/9/2021 8:00:00 PM 12.81 55.058 0.242 8.27 6.95 10.16
4/9/2021 8:15:00 PM 12.74 54.932 0.25 8.26 6.35 10.12
4/9/2021 8:30:00 PM 12.68 54.824 0.254 8.24 4.43 10.07
4/9/2021 8:45:00 PM 12.62 54.716 0.256 8.23 4.12 10.03
4/9/2021 9:00:00 PM 12.55 54.59 0.245 8.21 4.25 10
4/9/2021 9:15:00 PM 12.48 54.464 0.228 8.2 3.91 9.97
4/9/2021 9:30:00 PM 12.42 54.356 0.245 8.19 4.1 9.95
4/9/2021 9:45:00 PM 12.35 54.23 0.254 8.18 3.84 9.94
4/9/2021 10:00:00 PM 12.28 54.104 0.26 8.17 4.16 9.92
4/9/2021 10:15:00 PM 12.2 53.96 0.241 8.16 3.85 9.91
4/9/2021 10:30:00 PM 12.13 53.834 0.249 8.15 4.02 9.9
4/9/2021 10:45:00 PM 12.05 53.69 0.251 8.14 4 9.89
4/9/2021 11:00:00 PM 11.98 53.564 0.25 8.13 3.93 9.89
4/9/2021 11:15:00 PM 11.92 53.456 0.253 8.12 4.18 9.88
4/9/2021 11:30:00 PM 11.86 53.348 0.258 8.11 4.19 9.88
4/9/2021 11:45:00 PM 11.8 53.24 0.249 8.11 4.16 9.88
4/10/2021 12:00:00 AM 11.75 53.15 0.24 8.1 4.19 9.88
4/10/2021 12:15:00 AM 11.7 53.06 0.249 8.1 3.71 9.88
4/10/2021 12:30:00 AM 11.65 52.97 0.247 8.1 4.2 9.88
4/10/2021 12:45:00 AM 11.6 52.88 0.245 8.09 5.75 9.89
4/10/2021 1:00:00 AM 11.57 52.826 0.248 8.09 4.34 9.89
4/10/2021 1:15:00 AM 11.56 52.808 0.254 8.08 4.06 9.9
4/10/2021 1:30:00 AM 11.54 52.772 0.252 8.08 4.11 9.9
4/10/2021 1:45:00 AM 11.53 52.754 0.243 8.08 4.47 9.9
4/10/2021 2:00:00 AM 11.51 52.718 0.244 8.07 4.39 9.91
4/10/2021 2:15:00 AM 11.49 52.682 0.25 8.07 9.1 9.9
4/10/2021 2:30:00 AM 11.47 52.646 0.252 8.07 4.68 9.91
4/10/2021 2:45:00 AM 11.44 52.592 0.252 8.07 4.8 9.92
4/10/2021 3:00:00 AM 11.41 52.538 0.251 8.07 4.56 9.93
4/10/2021 3:15:00 AM 11.38 52.484 0.251 8.06 5.64 9.94
4/10/2021 3:30:00 AM 11.35 52.43 0.244 8.07 4.12 9.95
4/10/2021 3:45:00 AM 11.32 52.376 0.257 8.06 4.27 9.96
4/10/2021 4:00:00 AM 11.3 52.34 0.249 8.07 4.19 9.96
4/10/2021 4:15:00 AM 11.27 52.286 0.239 8.06 6.28 9.97
4/10/2021 4:30:00 AM 11.24 52.232 0.238 8.06 4.63 9.97
4/10/2021 4:45:00 AM 11.21 52.178 0.256 8.06 4.74 9.98
4/10/2021 5:00:00 AM 11.18 52.124 0.241 8.05 11.62 9.95
4/10/2021 5:15:00 AM 11.14 52.052 0.244 8.05 11.96 9.96
4/10/2021 5:30:00 AM 11.11 51.998 0.242 8.06 7.27 9.97
4/10/2021 5:45:00 AM 11.07 51.926 0.255 8.05 5.17 9.98
4/10/2021 6:00:00 AM 11.04 51.872 0.245 8.05 4.78 9.95
4/10/2021 6:15:00 AM 11.01 51.818 0.238 8.05 4.45 9.99
4/10/2021 6:30:00 AM 10.98 51.764 0.247 8.05 5.27 9.91
4/10/2021 6:45:00 AM 10.95 51.71 0.259 8.05 4.54 9.95
4/10/2021 7:00:00 AM 10.93 51.674 0.243 8.05 4.18 9.98
4/10/2021 7:15:00 AM 10.91 51.638 0.251 8.06 4.35 10.07
4/10/2021 7:30:00 AM 10.9 51.62 0.24 8.06 3.94 10.06
4/10/2021 7:45:00 AM 10.91 51.638 0.249 8.07 4.8 10.14
4/10/2021 8:00:00 AM 10.92 51.656 0.242 8.08 4.13 10.22
4/10/2021 8:15:00 AM 10.94 51.692 0.232 8.09 3.78 10.29
4/10/2021 8:30:00 AM 10.97 51.746 0.255 8.1 4.02 10.36
4/10/2021 8:45:00 AM 10.99 51.782 0.257 8.12 3.87 10.44
4/10/2021 9:00:00 AM 11.05 51.89 0.251 8.13 3.82 10.52
4/10/2021 9:15:00 AM 11.1 51.98 0.247 8.15 4.07 10.58
4/10/2021 9:30:00 AM 11.15 52.07 0.259 8.17 4.41 10.66
4/10/2021 9:45:00 AM 11.24 52.232 0.253 8.18 4.52 10.73
4/10/2021 10:00:00 AM 11.34 52.412 0.255 8.2 3.82 10.81
4/10/2021 10:15:00 AM 11.45 52.61 0.247 8.22 3.84 10.88
4/10/2021 10:30:00 AM 11.74 53.132 0.262 8.24 3.76 10.97
4/10/2021 10:45:00 AM 11.98 53.564 0.249 8.26 5.85 11
4/10/2021 11:00:00 AM 12.16 53.888 0.268 8.27 4.14 11.05
4/10/2021 11:15:00 AM 12.36 54.248 0.259 8.28 3.91 11.05
4/10/2021 11:30:00 AM 12.53 54.554 0.259 8.29 3.72 11.05
4/10/2021 11:45:00 AM 12.68 54.824 0.256 8.3 3.38 11.04
4/10/2021 12:00:00 PM 12.89 55.202 0.262 8.32 3.64 11.04
4/10/2021 12:15:00 PM 13.18 55.724 0.251 8.33 3.48 11.03
4/10/2021 12:30:00 PM 13.5 56.3 0.248 8.34 3.67 11.01
4/10/2021 12:45:00 PM 13.84 56.912 0.254 8.35 3.81 11
4/10/2021 1:00:00 PM 14.19 57.542 0.249 8.36 3.85 10.94
4/10/2021 1:15:00 PM 14.52 58.136 0.268 8.38 3.58 10.92
4/10/2021 1:30:00 PM 14.84 58.712 0.253 8.39 5.22 10.92
4/10/2021 1:45:00 PM 15.15 59.27 0.263 8.4 4.16 10.83
4/10/2021 2:00:00 PM 15.38 59.684 0.261 8.41 4.11 10.82
4/10/2021 2:15:00 PM 15.67 60.206 0.26 8.41 4.94 10.75
4/10/2021 2:30:00 PM 15.92 60.656 0.267 8.42 3.51 10.72
4/10/2021 2:45:00 PM 16.12 61.016 0.266 8.43 6.62 10.7
4/10/2021 3:00:00 PM 16.29 61.322 0.278 8.44 3.75 10.7
4/10/2021 3:15:00 PM 16.45 61.61 0.278 8.45 4.7 10.65
4/10/2021 3:30:00 PM 16.56 61.808 0.269 8.45 3.72 10.61
4/10/2021 3:45:00 PM 16.63 61.934 0.265 8.46 4.48 10.56
4/10/2021 4:00:00 PM 16.67 62.006 0.26 8.46 4.31 10.47
4/10/2021 4:15:00 PM 16.7 62.06 0.264 8.46 4.06 10.44
4/10/2021 4:30:00 PM 16.7 62.06 0.266 8.47 3.53 10.44
4/10/2021 4:45:00 PM 16.68 62.024 0.267 8.47 3.78 10.38
4/10/2021 5:00:00 PM 16.65 61.97 0.253 8.47 3.75 10.34
4/10/2021 5:15:00 PM 16.62 61.916 0.255 8.47 3.62 10.3
4/10/2021 5:30:00 PM 16.59 61.862 0.257 8.46 3.53 10.25
4/10/2021 5:45:00 PM 16.53 61.754 0.261 8.46 4.15 10.19
4/10/2021 6:00:00 PM 16.48 61.664 0.264 8.45 3.52 10.13
4/10/2021 6:15:00 PM 16.42 61.556 0.253 8.44 3.98 10.03
4/10/2021 6:30:00 PM 16.36 61.448 0.242 8.42 3.62 9.86
4/10/2021 6:45:00 PM 16.28 61.304 0.253 8.4 3.91 9.85
4/10/2021 7:00:00 PM 16.18 61.124 0.256 8.38 3.7 9.7
4/10/2021 7:15:00 PM 16.09 60.962 0.255 8.36 3.61 9.61
4/10/2021 7:30:00 PM 16 60.8 0.254 8.33 4.07 9.53
4/10/2021 7:45:00 PM 15.9 60.62 0.252 8.31 3.74 9.44
4/10/2021 8:00:00 PM 15.8 60.44 0.249 8.28 13.3 9.3
4/10/2021 8:15:00 PM 15.69 60.242 0.249 8.26 5.18 9.34
4/10/2021 8:30:00 PM 15.58 60.044 0.246 8.24 4.02 9.29
4/10/2021 8:45:00 PM 15.47 59.846 0.246 8.22 4.88 9.25
4/10/2021 9:00:00 PM 15.36 59.648 0.25 8.2 4.36 9.22
4/10/2021 9:15:00 PM 15.24 59.432 0.245 8.18 4.12 9.19
4/10/2021 9:30:00 PM 15.14 59.252 0.248 8.17 4.04 9.18
4/10/2021 9:45:00 PM 15.04 59.072 0.247 8.15 3.89 9.16
4/10/2021 10:00:00 PM 14.95 58.91 0.239 8.14 4.36 9.15
4/10/2021 10:15:00 PM 14.85 58.73 0.248 8.13 4.7 9.14
4/10/2021 10:30:00 PM 14.76 58.568 0.24 8.12 4.05 9.13
4/10/2021 10:45:00 PM 14.68 58.424 0.248 8.11 4.62 9.13
4/10/2021 11:00:00 PM 14.61 58.298 0.246 8.1 4.67 9.13
4/10/2021 11:15:00 PM 14.53 58.154 0.245 8.09 4.79 9.13
4/10/2021 11:30:00 PM 14.46 58.028 0.242 8.09 5.26 9.13
4/10/2021 11:45:00 PM 14.39 57.902 0.239 8.08 4.35 9.13
4/11/2021 12:00:00 AM 14.31 57.758 0.24 8.08 3.78 9.14
4/11/2021 12:15:00 AM 14.24 57.632 0.233 8.07 4.22 9.14
4/11/2021 12:30:00 AM 14.17 57.506 0.247 8.06 4.12 9.14
4/11/2021 12:45:00 AM 14.1 57.38 0.237 8.06 4.5 9.15
4/11/2021 1:00:00 AM 14.03 57.254 0.24 8.06 4.31 9.16
4/11/2021 1:15:00 AM 13.97 57.146 0.235 8.05 4.01 9.17
4/11/2021 1:30:00 AM 13.9 57.02 0.233 8.05 4.94 9.17
4/11/2021 1:45:00 AM 13.83 56.894 0.224 8.05 4.24 9.19
4/11/2021 2:00:00 AM 13.76 56.768 0.24 8.04 4.5 9.2
4/11/2021 2:15:00 AM 13.68 56.624 0.249 8.04 4.47 9.21
4/11/2021 2:30:00 AM 13.61 56.498 0.24 8.04 5.16 9.23
4/11/2021 2:45:00 AM 13.53 56.354 0.231 8.03 4.48 9.25
4/11/2021 3:00:00 AM 13.46 56.228 0.228 8.03 4.6 9.25
4/11/2021 3:15:00 AM 13.38 56.084 0.229 8.03 5.61 9.27
4/11/2021 3:30:00 AM 13.3 55.94 0.23 8.03 4.46 9.29
4/11/2021 3:45:00 AM 13.22 55.796 0.251 8.03 4.49 9.31
4/11/2021 4:00:00 AM 13.14 55.652 0.248 8.02 4.53 9.33
4/11/2021 4:15:00 AM 13.06 55.508 0.245 8.02 6.79 9.34
4/11/2021 4:30:00 AM 12.96 55.328 0.249 8.02 5.93 9.36
4/11/2021 4:45:00 AM 12.88 55.184 0.241 8.02 4.37 9.39
4/11/2021 5:00:00 AM 12.8 55.04 0.242 8 6.27 9.34
4/11/2021 5:15:00 AM 12.72 54.896 0.233 8.01 5.52 9.4
4/11/2021 5:30:00 AM 12.64 54.752 0.245 8.01 9.86 9.42
4/11/2021 5:45:00 AM 12.56 54.608 0.237 8 93.44 9.41
4/11/2021 6:00:00 AM 12.5 54.5 0.247 8 7.96 9.44
4/11/2021 6:15:00 AM 12.43 54.374 0.242 8 5.15 9.42
4/11/2021 6:30:00 AM 12.37 54.266 0.24 8 5.29 9.44
4/11/2021 6:45:00 AM 12.3 54.14 0.248 8 5.19 9.49
4/11/2021 7:00:00 AM 12.25 54.05 0.261 8.01 4.39 9.52
4/11/2021 7:15:00 AM 12.2 53.96 0.248 8.01 7.09 9.56
4/11/2021 7:30:00 AM 12.17 53.906 0.253 8.02 5.71 9.62
4/11/2021 7:45:00 AM 12.14 53.852 0.252 8.03 4.94 9.66
4/11/2021 8:00:00 AM 12.12 53.816 0.251 8.03 7.89 9.72
4/11/2021 8:15:00 AM 12.11 53.798 0.246 8.05 5.29 9.78
4/11/2021 8:30:00 AM 12.11 53.798 0.249 8.06 3.87 9.86
4/11/2021 8:45:00 AM 12.12 53.816 0.242 8.08 3.55 9.96
4/11/2021 9:00:00 AM 12.15 53.87 0.235 8.09 3.76 10.04
4/11/2021 9:15:00 AM 12.21 53.978 0.237 8.11 3.66 10.15
4/11/2021 9:30:00 AM 12.28 54.104 0.245 8.13 3.53 10.23
4/11/2021 9:45:00 AM 12.4 54.32 0.262 8.16 3.7 10.35
4/11/2021 10:00:00 AM 12.52 54.536 0.247 8.18 3.81 10.43
4/11/2021 10:15:00 AM 12.65 54.77 0.245 8.2 6 10.47
4/11/2021 10:30:00 AM 12.76 54.968 0.237 8.22 5.04 10.54
4/11/2021 10:45:00 AM 12.88 55.184 0.252 8.23 5.38 10.6
4/11/2021 11:00:00 AM 12.99 55.382 0.248 8.25 5.34 10.63
4/11/2021 11:15:00 AM 13.09 55.562 0.318 8.27 5.42 10.67
4/11/2021 11:30:00 AM 13.17 55.706 0.248 8.28 5.51 10.68
4/11/2021 11:45:00 AM 13.29 55.922 0.24 8.29 6.11 10.67
4/11/2021 12:00:00 PM 13.48 56.264 0.251 8.31 5.13 10.71
4/11/2021 12:15:00 PM 13.62 56.516 0.24 8.32 5.51 10.73
4/11/2021 12:30:00 PM 13.67 56.606 0.241 8.33 5.72 10.7
4/11/2021 12:45:00 PM 13.72 56.696 0.249 8.33 5.68 10.67
4/11/2021 1:00:00 PM 13.77 56.786 0.255 8.34 5.38 10.65
4/11/2021 1:15:00 PM 13.81 56.858 0.255 8.35 6.81 10.63
4/11/2021 1:30:00 PM 13.85 56.93 0.318 8.35 5.75 10.61
4/11/2021 1:45:00 PM 13.87 56.966 0.262 8.36 4.46 10.61
4/11/2021 2:00:00 PM 13.9 57.02 0.251 8.36 6.24 10.57
4/11/2021 2:15:00 PM 13.93 57.074 0.256 8.36 5.19 10.54
4/11/2021 2:30:00 PM 14 57.2 0.253 8.37 4.94 10.57
4/11/2021 2:45:00 PM 14.06 57.308 0.255 8.38 3.73 10.57
4/11/2021 3:00:00 PM 14.09 57.362 0.25 8.38 4.99 10.55
4/11/2021 3:15:00 PM 14.13 57.434 0.246 8.38 6.1 10.52
4/11/2021 3:30:00 PM 14.17 57.506 0.238 8.38 5.51 10.51
4/11/2021 3:45:00 PM 14.21 57.578 0.237 8.39 5.16 10.49
4/11/2021 4:00:00 PM 14.21 57.578 0.246 8.39 5.02 10.45
4/11/2021 4:15:00 PM 14.22 57.596 0.253 8.39 5.24 10.4
4/11/2021 4:30:00 PM 14.27 57.686 0.241 8.39 5.98 10.41
4/11/2021 4:45:00 PM 14.3 57.74 0.239 8.39 5.11 10.44
4/11/2021 5:00:00 PM 14.31 57.758 0.234 8.39 6.68 10.38
4/11/2021 5:15:00 PM 14.31 57.758 0.256 8.39 5.73 10.35
4/11/2021 5:30:00 PM 14.28 57.704 0.242 8.38 5.85 10.26
4/11/2021 5:45:00 PM 14.24 57.632 0.26 8.37 5.45 10.16
4/11/2021 6:00:00 PM 14.21 57.578 0.25 8.36 6.52 10.1
4/11/2021 6:15:00 PM 14.19 57.542 0.245 8.35 6.13 10.05
4/11/2021 6:30:00 PM 14.16 57.488 0.246 8.34 5.3 10.02
4/11/2021 6:45:00 PM 14.11 57.398 0.227 8.32 5.19 9.93
4/11/2021 7:00:00 PM 14.06 57.308 0.268 8.31 5.83 9.84
4/11/2021 7:15:00 PM 14.01 57.218 0.249 8.29 3.96 9.8
4/11/2021 7:30:00 PM 13.97 57.146 0.254 8.28 5.79 9.72
4/11/2021 7:45:00 PM 13.92 57.056 0.239 8.25 5.47 9.65
4/11/2021 8:00:00 PM 13.87 56.966 0.238 8.23 4.69 9.57
4/11/2021 8:15:00 PM 13.82 56.876 0.242 8.22 5.54 9.54
4/11/2021 8:30:00 PM 13.77 56.786 0.24 8.21 5.36 9.54
4/11/2021 8:45:00 PM 13.72 56.696 0.25 8.19 3.85 9.52
4/11/2021 9:00:00 PM 13.68 56.624 0.245 8.18 4.06 9.5
4/11/2021 9:15:00 PM 13.64 56.552 0.252 8.17 3.62 9.47
4/11/2021 9:30:00 PM 13.6 56.48 0.248 8.17 3.92 9.46
4/11/2021 9:45:00 PM 13.56 56.408 0.248 8.16 3.93 9.44
4/11/2021 10:00:00 PM 13.52 56.336 0.244 8.15 3.79 9.43
4/11/2021 10:15:00 PM 13.48 56.264 0.239 8.14 3.91 9.43
4/11/2021 10:30:00 PM 13.45 56.21 0.228 8.14 3.93 9.4
4/11/2021 10:45:00 PM 13.41 56.138 0.267 8.13 4.08 9.41
4/11/2021 11:00:00 PM 13.37 56.066 0.238 8.12 4.52 9.4
4/11/2021 11:15:00 PM 13.33 55.994 0.241 8.12 3.98 9.41
4/11/2021 11:30:00 PM 13.29 55.922 0.252 8.11 4.03 9.4
4/11/2021 11:45:00 PM 13.25 55.85 0.239 8.11 3.95 9.39
4/12/2021 12:00:00 AM 13.2 55.76 0.231 8.1 4.36 9.4
4/12/2021 12:15:00 AM 13.16 55.688 0.241 8.1 4.25 9.4
4/12/2021 12:30:00 AM 13.11 55.598 0.246 8.09 4.34 9.4
4/12/2021 12:45:00 AM 13.06 55.508 0.247 8.09 4.13 9.41
4/12/2021 1:00:00 AM 13.01 55.418 0.252 8.09 4.74 9.4
4/12/2021 1:15:00 AM 12.97 55.346 0.256 8.09 4.32 9.42
4/12/2021 1:30:00 AM 12.92 55.256 0.32 8.08 6.76 9.43
4/12/2021 1:45:00 AM 12.87 55.166 0.255 8.08 4.9 9.44
4/12/2021 2:00:00 AM 12.81 55.058 0.248 8.07 27.51 9.43
4/12/2021 2:15:00 AM 12.75 54.95 0.243 8.08 5.45 9.45
4/12/2021 2:30:00 AM 12.69 54.842 0.236 8.07 8.22 9.46
4/12/2021 2:45:00 AM 12.63 54.734 0.235 8.07 5.39 9.47
4/12/2021 3:00:00 AM 12.58 54.644 0.252 8.07 6.3 9.48
4/12/2021 3:15:00 AM 12.52 54.536 0.252 8.07 4.65 9.5
4/12/2021 3:30:00 AM 12.46 54.428 0.252 8.07 7.29 9.51
4/12/2021 3:45:00 AM 12.41 54.338 0.261 8.07 5.94 9.5
4/12/2021 4:00:00 AM 12.36 54.248 0.258 8.07 5.38 9.52
4/12/2021 4:15:00 AM 12.3 54.14 0.248 8.07 4.96 9.54
4/12/2021 4:30:00 AM 12.24 54.032 0.248 8.07 4.65 9.56
4/12/2021 4:45:00 AM 12.18 53.924 0.261 8.06 5.4 9.57
4/12/2021 5:00:00 AM 12.13 53.834 0.253 8.06 5.89 9.57
4/12/2021 5:15:00 AM 12.07 53.726 0.245 8.06 4.79 9.59
4/12/2021 5:30:00 AM 12.02 53.636 0.265 8.06 4.31 9.59
4/12/2021 5:45:00 AM 11.98 53.564 0.248 8.06 6.39 9.54
4/12/2021 6:00:00 AM 11.92 53.456 0.254 8.06 6.46 9.58
4/12/2021 6:15:00 AM 11.84 53.312 0.252 8.06 4.89 9.62
4/12/2021 6:30:00 AM 11.78 53.204 0.245 8.05 8.39 9.6
4/12/2021 6:45:00 AM 11.72 53.096 0.236 8.05 1293.3 9.61
4/12/2021 7:00:00 AM 11.66 52.988 0.25 8.06 5.14 9.66
4/12/2021 7:15:00 AM 11.6 52.88 0.254 8.06 6.38 9.7
4/12/2021 7:30:00 AM 11.53 52.754 0.251 8.06 6.8 9.72
4/12/2021 7:45:00 AM 11.48 52.664 0.243 8.07 5.98 9.78
4/12/2021 8:00:00 AM 11.44 52.592 0.241 8.08 5.77 9.87
4/12/2021 8:15:00 AM 11.4 52.52 0.261 8.09 5.69 9.93
4/12/2021 8:30:00 AM 11.37 52.466 0.255 8.09 5.48 9.92
4/12/2021 8:45:00 AM 11.34 52.412 0.259 8.1 6.19 10.06
4/12/2021 9:00:00 AM 11.32 52.376 0.244 8.11 6.15 10.09
4/12/2021 9:15:00 AM 11.3 52.34 0.26 8.12 5.43 10.18
4/12/2021 9:30:00 AM 11.29 52.322 0.253 8.13 5.65 10.24
4/12/2021 9:45:00 AM 11.28 52.304 0.232 8.14 6.67 10.29
4/12/2021 10:00:00 AM 11.29 52.322 0.239 8.16 6.12 10.39
4/12/2021 10:15:00 AM 11.32 52.376 0.248 8.18 6.51 10.48
4/12/2021 10:30:00 AM 11.32 52.376 0.249 8.19 6.9 10.54
4/12/2021 10:45:00 AM 11.35 52.43 0.253 8.2 5.29 10.6
4/12/2021 11:00:00 AM 11.36 52.448 0.245 8.21 6.43 10.64
4/12/2021 11:15:00 AM 11.4 52.52 0.256 8.22 7.51 10.66
4/12/2021 11:30:00 AM 11.43 52.574 0.245 8.24 5.83 10.75
4/12/2021 11:45:00 AM 11.44 52.592 0.232 8.25 6.49 10.77
4/12/2021 12:00:00 PM 11.44 52.592 0.256 8.25 5.91 10.79
4/12/2021 12:15:00 PM 11.44 52.592 0.238 8.26 6.16 10.81
4/12/2021 12:30:00 PM 11.46 52.628 0.24 8.27 5.48 10.81
4/12/2021 12:45:00 PM 11.47 52.646 0.248 8.27 5.25 10.82
4/12/2021 1:00:00 PM 11.49 52.682 0.261 8.28 5.72 10.85
4/12/2021 1:15:00 PM 11.52 52.736 0.246 8.29 5.6 10.89
4/12/2021 1:30:00 PM 11.53 52.754 0.225 8.3 6.36 10.89
4/12/2021 1:45:00 PM 11.55 52.79 0.251 8.3 6.38 10.89
4/12/2021 2:00:00 PM 11.57 52.826 0.234 8.31 6.46 10.95
4/12/2021 2:15:00 PM 11.58 52.844 0.257 8.32 5.62 10.88
4/12/2021 2:30:00 PM 11.58 52.844 0.249 8.32 5.62 10.93
4/12/2021 2:45:00 PM 11.57 52.826 0.243 8.32 5.78 10.92
4/12/2021 3:00:00 PM 11.56 52.808 0.243 8.32 5.36 10.9
4/12/2021 3:15:00 PM 11.56 52.808 0.241 8.32 5.26 10.85
4/12/2021 3:30:00 PM 11.54 52.772 0.24 8.32 5.3 10.88
4/12/2021 3:45:00 PM 11.51 52.718 0.241 8.32 7.1 10.83
4/12/2021 4:00:00 PM 11.48 52.664 0.237 8.31 6.18 10.79
4/12/2021 4:15:00 PM 11.44 52.592 0.233 8.3 6.44 10.74
4/12/2021 4:30:00 PM 11.43 52.574 0.246 8.3 5.45 10.74
4/12/2021 4:45:00 PM 11.4 52.52 0.313 8.3 5.66 10.72
4/12/2021 5:00:00 PM 11.37 52.466 0.243 8.29 4.61 10.66
4/12/2021 5:15:00 PM 11.35 52.43 0.232 8.29 4.44 10.65
4/12/2021 5:30:00 PM 11.33 52.394 0.233 8.27 6.49 10.58
4/12/2021 5:45:00 PM 11.32 52.376 0.234 8.28 7.18 10.58
4/12/2021 6:00:00 PM 11.3 52.34 0.223 8.27 6.31 10.6
4/12/2021 6:15:00 PM 11.28 52.304 0.239 8.26 6.93 10.53
4/12/2021 6:30:00 PM 11.25 52.25 0.253 8.25 6.16 10.49
4/12/2021 6:45:00 PM 11.22 52.196 0.253 8.24 6.01 10.45
4/12/2021 7:00:00 PM 11.19 52.142 0.232 8.23 6.02 10.42
4/12/2021 7:15:00 PM 11.15 52.07 0.261 8.22 6.24 10.37
4/12/2021 7:30:00 PM 11.12 52.016 0.25 8.2 7.26 10.33
4/12/2021 7:45:00 PM 11.08 51.944 0.25 8.14 11.64 10.31
4/12/2021 8:00:00 PM 11.05 51.89 0.261 8.18 5.03 10.27
4/12/2021 8:15:00 PM 11.01 51.818 0.237 8.17 5.05 10.24
4/12/2021 8:30:00 PM 10.98 51.764 0.242 8.17 2982.99 10.26
4/12/2021 8:45:00 PM 10.95 51.71 0.23 8.16 4.66 10.26
4/12/2021 9:00:00 PM 10.92 51.656 0.244 8.15 4.48 10.25
4/12/2021 9:15:00 PM 10.89 51.602 0.246 8.14 4.33 10.23
4/12/2021 9:30:00 PM 10.87 51.566 0.245 8.14 6.17 10.23
4/12/2021 9:45:00 PM 10.84 51.512 0.246 8.13 4.36 10.23
4/12/2021 10:00:00 PM 10.81 51.458 0.254 8.12 4.8 10.22
4/12/2021 10:15:00 PM 10.78 51.404 0.238 8.12 4.54 10.21
4/12/2021 10:30:00 PM 10.76 51.368 0.234 8.11 5.87 10.21
4/12/2021 10:45:00 PM 10.73 51.314 0.234 8.11 6.53 10.21
4/12/2021 11:00:00 PM 10.7 51.26 0.245 8.11 5.32 10.21
4/12/2021 11:15:00 PM 10.67 51.206 0.238 8.1 5.05 10.21
4/12/2021 11:30:00 PM 10.64 51.152 0.242 8.1 6.46 10.22
4/12/2021 11:45:00 PM 10.61 51.098 0.246 8.09 5.48 10.2
4/13/2021 12:00:00 AM 10.58 51.044 0.234 8.09 4.51 10.21
4/13/2021 12:15:00 AM 10.54 50.972 0.236 8.09 5.53 10.22
4/13/2021 12:30:00 AM 10.51 50.918 0.24 8.08 5.48 10.2
4/13/2021 12:45:00 AM 10.48 50.864 0.318 8.08 5.19 10.22
4/13/2021 1:00:00 AM 10.45 50.81 0.238 8.08 5.03 10.23
4/13/2021 1:15:00 AM 10.41 50.738 0.249 8.08 5.81 10.24
4/13/2021 1:30:00 AM 10.37 50.666 0.317 8.08 5.03 10.23
4/13/2021 1:45:00 AM 10.33 50.594 0.241 8.08 5.41 10.25
4/13/2021 2:00:00 AM 10.27 50.486 0.249 8.08 6.29 10.26
4/13/2021 2:15:00 AM 10.19 50.342 0.226 8.07 5.11 10.27
4/13/2021 2:30:00 AM 10.12 50.216 0.259 8.07 4.92 10.29
4/13/2021 2:45:00 AM 10.04 50.072 0.228 8.07 5.07 10.31
4/13/2021 3:00:00 AM 9.96 49.928 0.231 8.07 5.94 10.32
4/13/2021 3:15:00 AM 9.9 49.82 0.248 8.07 4.85 10.34
4/13/2021 3:30:00 AM 9.83 49.694 0.239 8.07 4.8 10.35
4/13/2021 3:45:00 AM 9.77 49.586 0.242 8.07 5.53 10.36
4/13/2021 4:00:00 AM 9.72 49.496 0.249 8.06 11.98 10.39
4/13/2021 4:15:00 AM 9.66 49.388 0.232 8.06 5.5 10.4
4/13/2021 4:30:00 AM 9.59 49.262 0.221 8.06 47.51 10.38
4/13/2021 4:45:00 AM 9.52 49.136 0.251 8.06 5.53 10.43
4/13/2021 5:00:00 AM 9.45 49.01 0.238 8.06 5 10.42
4/13/2021 5:15:00 AM 9.37 48.866 0.213 8.05 5.55 10.44
4/13/2021 5:30:00 AM 9.29 48.722 0.312 8.05 6.1 10.46
4/13/2021 5:45:00 AM 9.22 48.596 0.23 8.05 5.31 10.46
4/13/2021 6:00:00 AM 9.14 48.452 0.24 8.05 4.72 10.49
4/13/2021 6:15:00 AM 9.07 48.326 0.223 8.05 7.37 10.5
4/13/2021 6:30:00 AM 9.02 48.236 0.247 8.05 6.95 10.55
4/13/2021 6:45:00 AM 8.96 48.128 0.235 8.05 6.4 10.57
4/13/2021 7:00:00 AM 8.92 48.056 0.242 8.06 6.36 10.63
4/13/2021 7:15:00 AM 8.88 47.984 0.234 8.06 7.59 10.69
4/13/2021 7:30:00 AM 8.85 47.93 0.226 8.07 5.4 10.71
4/13/2021 7:45:00 AM 8.82 47.876 0.214 8.08 6.08 10.78
4/13/2021 8:00:00 AM 8.82 47.876 0.225 8.09 7.1 10.87
4/13/2021 8:15:00 AM 8.8 47.84 0.239 8.1 6.23 10.93
4/13/2021 8:30:00 AM 8.83 47.894 0.227 8.1 6.45 10.96
4/13/2021 8:45:00 AM 8.87 47.966 0.22 8.13 5.94 11.09
4/13/2021 9:00:00 AM 8.92 48.056 0.234 8.14 6.85 11.15
4/13/2021 9:15:00 AM 8.98 48.164 0.227 8.14 5.9 11.18
4/13/2021 9:30:00 AM 9.02 48.236 0.226 8.15 5.95 11.22
4/13/2021 9:45:00 AM 9.12 48.416 0.223 8.16 6.14 11.26
4/13/2021 10:00:00 AM 9.24 48.632 0.215 8.17 6.61 11.29
4/13/2021 10:15:00 AM 9.41 48.938 0.221 8.18 5.88 11.32
4/13/2021 10:30:00 AM 9.55 49.19 0.222 8.19 6.04 11.34
4/13/2021 10:45:00 AM 9.79 49.622 0.248 8.2 5.36 11.37
4/13/2021 11:00:00 AM 9.88 49.784 0.232 8.21 5.44 11.35
4/13/2021 11:15:00 AM 10.04 50.072 0.227 8.23 5.67 11.37
4/13/2021 11:30:00 AM 10.21 50.378 0.241 8.24 6.38 11.39
4/13/2021 11:45:00 AM 10.36 50.648 0.232 8.25 6.39 11.39
4/13/2021 12:00:00 PM 10.57 51.026 0.228 8.26 6.55 11.43
4/13/2021 12:15:00 PM 10.92 51.656 0.25 8.28 5.92 11.45
4/13/2021 12:30:00 PM 11.03 51.854 0.249 8.29 5.62 11.45
4/13/2021 12:45:00 PM 11.52 52.736 0.234 8.31 6.66 11.45
4/13/2021 1:00:00 PM 12.01 53.618 0.228 8.32 6.78 11.41
4/13/2021 1:15:00 PM 12.42 54.356 0.311 8.33 5.7 11.36
4/13/2021 1:30:00 PM 12.7 54.86 0.237 8.33 5.41 11.3
4/13/2021 1:45:00 PM 12.87 55.166 0.247 8.34 5.24 11.24
4/13/2021 2:00:00 PM 13.1 55.58 0.252 8.35 5.97 11.23
4/13/2021 2:15:00 PM 13.28 55.904 0.24 8.35 6.52 11.16
4/13/2021 2:30:00 PM 13.46 56.228 0.255 8.36 6.6 11.14
4/13/2021 2:45:00 PM 13.67 56.606 0.247 8.36 5.84 11.05
4/13/2021 3:00:00 PM 13.85 56.93 0.235 8.36 5.68 11.02
4/13/2021 3:15:00 PM 14.03 57.254 0.256 8.37 6.95 11
4/13/2021 3:30:00 PM 14.18 57.524 0.311 8.37 5.34 10.94
4/13/2021 3:45:00 PM 14.34 57.812 0.251 8.38 6.44 10.91
4/13/2021 4:00:00 PM 14.47 58.046 0.259 8.38 5.72 10.87
4/13/2021 4:15:00 PM 14.58 58.244 0.251 8.38 5.93 10.79
4/13/2021 4:30:00 PM 14.66 58.388 0.253 8.38 6.87 10.71
4/13/2021 4:45:00 PM 14.71 58.478 0.251 8.38 8.87 10.7
4/13/2021 5:00:00 PM 14.73 58.514 0.25 8.38 5.54 10.65
4/13/2021 5:15:00 PM 14.72 58.496 0.256 8.37 11.53 10.57
4/13/2021 5:30:00 PM 14.68 58.424 0.253 8.37 4.96 10.46
4/13/2021 5:45:00 PM 14.62 58.316 0.254 8.37 5.44 10.49
4/13/2021 6:00:00 PM 14.53 58.154 0.245 8.37 5.95 10.42
4/13/2021 6:15:00 PM 14.42 57.956 0.246 8.35 5.14 10.37
4/13/2021 6:30:00 PM 14.29 57.722 0.313 8.34 5 10.27
4/13/2021 6:45:00 PM 14.15 57.47 0.313 8.32 8.77 10.15
4/13/2021 7:00:00 PM 14.02 57.236 0.241 8.3 4.69 10.09
4/13/2021 7:15:00 PM 13.91 57.038 0.238 8.28 4.04 9.97
4/13/2021 7:30:00 PM 13.83 56.894 0.248 8.26 4.12 9.93
4/13/2021 7:45:00 PM 13.75 56.75 0.258 8.24 4.94 9.86
4/13/2021 8:00:00 PM 13.66 56.588 0.233 8.23 5.05 9.82
4/13/2021 8:15:00 PM 13.57 56.426 0.237 8.21 4.71 9.78
4/13/2021 8:30:00 PM 13.46 56.228 0.245 8.21 5.92 9.78
4/13/2021 8:45:00 PM 13.35 56.03 0.256 8.19 4.54 9.77
4/13/2021 9:00:00 PM 13.23 55.814 0.232 8.18 4.24 9.75
4/13/2021 9:15:00 PM 13.11 55.598 0.246 8.17 4.17 9.76
4/13/2021 9:30:00 PM 12.99 55.382 0.225 8.16 3.98 9.75
4/13/2021 9:45:00 PM 12.89 55.202 0.227 8.15 4.73 9.74
4/13/2021 10:00:00 PM 12.76 54.968 0.246 8.14 4.76 9.75
4/13/2021 10:15:00 PM 12.66 54.788 0.246 8.13 4.77 9.74
4/13/2021 10:30:00 PM 12.55 54.59 0.242 8.12 4.11 9.75
4/13/2021 10:45:00 PM 12.44 54.392 0.232 8.11 4.47 9.75
4/13/2021 11:00:00 PM 12.34 54.212 0.257 8.11 4.33 9.77
4/13/2021 11:15:00 PM 12.24 54.032 0.243 8.1 4.4 9.78
4/13/2021 11:30:00 PM 12.15 53.87 0.256 8.1 5.77 9.79
4/13/2021 11:45:00 PM 12.07 53.726 0.247 8.1 4.97 9.8
4/14/2021 12:00:00 AM 12 53.6 0.249 8.09 5.16 9.81
4/14/2021 12:15:00 AM 11.91 53.438 0.244 8.09 4.63 9.83
4/14/2021 12:30:00 AM 11.8 53.24 0.238 8.08 4.36 9.85
4/14/2021 12:45:00 AM 11.7 53.06 0.228 8.08 4.51 9.86
4/14/2021 1:00:00 AM 11.59 52.862 0.246 8.07 4.59 9.89
4/14/2021 1:15:00 AM 11.48 52.664 0.241 8.07 4.46 9.91
4/14/2021 1:30:00 AM 11.37 52.466 0.24 8.07 4.59 9.94
4/14/2021 1:45:00 AM 11.26 52.268 0.25 8.06 4.35 9.96
4/14/2021 2:00:00 AM 11.15 52.07 0.253 8.06 5 9.98
4/14/2021 2:15:00 AM 11.04 51.872 0.245 8.06 4.99 10.01
4/14/2021 2:30:00 AM 10.93 51.674 0.244 8.06 5.1 10.04
4/14/2021 2:45:00 AM 10.82 51.476 0.234 8.06 4.79 10.06
4/14/2021 3:00:00 AM 10.72 51.296 0.227 8.05 10.16 10.05
4/14/2021 3:15:00 AM 10.61 51.098 0.23 8.05 5.33 10.12
4/14/2021 3:30:00 AM 10.5 50.9 0.238 8.05 4.88 10.14
4/14/2021 3:45:00 AM 10.39 50.702 0.23 8.05 4.46 10.18
4/14/2021 4:00:00 AM 10.29 50.522 0.246 8.05 4.95 10.2
4/14/2021 4:15:00 AM 10.18 50.324 0.232 8.05 4.38 10.23
4/14/2021 4:30:00 AM 10.07 50.126 0.228 8.05 4.21 10.26
4/14/2021 4:45:00 AM 9.97 49.946 0.234 8.05 5.04 10.28
4/14/2021 5:00:00 AM 9.88 49.784 0.242 8.04 4.23 10.31
4/14/2021 5:15:00 AM 9.77 49.586 0.233 8.05 7.11 10.35
4/14/2021 5:30:00 AM 9.66 49.388 0.246 8.04 6.95 10.36
4/14/2021 5:45:00 AM 9.56 49.208 0.246 8.04 4.63 10.4
4/14/2021 6:00:00 AM 9.46 49.028 0.235 8.04 5.77 10.45
4/14/2021 6:15:00 AM 9.36 48.848 0.226 8.04 6.53 10.47
4/14/2021 6:30:00 AM 9.25 48.65 0.231 8.04 5.38 10.49
4/14/2021 6:45:00 AM 9.17 48.506 0.223 8.04 6.91 10.53
4/14/2021 7:00:00 AM 9.09 48.362 0.216 8.05 12.9 10.57
4/14/2021 7:15:00 AM 9.04 48.272 0.239 8.05 7.01 10.65
4/14/2021 7:30:00 AM 9 48.2 0.216 8.06 5.56 10.73
4/14/2021 7:45:00 AM 8.99 48.182 0.241 8.08 4.71 10.82
4/14/2021 8:00:00 AM 8.98 48.164 0.235 8.09 5.1 10.9
4/14/2021 8:15:00 AM 8.99 48.182 0.244 8.1 4.58 10.99
4/14/2021 8:30:00 AM 8.99 48.182 0.236 8.11 3.87 11.05
4/14/2021 8:45:00 AM 9.03 48.254 0.234 8.12 4.68 11.1
4/14/2021 9:00:00 AM 9.1 48.38 0.247 8.14 4.95 11.18
4/14/2021 9:15:00 AM 9.18 48.524 0.236 8.15 5.44 11.23
4/14/2021 9:30:00 AM 9.27 48.686 0.219 8.16 3.73 11.27
4/14/2021 9:45:00 AM 9.37 48.866 0.229 8.16 4.69 11.3
4/14/2021 10:00:00 AM 9.5 49.1 0.232 8.18 5.08 11.34
4/14/2021 10:15:00 AM 9.68 49.424 0.233 8.19 3.98 11.28
4/14/2021 10:30:00 AM 9.88 49.784 0.223 8.21 4.23 11.41
4/14/2021 10:45:00 AM 10.11 50.198 0.232 8.22 5.46 11.43
4/14/2021 11:00:00 AM 10.37 50.666 0.234 8.23 3.99 11.44
4/14/2021 11:15:00 AM 10.64 51.152 0.238 8.25 3.8 11.44
4/14/2021 11:30:00 AM 10.98 51.764 0.212 8.26 4.19 11.44
4/14/2021 11:45:00 AM 11.37 52.466 0.243 8.27 4.23 11.43
4/14/2021 12:00:00 PM 11.7 53.06 0.266 8.29 4.01 11.39
4/14/2021 12:15:00 PM 11.83 53.294 0.237 8.29 4.5 11.37
4/14/2021 12:30:00 PM 11.9 53.42 0.23 8.3 4.32 11.33
4/14/2021 12:45:00 PM 12.15 53.87 0.239 8.31 4.29 11.3
4/14/2021 1:00:00 PM 12.38 54.284 0.253 8.33 4.34 11.27
4/14/2021 1:15:00 PM 12.6 54.68 0.249 8.33 4.51 11.21
4/14/2021 1:30:00 PM 12.66 54.788 0.244 8.34 3.77 11.17
4/14/2021 1:45:00 PM 12.66 54.788 0.245 8.34 4.86 11.13
4/14/2021 2:00:00 PM 12.66 54.788 0.247 8.34 3.93 11.06
4/14/2021 2:15:00 PM 12.68 54.824 0.245 8.34 5.66 11.01
4/14/2021 2:30:00 PM 12.75 54.95 0.247 8.34 5.02 11.02
4/14/2021 2:45:00 PM 12.78 55.004 0.252 8.35 4.21 11.02
4/14/2021 3:00:00 PM 12.8 55.04 0.238 8.36 5.12 11.01
4/14/2021 3:15:00 PM 12.79 55.022 0.241 8.36 4.31 10.97
4/14/2021 3:30:00 PM 12.81 55.058 0.244 8.36 4.61 10.96
4/14/2021 3:45:00 PM 12.82 55.076 0.248 8.37 4.71 10.95
4/14/2021 4:00:00 PM 12.8 55.04 0.25 8.37 4.02 10.9
4/14/2021 4:15:00 PM 12.77 54.986 0.245 8.36 5.07 10.83
4/14/2021 4:30:00 PM 12.76 54.968 0.246 8.36 4.67 10.84
4/14/2021 4:45:00 PM 12.79 55.022 0.243 8.36 5.45 10.8
4/14/2021 5:00:00 PM 12.78 55.004 0.241 8.36 4.66 10.81
4/14/2021 5:15:00 PM 12.74 54.932 0.245 8.35 5.9 10.75
4/14/2021 5:30:00 PM 12.7 54.86 0.247 8.34 4.84 10.69
4/14/2021 5:45:00 PM 12.67 54.806 0.24 8.34 3.45 10.64
4/14/2021 6:00:00 PM 12.65 54.77 0.23 8.33 4.39 10.58
4/14/2021 6:15:00 PM 12.61 54.698 0.23 8.32 5.74 10.52
4/14/2021 6:30:00 PM 12.59 54.662 0.24 8.31 4.47 10.45
4/14/2021 6:45:00 PM 12.56 54.608 0.254 8.29 3.9 10.35
4/14/2021 7:00:00 PM 12.53 54.554 0.229 8.27 4.3 10.27
4/14/2021 7:15:00 PM 12.5 54.5 0.238 8.25 4.49 10.2
4/14/2021 7:30:00 PM 12.47 54.446 0.26 8.24 4.08 10.14
4/14/2021 7:45:00 PM 12.42 54.356 0.257 8.23 4.7 10.07
4/14/2021 8:00:00 PM 12.34 54.212 0.244 8.21 5.06 10.04
4/14/2021 8:15:00 PM 12.32 54.176 0.255 8.2 4.27 10
4/14/2021 8:30:00 PM 12.3 54.14 0.239 8.19 5.52 9.96
4/14/2021 8:45:00 PM 12.26 54.068 0.24 8.19 4.67 9.95
4/14/2021 9:00:00 PM 12.21 53.978 0.322 8.18 4.15 9.92
4/14/2021 9:15:00 PM 12.16 53.888 0.245 8.17 3.88 9.9
4/14/2021 9:30:00 PM 12.12 53.816 0.237 8.16 3.5 9.9
4/14/2021 9:45:00 PM 12.09 53.762 0.236 8.16 3.58 9.88
4/14/2021 10:00:00 PM 12.04 53.672 0.249 8.15 3.79 9.87
4/14/2021 10:15:00 PM 12 53.6 0.261 8.14 3.98 9.87
4/14/2021 10:30:00 PM 11.95 53.51 0.26 8.14 3.89 9.87
4/14/2021 10:45:00 PM 11.9 53.42 0.229 8.13 3.93 9.86
4/14/2021 11:00:00 PM 11.86 53.348 0.246 8.13 3.7 9.86
4/14/2021 11:15:00 PM 11.82 53.276 0.251 8.12 3.74 9.85
4/14/2021 11:30:00 PM 11.79 53.222 0.246 8.12 3.8 9.85
4/14/2021 11:45:00 PM 11.75 53.15 0.238 8.11 4.91 9.84
4/15/2021 12:00:00 AM 11.71 53.078 0.235 8.11 4.47 9.85
4/15/2021 12:15:00 AM 11.67 53.006 0.262 8.11 4.05 9.85
4/15/2021 12:30:00 AM 11.63 52.934 0.263 8.11 4.08 9.86
4/15/2021 12:45:00 AM 11.59 52.862 0.225 8.1 4.48 9.86
4/15/2021 1:00:00 AM 11.54 52.772 0.253 8.1 4.63 9.86
4/15/2021 1:15:00 AM 11.51 52.718 0.231 8.09 4.01 9.87
4/15/2021 1:30:00 AM 11.47 52.646 0.26 8.09 4 9.87
4/15/2021 1:45:00 AM 11.44 52.592 0.263 8.09 5.56 9.86
4/15/2021 2:00:00 AM 11.41 52.538 0.235 8.09 4.02 9.88
4/15/2021 2:15:00 AM 11.36 52.448 0.251 8.09 3.91 9.89
4/15/2021 2:30:00 AM 11.32 52.376 0.247 8.08 4.3 9.9
4/15/2021 2:45:00 AM 11.28 52.304 0.238 8.08 4.14 9.91
4/15/2021 3:00:00 AM 11.24 52.232 0.235 8.08 4.04 9.91
4/15/2021 3:15:00 AM 11.2 52.16 0.231 8.08 3.97 9.92
4/15/2021 3:30:00 AM 11.16 52.088 0.233 8.07 6.35 9.92
4/15/2021 3:45:00 AM 11.11 51.998 0.232 8.07 4.42 9.93
4/15/2021 4:00:00 AM 11.06 51.908 0.228 8.07 5.79 9.94
4/15/2021 4:15:00 AM 11.01 51.818 0.244 8.07 5.06 9.96
4/15/2021 4:30:00 AM 10.96 51.728 0.248 8.07 4.23 9.98
4/15/2021 4:45:00 AM 10.91 51.638 0.257 8.07 6.34 9.96
4/15/2021 5:00:00 AM 10.85 51.53 0.243 8.07 9.23 9.98
4/15/2021 5:15:00 AM 10.8 51.44 0.256 8.07 7.52 10.01
4/15/2021 5:30:00 AM 10.75 51.35 0.259 8.07 5.04 10.02
4/15/2021 5:45:00 AM 10.71 51.278 0.231 8.07 4.34 10.03
4/15/2021 6:00:00 AM 10.66 51.188 0.237 8.06 3.92 10.05
4/15/2021 6:15:00 AM 10.62 51.116 0.225 8.06 8.15 9.99
4/15/2021 6:30:00 AM 10.57 51.026 0.245 8.07 4.25 10.06
4/15/2021 6:45:00 AM 10.52 50.936 0.237 8.06 5.58 10.07
4/15/2021 7:00:00 AM 10.48 50.864 0.244 8.07 6.23 10.11
4/15/2021 7:15:00 AM 10.44 50.792 0.24 8.07 6.64 10.14
4/15/2021 7:30:00 AM 10.42 50.756 0.252 8.08 5.72 10.17
4/15/2021 7:45:00 AM 10.4 50.72 0.249 8.08 5.16 10.25
4/15/2021 8:00:00 AM 10.39 50.702 0.246 8.09 4.74 10.35
4/15/2021 8:15:00 AM 10.38 50.684 0.25 8.11 4.48 10.3
4/15/2021 8:30:00 AM 10.39 50.702 0.25 8.12 8.75 10.44
4/15/2021 8:45:00 AM 10.43 50.774 0.249 8.14 4.79 10.6
4/15/2021 9:00:00 AM 10.46 50.828 0.235 8.15 4.52 10.69
4/15/2021 9:15:00 AM 10.48 50.864 0.235 8.16 4.98 10.73
4/15/2021 9:30:00 AM 10.51 50.918 0.243 8.18 4.45 10.78
4/15/2021 9:45:00 AM 10.59 51.062 0.248 8.19 4.9 10.82
4/15/2021 10:00:00 AM 10.65 51.17 0.248 8.21 5.44 10.88
4/15/2021 10:15:00 AM 10.67 51.206 0.249 8.21 5.39 10.96
4/15/2021 10:30:00 AM 10.65 51.17 0.245 8.22 4.54 10.92
4/15/2021 10:45:00 AM 10.65 51.17 0.243 8.22 5.29 10.94
4/15/2021 11:00:00 AM 10.67 51.206 0.254 8.23 4.74 10.94
4/15/2021 11:15:00 AM 10.73 51.314 0.259 8.24 5.5 11.01
4/15/2021 11:30:00 AM 10.84 51.512 0.27 8.25 5.83 11.09
4/15/2021 11:45:00 AM 10.84 51.512 0.224 8.26 5.41 11.08
4/15/2021 12:00:00 PM 10.84 51.512 0.235 8.26 5.79 11.1
4/15/2021 12:15:00 PM 10.85 51.53 0.251 8.27 6.67 11.09
4/15/2021 12:30:00 PM 10.82 51.476 0.238 8.28 5.41 11.07
4/15/2021 12:45:00 PM 10.79 51.422 0.246 8.28 4.91 11.06
4/15/2021 1:00:00 PM 10.77 51.386 0.24 8.28 5.32 11.07
4/15/2021 1:15:00 PM 10.7 51.26 0.239 8.28 4.62 11.02
4/15/2021 1:30:00 PM 10.64 51.152 0.256 8.27 8.89 10.94
4/15/2021 1:45:00 PM 10.59 51.062 0.232 8.27 5.15 10.96
4/15/2021 2:00:00 PM 10.55 50.99 0.23 8.28 5.58 10.99
4/15/2021 2:15:00 PM 10.51 50.918 0.245 8.28 5.06 11
4/15/2021 2:30:00 PM 10.48 50.864 0.254 8.28 5.72 11.01
4/15/2021 2:45:00 PM 10.45 50.81 0.245 8.28 6.06 11
4/15/2021 3:00:00 PM 10.43 50.774 0.239 8.28 7.22 11
4/15/2021 3:15:00 PM 10.44 50.792 0.236 8.29 6.16 11.06
4/15/2021 3:30:00 PM 10.41 50.738 0.233 8.29 4.87 11.07
4/15/2021 3:45:00 PM 10.38 50.684 0.243 8.29 5.72 11.07
4/15/2021 4:00:00 PM 10.36 50.648 0.254 8.3 4.25 11.04
4/15/2021 4:15:00 PM 10.34 50.612 0.239 8.3 5.24 11.05
4/15/2021 4:30:00 PM 10.29 50.522 0.228 8.29 5.48 10.98
4/15/2021 4:45:00 PM 10.25 50.45 0.246 8.28 5.02 10.96
4/15/2021 5:00:00 PM 10.2 50.36 0.244 8.28 4.08 10.93
4/15/2021 5:15:00 PM 10.12 50.216 0.247 8.27 7.11 10.92
4/15/2021 5:30:00 PM 10.08 50.144 0.232 8.27 5.83 10.87
4/15/2021 5:45:00 PM 10.03 50.054 0.237 8.26 3.65 10.82
4/15/2021 6:00:00 PM 9.98 49.964 0.23 8.25 8.42 10.84
4/15/2021 6:15:00 PM 9.93 49.874 0.233 8.24 5.59 10.79
4/15/2021 6:30:00 PM 9.89 49.802 0.24 8.24 4.82 10.72
4/15/2021 6:45:00 PM 9.86 49.748 0.239 8.23 4.76 10.44
4/15/2021 7:00:00 PM 9.82 49.676 0.236 8.22 4.6 10.75
4/15/2021 7:15:00 PM 9.78 49.604 0.231 8.21 5.97 10.68
4/15/2021 7:30:00 PM 9.73 49.514 0.221 8.2 15.06 10.64
4/15/2021 7:45:00 PM 9.68 49.424 0.254 8.2 6 10.68
4/15/2021 8:00:00 PM 9.63 49.334 0.243 8.19 5.73 10.64
4/15/2021 8:15:00 PM 9.57 49.226 0.246 8.18 3.52 10.62
4/15/2021 8:30:00 PM 9.51 49.118 0.243 8.17 4.79 10.6
4/15/2021 8:45:00 PM 9.43 48.974 0.243 8.16 7.4 10.58
4/15/2021 9:00:00 PM 9.35 48.83 0.237 8.16 6.85 10.57
4/15/2021 9:15:00 PM 9.27 48.686 0.244 8.15 4.2 10.6
4/15/2021 9:30:00 PM 9.18 48.524 0.226 8.15 4.07 10.6
4/15/2021 9:45:00 PM 9.09 48.362 0.24 8.14 4.04 10.59
4/15/2021 10:00:00 PM 9.01 48.218 0.228 8.14 3.85 10.61
4/15/2021 10:15:00 PM 8.92 48.056 0.239 8.13 5.2 10.62
4/15/2021 10:30:00 PM 8.84 47.912 0.22 8.13 5.17 10.63
4/15/2021 10:45:00 PM 8.76 47.768 0.221 8.12 4.39 10.64
4/15/2021 11:00:00 PM 8.7 47.66 0.233 8.12 4.14 10.65
4/15/2021 11:15:00 PM 8.64 47.552 0.236 8.12 4.62 10.67
4/15/2021 11:30:00 PM 8.59 47.462 0.234 8.11 4.56 10.66
4/15/2021 11:45:00 PM 8.54 47.372 0.232 8.11 4.11 10.67
4/16/2021 12:00:00 AM 8.5 47.3 0.24 8.11 4.08 10.7
4/16/2021 12:15:00 AM 8.46 47.228 0.237 8.11 4.19 10.7
4/16/2021 12:30:00 AM 8.43 47.174 0.243 8.1 4 10.71
4/16/2021 12:45:00 AM 8.38 47.084 0.24 8.1 4.24 10.72
4/16/2021 1:00:00 AM 8.34 47.012 0.232 8.1 4.05 10.73
4/16/2021 1:15:00 AM 8.3 46.94 0.237 8.09 6.37 10.74
4/16/2021 1:30:00 AM 8.25 46.85 0.24 8.09 4.67 10.74
4/16/2021 1:45:00 AM 8.22 46.796 0.234 8.09 4.21 10.77
4/16/2021 2:00:00 AM 8.18 46.724 0.221 8.09 4.09 10.78
4/16/2021 2:15:00 AM 8.14 46.652 0.237 8.09 4.04 10.78
4/16/2021 2:30:00 AM 8.11 46.598 0.24 8.09 3.99 10.8
4/16/2021 2:45:00 AM 8.07 46.526 0.236 8.09 4.62 10.81
4/16/2021 3:00:00 AM 8.04 46.472 0.22 8.09 4.93 10.81
4/16/2021 3:15:00 AM 8.01 46.418 0.241 8.09 5.51 10.82
4/16/2021 3:30:00 AM 7.98 46.364 0.213 8.08 4.34 10.82
4/16/2021 3:45:00 AM 7.96 46.328 0.226 8.08 6.13 10.83
4/16/2021 4:00:00 AM 7.93 46.274 0.238 8.08 6.53 10.83
4/16/2021 4:15:00 AM 7.9 46.22 0.234 8.08 4.65 10.83
4/16/2021 4:30:00 AM 7.88 46.184 0.222 8.08 4.98 10.85
4/16/2021 4:45:00 AM 7.85 46.13 0.218 8.08 4.46 10.85
4/16/2021 5:00:00 AM 7.83 46.094 0.236 8.08 4.39 10.87
4/16/2021 5:15:00 AM 7.81 46.058 0.24 8.08 4.14 10.87
4/16/2021 5:30:00 AM 7.79 46.022 0.231 8.08 4.21 10.87
4/16/2021 5:45:00 AM 7.78 46.004 0.235 8.08 5.98 10.87
4/16/2021 6:00:00 AM 7.76 45.968 0.223 8.08 4.09 10.88
4/16/2021 6:15:00 AM 7.74 45.932 0.207 8.08 4.26 10.87
4/16/2021 6:30:00 AM 7.72 45.896 0.215 8.08 6.81 10.89
4/16/2021 6:45:00 AM 7.7 45.86 0.223 8.08 5.33 10.85
4/16/2021 7:00:00 AM 7.69 45.842 0.234 8.08 8.3 10.93
4/16/2021 7:15:00 AM 7.68 45.824 0.228 8.08 7.14 10.93
4/16/2021 7:30:00 AM 7.68 45.824 0.243 8.1 6.7 11.02
4/16/2021 7:45:00 AM 7.69 45.842 0.22 8.1 13.86 11.02
4/16/2021 8:00:00 AM 7.7 45.86 0.228 8.11 4.95 11.1
4/16/2021 8:15:00 AM 7.75 45.95 0.217 8.12 6.17 11.11
4/16/2021 8:30:00 AM 7.78 46.004 0.23 8.13 5.28 11.2
4/16/2021 8:45:00 AM 7.8 46.04 0.233 8.14 4.97 11.28
4/16/2021 9:00:00 AM 7.85 46.13 0.233 8.15 5.98 11.34
4/16/2021 9:15:00 AM 7.9 46.22 0.224 8.17 4.58 11.36
4/16/2021 9:30:00 AM 7.96 46.328 0.242 8.18 5.22 11.44
4/16/2021 9:45:00 AM 8.01 46.418 0.229 8.19 5.83 11.47
4/16/2021 10:00:00 AM 8.09 46.562 0.237 8.2 5.25 11.54
4/16/2021 10:15:00 AM 8.13 46.634 0.236 8.21 3.83 11.43